Provisional Data: Lackawanna River near Forest City, PA


Please select a monitoring station.
Please select start date.
Please select start date.

Toggle Unit: C/F Toggle Unit: C/F
Sample Time Temperature (C) Temperature (F) Specific Conductivity (mS/cm) pH   Turbidity (NTU+) DO (mg/L)
5/2/2023 12:00:00 AM 9.1 48.38 0.08 7.06 25.03 6.87
5/2/2023 12:15:00 AM 9.1 48.38 0.077 7.04 24.65 6.55
5/2/2023 12:30:00 AM 9.1 48.38 0.08 6.37 24.09 6.22
5/2/2023 12:45:00 AM 9.09 48.362 0.078 6.85 25.79 6.1
5/2/2023 1:00:00 AM 9.08 48.344 0.079 7.03 26.35 6.22
5/2/2023 1:15:00 AM 9.07 48.326 0.08 7.04 24.8 5.91
5/2/2023 1:30:00 AM 9.06 48.308 0.081 6.61 23.81 5.43
5/2/2023 1:45:00 AM 9.05 48.29 0.081 6.86 24.39 5.01
5/2/2023 2:00:00 AM 9.03 48.254 0.082 6.99 25.28 4.51
5/2/2023 2:15:00 AM 9.03 48.254 0.083 7.03 25.46 4.18
5/2/2023 2:30:00 AM 9.03 48.254 0.085 7.02 26.02 3.84
5/2/2023 2:45:00 AM 9.02 48.236 0.087 6.95 25.31 3.72
5/2/2023 3:00:00 AM 9.02 48.236 0.085 6.95 25.82 3.52
5/2/2023 3:15:00 AM 9.01 48.218 0.086 7.02 27.28 3.59
5/2/2023 3:30:00 AM 9.01 48.218 0.087 7.05 25.78 4.01
5/2/2023 3:45:00 AM 9 48.2 0.084 7.06 25.66 4.11
5/2/2023 4:00:00 AM 8.99 48.182 0.084 6.98 25.64 4.12
5/2/2023 4:15:00 AM 9 48.2 0.084 7.04 23.86 4.54
5/2/2023 4:30:00 AM 8.99 48.182 0.086 7.04 24.01 5.03
5/2/2023 4:45:00 AM 8.99 48.182 0.084 7.06 24.01 5.12
5/2/2023 5:00:00 AM 8.99 48.182 0.085 7.03 22.72 5.45
5/2/2023 5:15:00 AM 8.99 48.182 0.081 7.06 23.78 5.71
5/2/2023 5:30:00 AM 8.98 48.164 0.081 7.07 24.11 5.57
5/2/2023 5:45:00 AM 8.98 48.164 0.081 7.04 24.19 5.25
5/2/2023 6:00:00 AM 8.99 48.182 0.081 7.07 23.62 4.91
5/2/2023 6:15:00 AM 8.98 48.164 0.082 7.07 24 4.62
5/2/2023 6:30:00 AM 8.99 48.182 0.082 7.07 22.8 4.36
5/2/2023 6:45:00 AM 8.99 48.182 0.083 7.06 24.12 4.29
5/2/2023 7:00:00 AM 8.98 48.164 0.082 7.07 24.13 4.18
5/2/2023 7:15:00 AM 8.98 48.164 0.082 7.05 23.92 3.92
5/2/2023 7:30:00 AM 8.97 48.146 0.083 7.07 24.08 3.74
5/2/2023 7:45:00 AM 8.98 48.164 0.083 7.08 23.64 3.63
5/2/2023 8:00:00 AM 9 48.2 0.081 7.08 23.23 3.52
5/2/2023 8:15:00 AM 9.03 48.254 0.08 7.08 23.62 3.53
5/2/2023 8:30:00 AM 9.06 48.308 0.081 7.09 22.69 3.57
5/2/2023 8:45:00 AM 9.09 48.362 0.082 7.07 23.26 3.76
5/2/2023 9:00:00 AM 9.14 48.452 0.083 6.98 23.91 3.91
5/2/2023 9:15:00 AM 9.19 48.542 0.081 7.02 25.47 4.03
5/2/2023 9:30:00 AM 9.25 48.65 0.081 6.99 26.07 4.23
5/2/2023 9:45:00 AM 9.31 48.758 0.085 7 29.14 4.35
5/2/2023 10:00:00 AM 9.36 48.848 0.087 7 32.15 4.49
5/2/2023 10:15:00 AM 9.42 48.956 0.088 6.98 58.35 4.67
5/2/2023 10:30:00 AM 9.5 49.1 0.089 7.02 33.61 4.78
5/2/2023 10:45:00 AM 9.55 49.19 0.09 7.01 32.51 4.8
5/2/2023 11:00:00 AM 9.59 49.262 0.091 7 31.75 4.76
5/2/2023 11:15:00 AM 9.62 49.316 0.088 6.99 32.41 4.59
5/2/2023 11:30:00 AM 9.67 49.406 0.087 7 30.56 4.57
5/2/2023 11:45:00 AM 9.7 49.46 0.085 6.99 29.28 4.43
5/2/2023 12:00:00 PM 9.73 49.514 0.087 6.95 35.35 4.12
5/2/2023 12:15:00 PM 9.77 49.586 0.087 6.95 27.65 3.55
5/2/2023 12:30:00 PM 9.86 49.748 0.086 6.95 32.41 2.7
5/2/2023 12:45:00 PM 9.95 49.91 0.088 6.92 26.18 2.46
5/2/2023 1:00:00 PM 10.02 50.036 0.09 6.96 29.21 2.49
5/2/2023 1:15:00 PM 10.08 50.144 0.091 6.93 29.06 2.51
5/2/2023 1:30:00 PM 10.1 50.18 0.095 6.94 29.01 2.52
5/2/2023 1:45:00 PM 10.13 50.234 0.096 6.92 31.47 2.52
5/2/2023 2:00:00 PM 10.18 50.324 0.095 6.9 27.78 2.08
5/2/2023 2:15:00 PM 10.22 50.396 0.096 6.95 36.22 1.55
5/2/2023 2:30:00 PM 10.26 50.468 0.096 6.95 36.53 1.38
5/2/2023 2:45:00 PM 10.26 50.468 0.093 6.75 29.96 1.3
5/2/2023 3:00:00 PM 10.26 50.468 0.096 6.87 29.72 1.19
5/2/2023 3:15:00 PM 10.28 50.504 0.093 6.88 26.71 1.2
5/2/2023 3:30:00 PM 10.32 50.576 0.094 6.84 28.73 1.16
5/2/2023 3:45:00 PM 10.33 50.594 0.096 6.64 26.03 0.99
5/2/2023 4:00:00 PM 10.32 50.576 0.096 6.74 25.97 0.91
5/2/2023 4:15:00 PM 10.28 50.504 0.097 6.57 24.87 1.14
5/2/2023 4:30:00 PM 10.26 50.468 0.098 6.61 31.43 1.32
5/2/2023 4:45:00 PM 10.26 50.468 0.093 6.87 28.89 1.29
5/2/2023 5:00:00 PM 10.27 50.486 0.099 6.85 27.12 1.24
5/2/2023 5:15:00 PM 10.26 50.468 0.098 6.91 26.65 1.2
5/2/2023 5:30:00 PM 10.23 50.414 0.094 6.88 29.51 1.13
5/2/2023 5:45:00 PM 10.19 50.342 0.092 6.86 32.34 1.36
5/2/2023 6:00:00 PM 10.14 50.252 0.102 6.87 35.71 1.43
5/2/2023 6:15:00 PM 10.09 50.162 0.099 6.86 30.47 1.44
5/2/2023 6:30:00 PM 10.04 50.072 0.103 6.9 31.01 1.33
5/2/2023 6:45:00 PM 9.99 49.982 0.096 6.9 28.59 1.12
5/2/2023 7:00:00 PM 9.93 49.874 0.09 6.82 34.46 1.08
5/2/2023 7:15:00 PM 9.87 49.766 0.095 6.8 36.34 1.16
5/2/2023 7:30:00 PM 9.81 49.658 0.096 6.92 27.05 1.16
5/2/2023 7:45:00 PM 9.76 49.568 0.097 6.88 28.17 1.22
5/2/2023 8:00:00 PM 9.72 49.496 0.093 6.88 38.07 1.3
5/2/2023 8:15:00 PM 9.7 49.46 0.091 6.91 36.72 1.22
5/2/2023 8:30:00 PM 9.67 49.406 0.089 6.91 38.64 1.05
5/2/2023 8:45:00 PM 9.64 49.352 0.087 6.89 30.45 0.93
5/2/2023 9:00:00 PM 9.62 49.316 0.084 6.84 30.03 0.56
5/2/2023 9:15:00 PM 9.59 49.262 0.083 6.91 33.87 0.52
5/2/2023 9:30:00 PM 9.56 49.208 0.081 6.77 27.12 0.6
5/2/2023 9:45:00 PM 9.53 49.154 0.081 6.91 27.76 0.78
5/2/2023 10:00:00 PM 9.51 49.118 0.082 6.92 27.11 1.07
5/2/2023 10:15:00 PM 9.49 49.082 0.082 6.88 28.33 1.16
5/2/2023 10:30:00 PM 9.48 49.064 0.08 6.8 26.73 1.01
5/2/2023 10:45:00 PM 9.47 49.046 0.08 6.84 26.97 1.02
5/2/2023 11:00:00 PM 9.46 49.028 0.079 6.86 35 1.25
5/2/2023 11:15:00 PM 9.45 49.01 0.078 6.88 31.09 1.26
5/2/2023 11:30:00 PM 9.45 49.01 0.076 6.87 25.04 1.29
5/2/2023 11:45:00 PM 9.45 49.01 0.077 6.86 25.08 1.23
5/3/2023 12:00:00 AM 9.45 49.01 0.077 6.87 34.52 1.15
5/3/2023 12:15:00 AM 9.44 48.992 0.078 6.92 27.06 1.08
5/3/2023 12:30:00 AM 9.44 48.992 0.081 6.89 29.78 1.17
5/3/2023 12:45:00 AM 9.44 48.992 0.079 6.93 28.98 1.2
5/3/2023 1:00:00 AM 9.44 48.992 0.079 6.95 29.83 1.04
5/3/2023 1:15:00 AM 9.45 49.01 0.077 6.94 24.89 0.94
5/3/2023 1:30:00 AM 9.45 49.01 0.081 6.93 32.65 0.87
5/3/2023 1:45:00 AM 9.45 49.01 0.077 6.91 30.57 0.78
5/3/2023 2:00:00 AM 9.45 49.01 0.085 6.94 27.54 0.6
5/3/2023 2:15:00 AM 9.45 49.01 0.092 6.89 25.32 0.71
5/3/2023 2:30:00 AM 9.45 49.01 0.085 6.92 27.26 0.85
5/3/2023 2:45:00 AM 9.44 48.992 0.083 6.91 25.23 0.95
5/3/2023 3:00:00 AM 9.43 48.974 0.082 6.93 28.24 0.98
5/3/2023 3:15:00 AM 9.43 48.974 0.087 6.9 29.74 0.83
5/3/2023 3:30:00 AM 9.43 48.974 0.086 6.91 29.4 0.63
5/3/2023 3:45:00 AM 9.42 48.956 0.09 6.91 25.42 0.52
5/3/2023 4:00:00 AM 9.41 48.938 0.087 6.85 25.99 0.52
5/3/2023 4:15:00 AM 9.41 48.938 0.088 6.87 29.18 0.46
5/3/2023 4:30:00 AM 9.4 48.92 0.127 6.88 28.38 0.35
5/3/2023 4:45:00 AM 9.4 48.92 0.129 6.85 28.76 0.3
5/3/2023 5:00:00 AM 9.4 48.92 0.094 6.87 31.25 0.28
5/3/2023 5:15:00 AM 9.39 48.902 0.087 6.9 26.49 0.26
5/3/2023 5:30:00 AM 9.39 48.902 0.087 6.85 26.81 0.37
5/3/2023 5:45:00 AM 9.39 48.902 0.085 6.89 29.66 0.41
5/3/2023 6:00:00 AM 9.38 48.884 0.072 6.87 33.25 0.49
5/3/2023 6:15:00 AM 9.38 48.884 0.077 6.79 24.56 0.64
5/3/2023 6:30:00 AM 9.38 48.884 0.079 6.85 28.18 0.7
5/3/2023 6:45:00 AM 9.37 48.866 0.095 6.87 29.01 0.59
5/3/2023 7:00:00 AM 9.38 48.884 0.097 6.87 22.43 0.52
5/3/2023 7:15:00 AM 9.38 48.884 0.088 6.86 26.95 0.48
5/3/2023 7:30:00 AM 9.38 48.884 0.08 6.86 26.27 0.46
5/3/2023 7:45:00 AM 9.38 48.884 0.081 6.84 27.59 0.42
5/3/2023 8:00:00 AM 9.39 48.902 0.076 6.89 23.44 0.37
5/3/2023 8:15:00 AM 9.41 48.938 0.077 6.71 29.05 0.31
5/3/2023 8:30:00 AM 9.43 48.974 0.087 6.83 25.04 0.33
5/3/2023 8:45:00 AM 9.46 49.028 0.075 6.84 22.93 0.35
5/3/2023 9:00:00 AM 9.5 49.1 0.077 6.79 42.55 0.31
5/3/2023 9:15:00 AM 9.53 49.154 0.082 6.63 25.84 0.23
5/3/2023 9:30:00 AM 9.56 49.208 0.083 6.58 25.27 0.2
5/3/2023 9:45:00 AM 9.58 49.244 0.08 6.53 31.82 0.18
5/3/2023 10:00:00 AM 9.64 49.352 0.09 6.79 35.97 0.17
5/3/2023 10:15:00 AM 9.68 49.424 0.104 6.72 36.77 0.16
5/3/2023 10:30:00 AM 9.74 49.532 0.087 6.82 34.84 0.17
5/3/2023 10:45:00 AM 9.82 49.676 0.095 6.88 28.46 0.24
5/3/2023 11:00:00 AM 9.87 49.766 0.098 6.91 23.21 0.39
5/3/2023 11:15:00 AM 9.9 49.82 0.103 6.8 26.27 0.54
5/3/2023 11:30:00 AM 9.95 49.91 0.098 6.79 27.35 0.58
5/3/2023 11:45:00 AM 9.98 49.964 0.097 6.89 24.93 0.57
5/3/2023 12:00:00 PM 10.05 50.09 0.107 6.91 27.32 0.58
5/3/2023 12:15:00 PM 10.11 50.198 0.093 6.87 25.36 0.63
5/3/2023 12:30:00 PM 10.14 50.252 0.098 6.87 28.96 0.54
5/3/2023 12:45:00 PM 10.16 50.288 0.094 6.89 26.18 0.53
5/3/2023 1:00:00 PM 10.18 50.324 0.102 6.89 26.71 0.48
5/3/2023 1:15:00 PM 10.2 50.36 0.1 6.92 24.21 0.62
5/3/2023 1:30:00 PM 10.24 50.432 0.105 6.92 25.63 0.7
5/3/2023 1:45:00 PM 10.27 50.486 0.101 6.91 22.44 0.69
5/3/2023 2:00:00 PM 10.31 50.558 0.101 6.82 21.44 0.77
5/3/2023 2:15:00 PM 10.35 50.63 0.102 6.93 22.58 0.87
5/3/2023 2:30:00 PM 10.37 50.666 0.113 6.95 24.2 0.93
5/3/2023 2:45:00 PM 10.41 50.738 0.115 6.98 26.23 0.97
5/3/2023 3:00:00 PM 10.44 50.792 0.087 6.94 23.82 0.98
5/3/2023 3:15:00 PM 10.49 50.882 0.086 6.95 24.49 1.04
5/3/2023 3:30:00 PM 10.52 50.936 0.096 6.93 30.16 0.9
5/3/2023 3:45:00 PM 10.57 51.026 0.101 6.97 31.1 0.82
5/3/2023 4:00:00 PM 10.6 51.08 0.105 6.93 36.1 0.8
5/3/2023 4:15:00 PM 10.63 51.134 0.118 6.97 29.26 0.78
5/3/2023 4:30:00 PM 10.63 51.134 0.104 6.97 22.17 0.57
5/3/2023 4:45:00 PM 10.62 51.116 0.105 6.95 28.5 0.34
5/3/2023 5:00:00 PM 10.57 51.026 0.096 6.94 23.78 0.28
5/3/2023 5:15:00 PM 10.5 50.9 0.106 7 24.35 0.3
5/3/2023 5:30:00 PM 10.42 50.756 0.131 7 26.26 0.25
5/3/2023 5:45:00 PM 10.34 50.612 0.082 6.95 24.7 0.2
5/3/2023 6:00:00 PM 10.27 50.486 0.103 6.94 25.93 0.2
5/3/2023 6:15:00 PM 10.2 50.36 0.112 6.96 32.98 0.2
5/3/2023 6:30:00 PM 10.12 50.216 0.105 6.96 28.93 0.22
5/3/2023 6:45:00 PM 10.06 50.108 0.113 6.87 22.78 0.26
5/3/2023 7:00:00 PM 10.01 50.018 0.094 6.92 25.75 0.31
5/3/2023 7:15:00 PM 9.96 49.928 0.11 6.91 28.43 0.36
5/3/2023 7:30:00 PM 9.9 49.82 0.126 6.92 29.66 0.33
5/3/2023 7:45:00 PM 9.87 49.766 0.12 6.91 28.53 0.31
5/3/2023 8:00:00 PM 9.82 49.676 0.093 6.94 27.19 0.49
5/3/2023 8:15:00 PM 9.79 49.622 0.094 6.91 27.56 0.56
5/3/2023 8:30:00 PM 9.77 49.586 0.111 6.87 28.17 0.63
5/3/2023 8:45:00 PM 9.74 49.532 0.094 6.91 23.05 0.65
5/3/2023 9:00:00 PM 9.73 49.514 0.094 6.93 25.04 0.68
5/3/2023 9:15:00 PM 9.72 49.496 0.094 6.93 26.43 0.66
5/3/2023 9:30:00 PM 9.72 49.496 0.114 6.93 23.25 0.7
5/3/2023 9:45:00 PM 9.74 49.532 0.095 6.94 25.85 0.86
5/3/2023 10:00:00 PM 9.75 49.55 0.101 6.95 26.05 0.94
5/3/2023 10:15:00 PM 9.77 49.586 0.105 6.87 24.75 0.9
5/3/2023 10:30:00 PM 9.79 49.622 0.109 6.94 24.3 0.86
5/3/2023 10:45:00 PM 9.8 49.64 0.113 6.92 24.56 0.81
5/3/2023 11:00:00 PM 9.81 49.658 0.109 6.94 25.04 0.8
5/3/2023 11:15:00 PM 9.81 49.658 0.092 6.91 23.91 0.86
5/3/2023 11:30:00 PM 9.81 49.658 0.11 6.89 24.38 1.01
5/3/2023 11:45:00 PM 9.8 49.64 0.093 6.91 25.72 1.13
5/4/2023 12:00:00 AM 9.8 49.64 0.117 6.94 24.13 1.22
5/4/2023 12:15:00 AM 9.8 49.64 0.172 6.95 23.42 1.46
5/4/2023 12:30:00 AM 9.8 49.64 0.091 6.93 23.28 1.92
5/4/2023 12:45:00 AM 9.8 49.64 0.104 6.93 22.89 2.1
5/4/2023 1:00:00 AM 9.8 49.64 0.123 6.9 30.11 2.42
5/4/2023 1:15:00 AM 9.8 49.64 0.129 6.94 25.87 2.53
5/4/2023 1:30:00 AM 9.8 49.64 0.092 6.95 26.59 2.65
5/4/2023 1:45:00 AM 9.8 49.64 0.106 6.92 23.82 2.74
5/4/2023 2:00:00 AM 9.79 49.622 0.091 6.95 24.69 2.89
5/4/2023 2:15:00 AM 9.79 49.622 0.09 6.95 24.18 2.71
5/4/2023 2:30:00 AM 9.78 49.604 0.122 6.98 24.23 2.46
5/4/2023 2:45:00 AM 9.77 49.586 0.123 6.97 24.5 2.33
5/4/2023 3:00:00 AM 9.76 49.568 0.127 6.98 24.99 2.13
5/4/2023 3:15:00 AM 9.74 49.532 0.123 6.96 26.18 1.93
5/4/2023 3:30:00 AM 9.72 49.496 0.117 6.99 22.01 1.8
5/4/2023 3:45:00 AM 9.7 49.46 0.091 6.94 23.05 1.68
5/4/2023 4:00:00 AM 9.69 49.442 0.091 6.93 23.61 1.6
5/4/2023 4:15:00 AM 9.67 49.406 0.091 6.98 28.3 1.46
5/4/2023 4:30:00 AM 9.65 49.37 0.087 6.95 26.73 1.28
5/4/2023 4:45:00 AM 9.63 49.334 0.089 6.93 27.13 1.11
5/4/2023 5:00:00 AM 9.6 49.28 0.092 6.93 27.99 1.04
5/4/2023 5:15:00 AM 9.57 49.226 0.09 6.95 23.4 0.96
5/4/2023 5:30:00 AM 9.54 49.172 0.113 6.95 25.33 0.86
5/4/2023 5:45:00 AM 9.52 49.136 0.128 6.94 22.05 0.79
5/4/2023 6:00:00 AM 9.5 49.1 0.092 6.93 21.32 0.81
5/4/2023 6:15:00 AM 9.49 49.082 0.127 6.91 22.55 0.75
5/4/2023 6:30:00 AM 9.48 49.064 0.117 6.87 33.26 0.74
5/4/2023 6:45:00 AM 9.48 49.064 0.124 6.94 32.59 0.74
5/4/2023 7:00:00 AM 9.48 49.064 0.125 6.94 20.27 0.72
5/4/2023 7:15:00 AM 9.48 49.064 0.091 6.94 25.3 0.84
5/4/2023 7:30:00 AM 9.48 49.064 0.086 6.95 23.84 0.92
5/4/2023 7:45:00 AM 9.49 49.082 0.09 6.93 26.46 1.19
5/4/2023 8:00:00 AM 9.51 49.118 0.093 6.95 23.92 1.53
5/4/2023 8:15:00 AM 9.52 49.136 0.091 6.91 21.72 1.94
5/4/2023 8:30:00 AM 9.54 49.172 0.088 6.94 20.92 2.2
5/4/2023 8:45:00 AM 9.55 49.19 0.088 6.93 21.42 2.3
5/4/2023 9:00:00 AM 9.56 49.208 0.088 6.91 22.84 2.33
5/4/2023 9:15:00 AM 9.58 49.244 0.085 6.94 22.34 2.35
5/4/2023 9:30:00 AM 9.59 49.262 0.089 6.94 24.99 2.39
5/4/2023 9:45:00 AM 9.61 49.298 0.089 6.9 20.47 2.43
5/4/2023 10:00:00 AM 9.63 49.334 0.089 6.89 22.65 2.38
5/4/2023 10:15:00 AM 9.65 49.37 0.087 6.87 26.55 2.39
5/4/2023 10:30:00 AM 9.65 49.37 0.086 6.92 24.02 2.44
5/4/2023 10:45:00 AM 9.64 49.352 0.087 6.95 23.77 2.37
5/4/2023 11:00:00 AM 9.64 49.352 0.083 6.97 32.88 2.34
5/4/2023 11:15:00 AM 9.64 49.352 0.086 6.96 27.64 2.34
5/4/2023 11:30:00 AM 9.65 49.37 0.085 6.98 27.98 2.21
5/4/2023 11:45:00 AM 9.67 49.406 0.083 6.98 24.59 2.02
5/4/2023 12:00:00 PM 9.68 49.424 0.085 6.99 25.9 1.86
5/4/2023 12:15:00 PM 9.7 49.46 0.085 6.98 24.47 1.72
5/4/2023 12:30:00 PM 9.72 49.496 0.085 7.02 24.82 1.83
5/4/2023 12:45:00 PM 9.82 49.676 0.085 7 22.57 1.99
5/4/2023 1:00:00 PM 9.95 49.91 0.083 7.02 24.39 2.05
5/4/2023 1:15:00 PM 10.12 50.216 0.086 7.01 25.06 2.05
5/4/2023 1:30:00 PM 10.22 50.396 0.083 7.01 22.48 1.98
5/4/2023 1:45:00 PM 10.36 50.648 0.087 7.02 22.86 1.85
5/4/2023 2:00:00 PM 10.43 50.774 0.088 7.01 27.82 1.8
5/4/2023 2:15:00 PM 10.48 50.864 0.086 7.02 24.41 1.77
5/4/2023 2:30:00 PM 10.47 50.846 0.087 7.03 21.48 1.58
5/4/2023 2:45:00 PM 10.48 50.864 0.086 7.05 23.73 1.31
5/4/2023 3:00:00 PM 10.56 51.008 0.086 7.05 22.07 1.27
5/4/2023 3:15:00 PM 10.63 51.134 0.085 7.09 22.03 1.25
5/4/2023 3:30:00 PM 10.73 51.314 0.083 7.05 27.14 1.29
5/4/2023 3:45:00 PM 10.82 51.476 0.083 7.07 23.51 1.39
5/4/2023 4:00:00 PM 10.9 51.62 0.082 7.07 27.42 1.4
5/4/2023 4:15:00 PM 10.94 51.692 0.083 7.04 21.39 1.36
5/4/2023 4:30:00 PM 10.93 51.674 0.084 7.04 25.3 1.38
5/4/2023 4:45:00 PM 10.89 51.602 0.085 7.03 24.15 1.47
5/4/2023 5:00:00 PM 10.87 51.566 0.087 7.06 25.65 1.45
5/4/2023 5:15:00 PM 10.87 51.566 0.087 7.07 23.22 1.37
5/4/2023 5:30:00 PM 10.88 51.584 0.101 7.07 31.46 1.34
5/4/2023 5:45:00 PM 10.84 51.512 0.089 7.05 21.21 1.38
5/4/2023 6:00:00 PM 10.8 51.44 0.089 7.05 20.93 1.37
5/4/2023 6:15:00 PM 10.75 51.35 0.088 7 22.34 1.34
5/4/2023 6:30:00 PM 10.71 51.278 0.087 7.01 21.39 1.21
5/4/2023 6:45:00 PM 10.67 51.206 0.086 7.03 23.2 1.07
5/4/2023 7:00:00 PM 10.63 51.134 0.1 6.8 26.27 0.93
5/4/2023 7:15:00 PM 10.58 51.044 0.088 6.92 22.91 0.78
5/4/2023 7:30:00 PM 10.53 50.954 0.086 7.01 22.01 0.77
5/4/2023 7:45:00 PM 10.48 50.864 0.087 7.02 24.1 0.79
5/4/2023 8:00:00 PM 10.44 50.792 0.101 7.01 27.53 0.83
5/4/2023 8:15:00 PM 10.41 50.738 0.098 7.03 27.38 0.9
5/4/2023 8:30:00 PM 10.38 50.684 0.087 7.03 23.6 0.92
5/4/2023 8:45:00 PM 10.36 50.648 0.085 6.98 25.72 0.9
5/4/2023 9:00:00 PM 10.34 50.612 0.086 7 25.46 0.86
5/4/2023 9:15:00 PM 10.32 50.576 0.088 6.85 23.24 0.85
5/4/2023 9:30:00 PM 10.29 50.522 0.087 6.93 23.46 1.05
5/4/2023 9:45:00 PM 10.27 50.486 0.086 6.92 24.67 1.28
5/4/2023 10:00:00 PM 10.24 50.432 0.088 6.96 24.87 1.41
5/4/2023 10:15:00 PM 10.21 50.378 0.088 6.92 34.85 1.35
5/4/2023 10:30:00 PM 10.17 50.306 0.088 6.94 26.98 1.25
5/4/2023 10:45:00 PM 10.13 50.234 0.087 6.96 22.21 1.16
5/4/2023 11:00:00 PM 10.1 50.18 0.087 6.96 23.1 1.13
5/4/2023 11:15:00 PM 10.07 50.126 0.092 6.93 26.84 1.03
5/4/2023 11:30:00 PM 10.04 50.072 0.096 6.9 25.43 1.12
5/4/2023 11:45:00 PM 10.02 50.036 0.09 6.91 25.42 1.21
5/5/2023 12:00:00 AM 10 50 0.087 6.35 23.9 1.21
5/5/2023 12:15:00 AM 9.98 49.964 0.09 6.71 23.66 1.17
5/5/2023 12:30:00 AM 9.96 49.928 0.086 6.9 23.71 1.15
5/5/2023 12:45:00 AM 9.93 49.874 0.097 6.95 26.92 1.18
5/5/2023 1:00:00 AM 9.91 49.838 0.086 6.91 24.8 1.16
5/5/2023 1:15:00 AM 9.88 49.784 0.099 6.92 22.87 1.06
5/5/2023 1:30:00 AM 9.86 49.748 0.089 6.93 25.42 0.93
5/5/2023 1:45:00 AM 9.84 49.712 0.089 6.92 24.11 0.9
5/5/2023 2:00:00 AM 9.82 49.676 0.099 6.94 27.63 0.9
5/5/2023 2:15:00 AM 9.8 49.64 0.088 6.93 22.66 0.92
5/5/2023 2:30:00 AM 9.77 49.586 0.086 6.92 23.81 0.88
5/5/2023 2:45:00 AM 9.75 49.55 0.099 6.93 27.88 0.83
5/5/2023 3:00:00 AM 9.72 49.496 0.108 6.95 25.53 0.84
5/5/2023 3:15:00 AM 9.7 49.46 0.094 6.94 22.05 0.88
5/5/2023 3:30:00 AM 9.67 49.406 0.087 6.9 22.35 0.89
5/5/2023 3:45:00 AM 9.64 49.352 0.1 6.91 21.75 0.88
5/5/2023 4:00:00 AM 9.62 49.316 0.097 6.92 23.5 0.91
5/5/2023 4:15:00 AM 9.6 49.28 0.1 6.91 23.87 0.89
5/5/2023 4:30:00 AM 9.57 49.226 0.086 6.91 21.37 0.89
5/5/2023 4:45:00 AM 9.54 49.172 0.089 6.87 24.4 0.92
5/5/2023 5:00:00 AM 9.52 49.136 0.086 6.85 26.85 0.93
5/5/2023 5:15:00 AM 9.5 49.1 0.097 6.9 39.64 0.88
5/5/2023 5:30:00 AM 9.47 49.046 0.094 6.91 35.76 0.91
5/5/2023 5:45:00 AM 9.45 49.01 0.101 6.9 27.1 0.95
5/5/2023 6:00:00 AM 9.42 48.956 0.095 6.92 28.85 0.94
5/5/2023 6:15:00 AM 9.4 48.92 0.096 6.92 27.72 0.91
5/5/2023 6:30:00 AM 9.39 48.902 0.097 6.89 30.27 0.87
5/5/2023 6:45:00 AM 9.38 48.884 0.095 6.87 22.82 0.8
5/5/2023 7:00:00 AM 9.38 48.884 0.087 6.89 27.17 0.76
5/5/2023 7:15:00 AM 9.37 48.866 0.096 6.86 27.13 0.76
5/5/2023 7:30:00 AM 9.38 48.884 0.094 6.89 24.26 0.75
5/5/2023 7:45:00 AM 9.39 48.902 0.096 6.84 25.15 0.74
5/5/2023 8:00:00 AM 9.4 48.92 0.096 6.89 25.37 0.71
5/5/2023 8:15:00 AM 9.43 48.974 0.095 6.81 22.47 0.76
5/5/2023 8:30:00 AM 9.46 49.028 0.094 6.83 26.8 0.81
5/5/2023 8:45:00 AM 9.48 49.064 0.097 6.91 24.83 0.82
5/5/2023 9:00:00 AM 9.49 49.082 0.097 6.87 23.78 0.83
5/5/2023 9:15:00 AM 9.51 49.118 0.097 6.91 25.62 0.84
5/5/2023 9:30:00 AM 9.53 49.154 0.087 6.9 25.69 0.77
5/5/2023 9:45:00 AM 9.55 49.19 0.087 6.9 26.18 0.71
5/5/2023 10:00:00 AM 9.58 49.244 0.086 6.86 27.23 0.68
5/5/2023 10:15:00 AM 9.61 49.298 0.101 6.82 25.9 0.69
5/5/2023 10:30:00 AM 9.63 49.334 0.1 6.86 30.84 0.73
5/5/2023 10:45:00 AM 9.65 49.37 0.086 6.87 25.63 0.73
5/5/2023 11:00:00 AM 9.67 49.406 0.086 6.93 26.53 0.74
5/5/2023 11:15:00 AM 9.69 49.442 0.096 6.93 23.78 0.71
5/5/2023 11:30:00 AM 9.71 49.478 0.098 6.92 23.77 0.7
5/5/2023 11:45:00 AM 9.73 49.514 0.098 6.93 25.39 0.69
5/5/2023 12:00:00 PM 9.76 49.568 0.099 6.97 24.24 0.69
5/5/2023 12:15:00 PM 9.79 49.622 0.098 6.96 26.79 0.69
5/5/2023 12:30:00 PM 9.81 49.658 0.099 6.97 28.17 0.7
5/5/2023 12:45:00 PM 9.83 49.694 0.096 6.97 24.17 0.67
5/5/2023 1:00:00 PM 9.86 49.748 0.126 6.91 25.67 0.64
5/5/2023 1:15:00 PM 9.96 49.928 0.099 6.96 28.2 0.61
5/5/2023 1:30:00 PM 10.04 50.072 0.102 6.94 23.09 0.59
5/5/2023 1:45:00 PM 10.16 50.288 0.101 6.92 24.49 0.57
5/5/2023 2:00:00 PM 10.26 50.468 0.111 6.98 24.09 0.52
5/5/2023 2:15:00 PM 10.33 50.594 0.103 6.98 26.09 0.48
5/5/2023 2:30:00 PM 10.43 50.774 0.103 6.99 22.84 0.46
5/5/2023 2:45:00 PM 10.5 50.9 0.12 6.99 22.05 0.43
5/5/2023 3:00:00 PM 10.6 51.08 0.104 6.86 25.17 0.39
5/5/2023 3:15:00 PM 10.77 51.386 0.101 7.01 24.5 0.37
5/5/2023 3:30:00 PM 10.93 51.674 0.106 7.03 22.98 0.34
5/5/2023 3:45:00 PM 11.09 51.962 0.128 7.02 23.08 0.32
5/5/2023 4:00:00 PM 11.19 52.142 0.15 7.02 28.14 0.28
5/5/2023 4:15:00 PM 11.27 52.286 0.146 7 25.59 0.25
5/5/2023 4:30:00 PM 11.27 52.286 0.135 6.99 22.89 0.22
5/5/2023 4:45:00 PM 11.27 52.286 0.157 7.04 24.67 0.21
5/5/2023 5:00:00 PM 11.24 52.232 0.105 7.03 24.54 0.2
5/5/2023 5:15:00 PM 11.16 52.088 0.15 7.03 24.25 0.19
5/5/2023 5:30:00 PM 11.14 52.052 0.11 7.08 24.33 0.19
5/5/2023 5:45:00 PM 11.14 52.052 0.12 7.06 24.82 0.19
5/5/2023 6:00:00 PM 11.16 52.088 0.097 6.98 22.6 0.18
5/5/2023 6:15:00 PM 11.13 52.034 0.097 7.01 23.42 0.18
5/5/2023 6:30:00 PM 11.1 51.98 0.101 7.03 25.54 0.17
5/5/2023 6:45:00 PM 11.06 51.908 0.098 7.07 22.58 0.17
5/5/2023 7:00:00 PM 11.04 51.872 0.101 7.06 22.92 0.16
5/5/2023 7:15:00 PM 11 51.8 0.103 7.06 22.81 0.16
5/5/2023 7:30:00 PM 10.96 51.728 0.089 7.06 26.61 0.15
5/5/2023 7:45:00 PM 10.93 51.674 0.088 7.1 27.69 0.14
5/5/2023 8:00:00 PM 10.9 51.62 0.088 7.03 23.08 0.14
5/5/2023 8:15:00 PM 10.86 51.548 0.088 7.1 22.75 0.14
5/5/2023 8:30:00 PM 10.82 51.476 0.089 7.03 19.04 0.13
5/5/2023 8:45:00 PM 10.77 51.386 0.09 7.02 19.82 0.13
5/5/2023 9:00:00 PM 10.72 51.296 0.09 6.95 22.79 0.14
5/5/2023 9:15:00 PM 10.67 51.206 0.101 7 21.34 0.14
5/5/2023 9:30:00 PM 10.6 51.08 0.09 7 22.96 0.15
5/5/2023 9:45:00 PM 10.55 50.99 0.09 6.98 22.99 0.14
5/5/2023 10:00:00 PM 10.49 50.882 0.128 6.96 21.55 0.13
5/5/2023 10:15:00 PM 10.44 50.792 0.117 6.88 21.45 0.12
5/5/2023 10:30:00 PM 10.39 50.702 0.132 6.97 21.89 0.11
5/5/2023 10:45:00 PM 10.35 50.63 0.099 7.01 22.44 0.11
5/5/2023 11:00:00 PM 10.31 50.558 0.099 6.91 20.08 0.12
5/5/2023 11:15:00 PM 10.27 50.486 0.1 6.97 20.07 0.12
5/5/2023 11:30:00 PM 10.25 50.45 0.09 6.94 21.12 0.12
5/5/2023 11:45:00 PM 10.22 50.396 0.09 6.95 21.87 0.13
5/6/2023 12:00:00 AM 10.19 50.342 0.091 6.94 16.39 0.15
5/6/2023 12:15:00 AM 10.15 50.27 0.106 6.95 17.24 0.15
5/6/2023 12:30:00 AM 10.12 50.216 0.105 6.96 20.03 0.16
5/6/2023 12:45:00 AM 10.09 50.162 0.093 6.95 27.93 0.16
5/6/2023 1:00:00 AM 10.06 50.108 0.101 6.89 20.98 0.15
5/6/2023 1:15:00 AM 10.03 50.054 0.092 6.93 21.04 0.15
5/6/2023 1:30:00 AM 9.99 49.982 0.105 6.9 19.51 0.15
5/6/2023 1:45:00 AM 9.95 49.91 0.104 6.87 18.78 0.14
5/6/2023 2:00:00 AM 9.91 49.838 0.108 6.94 20.49 0.14
5/6/2023 2:15:00 AM 9.87 49.766 0.094 6.96 19.23 0.14
5/6/2023 2:30:00 AM 9.83 49.694 0.097 6.94 20.19 0.13
5/6/2023 2:45:00 AM 9.79 49.622 0.097 6.9 21.54 0.13
5/6/2023 3:00:00 AM 9.76 49.568 0.097 6.9 23.62 0.13
5/6/2023 3:15:00 AM 9.73 49.514 0.096 6.86 21.32 0.13
5/6/2023 3:30:00 AM 9.7 49.46 0.095 6.91 20.03 0.14
5/6/2023 3:45:00 AM 9.66 49.388 0.096 6.92 20.05 0.16
5/6/2023 4:00:00 AM 9.62 49.316 0.093 6.91 20.71 0.17
5/6/2023 4:15:00 AM 9.59 49.262 0.093 6.91 20.15 0.15
5/6/2023 4:30:00 AM 9.55 49.19 0.094 6.78 20.95 0.15
5/6/2023 4:45:00 AM 9.51 49.118 0.094 6.81 20.6 0.15
5/6/2023 5:00:00 AM 9.48 49.064 0.093 6.93 21.93 0.15
5/6/2023 5:15:00 AM 9.45 49.01 0.093 6.91 21.13 0.14
5/6/2023 5:30:00 AM 9.42 48.956 0.109 6.87 22.08 0.13
5/6/2023 5:45:00 AM 9.39 48.902 0.109 6.76 21.38 0.13
5/6/2023 6:00:00 AM 9.35 48.83 0.102 6.77 20.37 0.13
5/6/2023 6:15:00 AM 9.33 48.794 0.11 6.85 20.17 0.13
5/6/2023 6:30:00 AM 9.31 48.758 0.104 6.43 20.82 0.13
5/6/2023 6:45:00 AM 9.3 48.74 0.105 6.7 22.33 0.13
5/6/2023 7:00:00 AM 9.28 48.704 0.097 6.86 27.44 0.12
5/6/2023 7:15:00 AM 9.27 48.686 0.111 6.86 20.33 0.12
5/6/2023 7:30:00 AM 9.25 48.65 0.098 6.89 19.5 0.12
5/6/2023 7:45:00 AM 9.24 48.632 0.102 6.87 20.92 0.12
5/6/2023 8:00:00 AM 9.25 48.65 0.117 6.94 19.83 0.12
5/6/2023 8:15:00 AM 9.28 48.704 0.11 6.88 20.15 0.13
5/6/2023 8:30:00 AM 9.33 48.794 0.1 6.92 19.54 0.13
5/6/2023 8:45:00 AM 9.4 48.92 0.103 6.94 19.35 0.12
5/6/2023 9:00:00 AM 9.48 49.064 0.098 6.93 19.57 0.12
5/6/2023 9:15:00 AM 9.58 49.244 0.099 6.29 19.46 0.13
5/6/2023 9:30:00 AM 9.68 49.424 0.12 6.75 19.55 0.13
5/6/2023 9:45:00 AM 9.8 49.64 0.095 6.91 19.49 0.16
5/6/2023 10:00:00 AM 9.91 49.838 0.101 6.95 19.31 0.14
5/6/2023 10:15:00 AM 10.05 50.09 0.097 6.98 20.01 0.14
5/6/2023 10:30:00 AM 10.18 50.324 0.098 6.95 19.3 0.13
5/6/2023 10:45:00 AM 10.34 50.612 0.112 6.97 19.92 0.13
5/6/2023 11:00:00 AM 10.52 50.936 0.098 6.97 19.25 0.12
5/6/2023 11:15:00 AM 10.72 51.296 0.098 6.88 18.95 0.12
5/6/2023 11:30:00 AM 10.89 51.602 0.1 7.02 19.15 0.1
5/6/2023 11:45:00 AM 11.1 51.98 0.097 6.97 18.7 0.1
5/6/2023 12:00:00 PM 11.29 52.322 0.098 7.01 19.49 0.1
5/6/2023 12:15:00 PM 11.48 52.664 0.099 6.98 19.41 0.09
5/6/2023 12:30:00 PM 11.64 52.952 0.096 6.92 19 0.09
5/6/2023 12:45:00 PM 11.83 53.294 0.091 6.98 19.03 0.09
5/6/2023 1:00:00 PM 12.01 53.618 0.091 7.07 19.59 0.1
5/6/2023 1:15:00 PM 12.2 53.96 0.091 7.1 19.9 0.1
5/6/2023 1:30:00 PM 12.35 54.23 0.092 7.01 19.32 0.09
5/6/2023 1:45:00 PM 12.49 54.482 0.091 7.03 19.44 0.09
5/6/2023 2:00:00 PM 12.59 54.662 0.094 7.05 20.65 0.09
5/6/2023 2:15:00 PM 12.69 54.842 0.099 7 19.89 0.08
5/6/2023 2:30:00 PM 12.77 54.986 0.093 7.02 19.41 0.08
5/6/2023 2:45:00 PM 12.88 55.184 0.091 7.07 19.54 0.09
5/6/2023 3:00:00 PM 12.98 55.364 0.091 7.07 19.88 0.08
5/6/2023 3:15:00 PM 13.09 55.562 0.094 7.08 19.42 0.08
5/6/2023 3:30:00 PM 13.15 55.67 0.089 7.1 20.57 0.08
5/6/2023 3:45:00 PM 13.21 55.778 0.097 7.01 19.91 0.07
5/6/2023 4:00:00 PM 13.24 55.832 0.09 7.11 19.65 0.07
5/6/2023 4:15:00 PM 13.25 55.85 0.086 7.08 18.98 0.07
5/6/2023 4:30:00 PM 13.23 55.814 0.091 7.1 19.1 0.07
5/6/2023 4:45:00 PM 13.19 55.742 0.092 7.06 19 0.07
5/6/2023 5:00:00 PM 13.17 55.706 0.095 7.13 19.79 0.07
5/6/2023 5:15:00 PM 13.13 55.634 0.092 7.14 18.56 0.07
5/6/2023 5:30:00 PM 13.15 55.67 0.091 7.05 19.14 0.07
5/6/2023 5:45:00 PM 13.15 55.67 0.099 7 18.25 0.07
5/6/2023 6:00:00 PM 13.16 55.688 0.1 7.05 18.99 0.07
5/6/2023 6:15:00 PM 13.15 55.67 0.105 7.02 18.42 0.07
5/6/2023 6:30:00 PM 13.12 55.616 0.109 7.07 18.69 0.07
5/6/2023 6:45:00 PM 13.08 55.544 0.102 7.05 18.77 0.07
5/6/2023 7:00:00 PM 13.02 55.436 0.1 7.09 18.77 0.07
5/6/2023 7:15:00 PM 12.96 55.328 0.105 7.09 18.89 0.07
5/6/2023 7:30:00 PM 12.88 55.184 0.097 7.06 19.32 0.07
5/6/2023 7:45:00 PM 12.79 55.022 0.098 7.08 19.52 0.07
5/6/2023 8:00:00 PM 12.69 54.842 0.138 7.1 19.07 0.06
5/6/2023 8:15:00 PM 12.58 54.644 0.144 6.92 24.04 0.07
5/6/2023 8:30:00 PM 12.49 54.482 0.109 6.95 19.64 0.06
5/6/2023 8:45:00 PM 12.41 54.338 0.109 7.02 19.58 0.07
5/6/2023 9:00:00 PM 12.34 54.212 0.114 7.1 19.19 0.06
5/6/2023 9:15:00 PM 12.27 54.086 0.112 7.04 19.75 0.06
5/6/2023 9:30:00 PM 12.21 53.978 0.11 7.07 19.88 0.06
5/6/2023 9:45:00 PM 12.14 53.852 0.111 6.96 24.62 0.07
5/6/2023 10:00:00 PM 12.07 53.726 0.116 6.99 19.36 0.07
5/6/2023 10:15:00 PM 12.01 53.618 0.117 6.95 19.69 0.07
5/6/2023 10:30:00 PM 11.95 53.51 0.119 6.97 21.34 0.06
5/6/2023 10:45:00 PM 11.9 53.42 0.114 6.96 21.29 0.06
5/6/2023 11:00:00 PM 11.85 53.33 0.116 6.93 19.65 0.06
5/6/2023 11:15:00 PM 11.82 53.276 0.116 6.9 24.25 0.06
5/6/2023 11:30:00 PM 11.78 53.204 0.116 6.97 19.83 0.06
5/6/2023 11:45:00 PM 11.74 53.132 0.113 6.97 23.29 0.07
5/7/2023 12:00:00 AM 11.69 53.042 0.119 6.98 22.35 0.07
5/7/2023 12:15:00 AM 11.64 52.952 0.113 6.94 22.26 0.06
5/7/2023 12:30:00 AM 11.58 52.844 0.121 6.97 23.04 0.06
5/7/2023 12:45:00 AM 11.53 52.754 0.119 6.95 21.89 0.06
5/7/2023 1:00:00 AM 11.48 52.664 0.12 6.98 20.96 0.06
5/7/2023 1:15:00 AM 11.44 52.592 0.123 6.78 21.17 0.06
5/7/2023 1:30:00 AM 11.38 52.484 0.117 6.83 23.42 0.06
5/7/2023 1:45:00 AM 11.33 52.394 0.117 6.91 23.17 0.06
5/7/2023 2:00:00 AM 11.29 52.322 0.117 6.86 21.73 0.06
5/7/2023 2:15:00 AM 11.24 52.232 0.118 6.78 23.48 0.06
5/7/2023 2:30:00 AM 11.19 52.142 0.109 6.84 22.8 0.06
5/7/2023 2:45:00 AM 11.15 52.07 0.112 6.91 22.64 0.06
5/7/2023 3:00:00 AM 11.1 51.98 0.113 6.84 23.04 0.06
5/7/2023 3:15:00 AM 11.06 51.908 0.113 6.9 21.18 0.06
5/7/2023 3:30:00 AM 11.02 51.836 0.11 6.9 22.31 0.06
5/7/2023 3:45:00 AM 10.98 51.764 0.11 6.93 21.79 0.06
5/7/2023 4:00:00 AM 10.94 51.692 0.109 6.88 24.26 0.06
5/7/2023 4:15:00 AM 10.89 51.602 0.11 6.88 21.97 0.06
5/7/2023 4:30:00 AM 10.85 51.53 0.11 6.89 21.15 0.06
5/7/2023 4:45:00 AM 10.81 51.458 0.104 6.92 21.96 0.06
5/7/2023 5:00:00 AM 10.77 51.386 0.105 6.92 25.01 0.06
5/7/2023 5:15:00 AM 10.73 51.314 0.111 6.91 22.62 0.06
5/7/2023 5:30:00 AM 10.69 51.242 0.113 6.9 22.49 0.06
5/7/2023 5:45:00 AM 10.65 51.17 0.114 6.9 23.81 0.06
5/7/2023 6:00:00 AM 10.62 51.116 0.115 6.94 23.55 0.06
5/7/2023 6:15:00 AM 10.58 51.044 0.116 6.96 23.28 0.06
5/7/2023 6:30:00 AM 10.55 50.99 0.115 6.93 22.71 0.06
5/7/2023 6:45:00 AM 10.52 50.936 0.123 6.91 22.9 0.05
5/7/2023 7:00:00 AM 10.49 50.882 0.116 6.87 23.29 0.06
5/7/2023 7:15:00 AM 10.46 50.828 0.098 6.9 23.89 0.06
5/7/2023 7:30:00 AM 10.44 50.792 0.097 6.9 21.67 0.06
5/7/2023 7:45:00 AM 10.43 50.774 0.1 6.91 23.16 0.06
5/7/2023 8:00:00 AM 10.43 50.774 0.1 6.9 20.59 0.06
5/7/2023 8:15:00 AM 10.45 50.81 0.103 6.85 24.07 0.06
5/7/2023 8:30:00 AM 10.5 50.9 0.101 6.81 21.02 0.06
5/7/2023 8:45:00 AM 10.56 51.008 0.101 6.71 20.3 0.06
5/7/2023 9:00:00 AM 10.64 51.152 0.1 6.76 18.84 0.06
5/7/2023 9:15:00 AM 10.73 51.314 0.103 6.81 19.04 0.06
5/7/2023 9:30:00 AM 10.84 51.512 0.099 6.92 19.12 0.06
5/7/2023 9:45:00 AM 10.96 51.728 0.101 6.94 19.1 0.06
5/7/2023 10:00:00 AM 11.1 51.98 0.099 6.87 20.14 0.06
5/7/2023 10:15:00 AM 11.26 52.268 0.1 6.91 19.36 0.06
5/7/2023 10:30:00 AM 11.42 52.556 0.107 6.83 19.36 0.06
5/7/2023 10:45:00 AM 11.57 52.826 0.101 6.93 20.08 0.06
5/7/2023 11:00:00 AM 11.72 53.096 0.099 6.93 19.37 0.06
5/7/2023 11:15:00 AM 11.89 53.402 0.097 6.97 19.95 0.06
5/7/2023 11:30:00 AM 12.07 53.726 0.087 6.98 19.66 0.06
5/7/2023 11:45:00 AM 12.24 54.032 0.091 6.93 19.4 0.06
5/7/2023 12:00:00 PM 12.42 54.356 0.087 6.99 19.25 0.06
5/7/2023 12:15:00 PM 12.58 54.644 0.086 6.99 19.15 0.06
5/7/2023 12:30:00 PM 12.78 55.004 0.086 7.01 19.48 0.06
5/7/2023 12:45:00 PM 12.95 55.31 0.087 7.01 18.91 0.06
5/7/2023 1:00:00 PM 13.15 55.67 0.087 6.99 21.06 0.06
5/7/2023 1:15:00 PM 13.32 55.976 0.086 7.01 19.85 0.06
5/7/2023 1:30:00 PM 13.49 56.282 0.086 7.06 19.88 0.06
5/7/2023 1:45:00 PM 13.65 56.57 0.091 7.02 20.38 0.06
5/7/2023 2:00:00 PM 13.83 56.894 0.085 7.07 18.87 0.06
5/7/2023 2:15:00 PM 13.98 57.164 0.086 7.09 19.61 0.06
5/7/2023 2:30:00 PM 14.11 57.398 0.086 7.07 19.66 0.06
5/7/2023 2:45:00 PM 14.25 57.65 0.085 7.06 20.48 0.06
5/7/2023 3:00:00 PM 14.36 57.848 0.086 7.11 19.24 0.06
5/7/2023 3:15:00 PM 14.45 58.01 0.087 7.05 19.52 0.06
5/7/2023 3:30:00 PM 14.53 58.154 0.084 7.1 19.47 0.06
5/7/2023 3:45:00 PM 14.57 58.226 0.084 7.11 18.95 0.05
5/7/2023 4:00:00 PM 14.61 58.298 0.085 7.01 19.51 0.05
5/7/2023 4:15:00 PM 14.62 58.316 0.084 7.04 19.58 0.05
5/7/2023 4:30:00 PM 14.61 58.298 0.086 7 20.11 0.06
5/7/2023 4:45:00 PM 14.6 58.28 0.087 7.09 19.86 0.06
5/7/2023 5:00:00 PM 14.58 58.244 0.086 7.06 20.3 0.06
5/7/2023 5:15:00 PM 14.52 58.136 0.092 7.08 19.35 0.06
5/7/2023 5:30:00 PM 14.48 58.064 0.085 7.12 19.97 0.05
5/7/2023 5:45:00 PM 14.4 57.92 0.089 7.12 25.47 0.06
5/7/2023 6:00:00 PM 14.32 57.776 0.085 7.1 19.67 0.06
5/7/2023 6:15:00 PM 14.22 57.596 0.087 7.11 20.14 0.06
5/7/2023 6:30:00 PM 14.13 57.434 0.092 7.05 21.24 0.05
5/7/2023 6:45:00 PM 14.01 57.218 0.089 7.05 20.49 0.05
5/7/2023 7:00:00 PM 13.89 57.002 0.088 7.04 20.84 0.05
5/7/2023 7:15:00 PM 13.8 56.84 0.088 6.95 21.73 0.05
5/7/2023 7:30:00 PM 13.69 56.642 0.087 7 22.99 0.05
5/7/2023 7:45:00 PM 13.59 56.462 0.092 6.98 20.33 0.06
5/7/2023 8:00:00 PM 13.47 56.246 0.087 7.08 21.12 0.05
5/7/2023 8:15:00 PM 13.35 56.03 0.087 7.06 23.63 0.05
5/7/2023 8:30:00 PM 13.22 55.796 0.086 7.08 22.9 0.05
5/7/2023 8:45:00 PM 13.09 55.562 0.09 7.03 21.15 0.05
5/7/2023 9:00:00 PM 12.96 55.328 0.092 7.05 20.09 0.05
5/7/2023 9:15:00 PM 12.81 55.058 0.088 7.03 20.45 0.05
5/7/2023 9:30:00 PM 12.68 54.824 0.09 7.04 21.79 0.05
5/7/2023 9:45:00 PM 12.55 54.59 0.096 7.04 23.2 0.05
5/7/2023 10:00:00 PM 12.44 54.392 0.097 7.07 24 0.05
5/7/2023 10:15:00 PM 12.34 54.212 0.103 7.03 24.85 0.05
5/7/2023 10:30:00 PM 12.26 54.068 0.094 6.94 22.87 0.05
5/7/2023 10:45:00 PM 12.17 53.906 0.087 7 23.41 0.05
5/7/2023 11:00:00 PM 12.09 53.762 0.094 7.02 24 0.05
5/7/2023 11:15:00 PM 12 53.6 0.09 6.98 24.56 0.05
5/7/2023 11:30:00 PM 11.92 53.456 0.091 6.96 25.01 0.05
5/7/2023 11:45:00 PM 11.83 53.294 0.089 6.96 24.74 0.05
5/8/2023 12:00:00 AM 11.76 53.168 0.091 6.93 24.53 0.05
5/8/2023 12:15:00 AM 11.71 53.078 0.093 6.88 24.02 0.05
5/8/2023 12:30:00 AM 11.66 52.988 0.1 6.86 20.52 0.05
5/8/2023 12:45:00 AM 11.61 52.898 0.093 6.78 23.57 0.05
5/8/2023 1:00:00 AM 11.58 52.844 0.092 6.8 24.28 0.05
5/8/2023 1:15:00 AM 11.55 52.79 0.093 6.88 24.41 0.05
5/8/2023 1:30:00 AM 11.53 52.754 0.094 6.91 26.12 0.05
5/8/2023 1:45:00 AM 11.51 52.718 0.093 6.87 21.09 0.05
5/8/2023 2:00:00 AM 11.49 52.682 0.091 6.87 22.16 0.05
5/8/2023 2:15:00 AM 11.46 52.628 0.094 6.96 18.32 0.05
5/8/2023 2:30:00 AM 11.46 52.628 0.092 6.93 20.18 0.05
5/8/2023 2:45:00 AM 11.48 52.664 0.092 6.87 20.85 0.05
5/8/2023 3:00:00 AM 11.52 52.736 0.098 6.95 25.85 0.05
5/8/2023 3:15:00 AM 11.57 52.826 0.097 6.95 31.5 0.05
5/8/2023 3:30:00 AM 11.64 52.952 0.098 6.98 26.67 0.05
5/8/2023 3:45:00 AM 11.7 53.06 0.097 6.97 19.83 0.05
5/8/2023 4:00:00 AM 11.77 53.186 0.094 6.84 21.04 0.05
5/8/2023 4:15:00 AM 11.83 53.294 0.101 7.01 18.34 0.05
5/8/2023 4:30:00 AM 11.9 53.42 0.095 6.99 18.15 0.05
5/8/2023 4:45:00 AM 11.96 53.528 0.095 6.99 19.81 0.05
5/8/2023 5:00:00 AM 12.03 53.654 0.095 7.03 18.77 0.05
5/8/2023 5:15:00 AM 12.1 53.78 0.097 6.94 19.32 0.05
5/8/2023 5:30:00 AM 12.17 53.906 0.104 6.95 23.22 0.05
5/8/2023 5:45:00 AM 12.22 53.996 0.101 6.96 23.11 0.06
5/8/2023 6:00:00 AM 12.28 54.104 0.092 6.99 21.94 0.05
5/8/2023 6:15:00 AM 12.33 54.194 0.099 7.01 22.21 0.05
5/8/2023 6:30:00 AM 12.39 54.302 0.093 7.03 23.27 0.05
5/8/2023 6:45:00 AM 12.43 54.374 0.1 7.01 20.9 0.05
5/8/2023 7:00:00 AM 12.46 54.428 0.099 7.03 24.9 0.05
5/8/2023 7:15:00 AM 12.49 54.482 0.105 6.99 19.84 0.05
5/8/2023 7:30:00 AM 12.52 54.536 0.133 7.03 19.26 0.05
5/8/2023 7:45:00 AM 12.55 54.59 0.113 7.02 19.11 0.05
5/8/2023 8:00:00 AM 12.58 54.644 0.142 7.01 19.32 0.05
5/8/2023 8:15:00 AM 12.62 54.716 0.102 6.95 19.1 0.06
5/8/2023 8:30:00 AM 12.67 54.806 0.116 7.01 20.29 0.06
5/8/2023 8:45:00 AM 12.75 54.95 0.104 7.06 18.56 0.06
5/8/2023 9:00:00 AM 12.84 55.112 0.11 7.05 20.34 0.06
5/8/2023 9:15:00 AM 12.93 55.274 0.115 7 19.84 0.05
5/8/2023 9:30:00 AM 13.04 55.472 0.112 7.04 19.55 0.05
5/8/2023 9:45:00 AM 13.16 55.688 0.155 7.01 19.64 0.06
5/8/2023 10:00:00 AM 13.33 55.994 0.133 7.04 19.53 0.06
5/8/2023 10:15:00 AM 13.48 56.264 0.104 7.06 19.03 0.06
5/8/2023 10:30:00 AM 13.65 56.57 0.117 7.09 19.84 0.05
5/8/2023 10:45:00 AM 13.83 56.894 0.132 7.06 19.16 0.06
5/8/2023 11:00:00 AM 14.05 57.29 0.111 7.13 18.73 0.06
5/8/2023 11:15:00 AM 14.22 57.596 0.113 7.15 19.86 0.06
5/8/2023 11:30:00 AM 14.44 57.992 0.117 7.17 18.89 0.06
5/8/2023 11:45:00 AM 14.64 58.352 0.108 7.16 20.71 0.06
5/8/2023 12:00:00 PM 14.85 58.73 0.117 7.2 19.38 0.06
5/8/2023 12:15:00 PM 15.02 59.036 0.142 7.24 21.97 0.06
5/8/2023 12:30:00 PM 15.2 59.36 0.107 7.22 19.86 0.06
5/8/2023 12:45:00 PM 15.4 59.72 0.113 7.24 20.19 0.06
5/8/2023 1:00:00 PM 15.63 60.134 0.133 7.28 19.63 0.06
5/8/2023 1:15:00 PM 15.8 60.44 0.113 7.25 18.67 0.06
5/8/2023 1:30:00 PM 15.98 60.764 0.11 7.3 19.95 0.06
5/8/2023 1:45:00 PM 16.11 60.998 0.11 7.29 18.97 0.06
5/8/2023 2:00:00 PM 16.23 61.214 0.124 7.29 18.71 0.06
5/8/2023 2:15:00 PM 16.29 61.322 0.121 7.31 19.13 0.06
5/8/2023 2:30:00 PM 16.4 61.52 0.123 7.32 19.55 0.06
5/8/2023 2:45:00 PM 16.47 61.646 0.121 7.35 19.22 0.06
5/8/2023 3:00:00 PM 16.55 61.79 0.125 7.32 18.87 0.06
5/8/2023 3:15:00 PM 16.63 61.934 0.123 7.33 19.45 0.06
5/8/2023 3:30:00 PM 16.7 62.06 0.127 7.34 19.33 0.06
5/8/2023 3:45:00 PM 16.76 62.168 0.128 7.33 18.71 0.06
5/8/2023 4:00:00 PM 16.82 62.276 0.12 7.35 18.67 0.06
5/8/2023 4:15:00 PM 16.88 62.384 0.128 7.35 19.05 0.06
5/8/2023 4:30:00 PM 16.89 62.402 0.128 7.37 18.2 0.06
5/8/2023 4:45:00 PM 16.91 62.438 0.129 7.36 18.68 0.06
5/8/2023 5:00:00 PM 16.91 62.438 0.128 7.35 19.33 0.06
5/8/2023 5:15:00 PM 16.91 62.438 0.13 7.35 19.13 0.06
5/8/2023 5:30:00 PM 16.87 62.366 0.128 7.34 21.83 0.06
5/8/2023 5:45:00 PM 16.81 62.258 0.128 7.38 19.01 0.06
5/8/2023 6:00:00 PM 16.75 62.15 0.131 7.34 20.04 0.06
5/8/2023 6:15:00 PM 16.66 61.988 0.131 7.33 20.63 0.06
5/8/2023 6:30:00 PM 16.59 61.862 0.131 7.3 19.08 0.06
5/8/2023 6:45:00 PM 16.52 61.736 0.133 7.33 20.19 0.06
5/8/2023 7:00:00 PM 16.43 61.574 0.135 7.33 20.31 0.06
5/8/2023 7:15:00 PM 16.33 61.394 0.131 7.33 21.72 0.06
5/8/2023 7:30:00 PM 16.21 61.178 0.132 7.33 20.99 0.06
5/8/2023 7:45:00 PM 16.09 60.962 0.131 7.32 23.24 0.06
5/8/2023 8:00:00 PM 15.97 60.746 0.136 7.33 20.97 0.06
5/8/2023 8:15:00 PM 15.84 60.512 0.133 7.33 20.21 0.06
5/8/2023 8:30:00 PM 15.75 60.35 0.134 7.28 21.49 0.06
5/8/2023 8:45:00 PM 15.67 60.206 0.13 7.25 21.84 0.06
5/8/2023 9:00:00 PM 15.59 60.062 0.13 7.14 22.72 0.06
5/8/2023 9:15:00 PM 15.51 59.918 0.128 7.25 22.15 0.06
5/8/2023 9:30:00 PM 15.44 59.792 0.13 7.17 20.4 0.06
5/8/2023 9:45:00 PM 15.37 59.666 0.128 7.17 23.34 0.06
5/8/2023 10:00:00 PM 15.3 59.54 0.13 7.18 20.15 0.06
5/8/2023 10:15:00 PM 15.24 59.432 0.129 7.19 21.33 0.06
5/8/2023 10:30:00 PM 15.17 59.306 0.123 7.09 22.88 0.06
5/8/2023 10:45:00 PM 15.11 59.198 0.121 7.13 21.96 0.06
5/8/2023 11:00:00 PM 15.06 59.108 0.107 7.1 24.32 0.06
5/8/2023 11:15:00 PM 15.02 59.036 0.125 7.08 25.4 0.06
5/8/2023 11:30:00 PM 14.97 58.946 0.121 7.06 25.91 0.06
5/8/2023 11:45:00 PM 14.9 58.82 0.114 7.07 31.57 0.06
5/9/2023 12:00:00 AM 14.84 58.712 0.115 7.09 20.21 0.06
5/9/2023 12:15:00 AM 14.77 58.586 0.116 6.98 20.23 0.06
5/9/2023 12:30:00 AM 14.69 58.442 0.102 7.08 23.46 0.06
5/9/2023 12:45:00 AM 14.62 58.316 0.102 7.07 26.81 0.06
5/9/2023 1:00:00 AM 14.55 58.19 0.107 7.08 25.56 0.06
5/9/2023 1:15:00 AM 14.48 58.064 0.127 7.04 22.05 0.06
5/9/2023 1:30:00 AM 14.4 57.92 0.116 7.07 22.6 0.06
5/9/2023 1:45:00 AM 14.33 57.794 0.114 7.06 24.73 0.06
5/9/2023 2:00:00 AM 14.28 57.704 0.108 7.07 25.57 0.06
5/9/2023 2:15:00 AM 14.24 57.632 0.134 7.06 22.93 0.06
5/9/2023 2:30:00 AM 14.2 57.56 0.113 7.06 20.41 0.06
5/9/2023 2:45:00 AM 14.16 57.488 0.104 7.04 26.61 0.06
5/9/2023 3:00:00 AM 14.12 57.416 0.115 7.06 20.56 0.06
5/9/2023 3:15:00 AM 14.08 57.344 0.131 7.04 21.36 0.06
5/9/2023 3:30:00 AM 14.04 57.272 0.138 7.03 21.56 0.06
5/9/2023 3:45:00 AM 14 57.2 0.143 7.04 21.8 0.06
5/9/2023 4:00:00 AM 13.96 57.128 0.148 7 20.96 0.06
5/9/2023 4:15:00 AM 13.93 57.074 0.149 6.99 23.62 0.06
5/9/2023 4:30:00 AM 13.88 56.984 0.16 7.01 23.77 0.06
5/9/2023 4:45:00 AM 13.84 56.912 0.118 6.98 23.46 0.06
5/9/2023 5:00:00 AM 13.8 56.84 0.112 7.01 25.6 0.06
5/9/2023 5:15:00 AM 13.77 56.786 0.136 6.99 23.2 0.06
5/9/2023 5:30:00 AM 13.74 56.732 0.109 6.98 24.05 0.06
5/9/2023 5:45:00 AM 13.7 56.66 0.129 6.91 24.34 0.06
5/9/2023 6:00:00 AM 13.67 56.606 0.11 6.92 26.32 0.06
5/9/2023 6:15:00 AM 13.63 56.534 0.121 6.95 23.69 0.06
5/9/2023 6:30:00 AM 13.59 56.462 0.101 6.96 25.86 0.06
5/9/2023 6:45:00 AM 13.52 56.336 0.108 7.04 26.38 0.06
5/9/2023 7:00:00 AM 13.48 56.264 0.108 7.03 27.02 0.06
5/9/2023 7:15:00 AM 13.44 56.192 0.109 7.04 25.14 0.06
5/9/2023 7:30:00 AM 13.42 56.156 0.099 7.06 27.13 0.06
5/9/2023 7:45:00 AM 13.41 56.138 0.099 7.01 23.81 0.06
5/9/2023 8:00:00 AM 13.41 56.138 0.109 7 23.91 0.06
5/9/2023 8:15:00 AM 13.41 56.138 0.097 7.06 25.66 0.06
5/9/2023 8:30:00 AM 13.42 56.156 0.096 7.06 22.48 0.06
5/9/2023 8:45:00 AM 13.45 56.21 0.095 6.97 23.08 0.06
5/9/2023 9:00:00 AM 13.48 56.264 0.094 7 23 0.06
5/9/2023 9:15:00 AM 13.52 56.336 0.099 6.98 25.51 0.06
5/9/2023 9:30:00 AM 13.58 56.444 0.1 7.03 22.98 0.06
5/9/2023 9:45:00 AM 13.65 56.57 0.1 7.05 23.4 0.06
5/9/2023 10:00:00 AM 13.75 56.75 0.098 7.06 24.37 0.06
5/9/2023 10:15:00 AM 13.84 56.912 0.101 6.84 23.09 0.06
5/9/2023 10:30:00 AM 13.94 57.092 0.098 6.9 24.37 0.06
5/9/2023 10:45:00 AM 14.1 57.38 0.103 7.05 24.26 0.06
5/9/2023 11:00:00 AM 14.26 57.668 0.099 7.11 24.07 0.06
5/9/2023 11:15:00 AM 14.44 57.992 0.1 7.13 27.39 0.06
5/9/2023 11:30:00 AM 14.62 58.316 0.099 7.14 33.29 0.06
5/9/2023 11:45:00 AM 14.79 58.622 0.101 7.13 24.98 0.06
5/9/2023 12:00:00 PM 14.99 58.982 0.101 7.14 27.12 0.06
5/9/2023 12:15:00 PM 15.18 59.324 0.103 7.15 29.43 0.06
5/9/2023 12:30:00 PM 15.42 59.756 0.114 7.2 23.63 0.06
5/9/2023 12:45:00 PM 15.63 60.134 0.111 7.15 23.2 0.06
5/9/2023 1:00:00 PM 15.83 60.494 0.114 7.16 27.42 0.06
5/9/2023 1:15:00 PM 16.02 60.836 0.114 7.21 23.26 0.06
5/9/2023 1:30:00 PM 16.18 61.124 0.115 7.26 25.94 0.06
5/9/2023 1:45:00 PM 16.34 61.412 0.113 7.28 25.66 0.06
5/9/2023 2:00:00 PM 16.51 61.718 0.108 7.29 22.22 0.06
5/9/2023 2:15:00 PM 16.68 62.024 0.105 7.29 20.85 0.06
5/9/2023 2:30:00 PM 16.82 62.276 0.104 7.3 21.02 0.06
5/9/2023 2:45:00 PM 16.95 62.51 0.105 7.32 28.09 0.06
5/9/2023 3:00:00 PM 17.02 62.636 0.103 7.32 23.31 0.06
5/9/2023 3:15:00 PM 17.13 62.834 0.108 7.36 21.26 0.06
5/9/2023 3:30:00 PM 17.2 62.96 0.108 7.35 21.54 0.06
5/9/2023 3:45:00 PM 17.25 63.05 0.106 7.4 21.96 0.06
5/9/2023 4:00:00 PM 17.28 63.104 0.103 7.33 22.03 0.06
5/9/2023 4:15:00 PM 17.3 63.14 0.102 7.38 23.46 0.06
5/9/2023 4:30:00 PM 17.31 63.158 0.106 7.38 23.09 0.06
5/9/2023 4:45:00 PM 17.29 63.122 0.104 7.37 22.54 0.06
5/9/2023 5:00:00 PM 17.29 63.122 0.103 7.33 27.11 0.06
5/9/2023 5:15:00 PM 17.25 63.05 0.108 7.32 31.58 0.06
5/9/2023 5:30:00 PM 17.21 62.978 0.108 7.39 22.9 0.06
5/9/2023 5:45:00 PM 17.14 62.852 0.103 7.36 23 0.06
5/9/2023 6:00:00 PM 17.04 62.672 0.096 7.42 22.68 0.06
5/9/2023 6:15:00 PM 16.93 62.474 0.097 7.41 25.47 0.06
5/9/2023 6:30:00 PM 16.84 62.312 0.102 7.41 23.62 0.06
5/9/2023 6:45:00 PM 16.73 62.114 0.101 7.38 22.03 0.06
5/9/2023 7:00:00 PM 16.61 61.898 0.098 7.42 24.2 0.06
5/9/2023 7:15:00 PM 16.48 61.664 0.098 7.43 23.16 0.06
5/9/2023 7:30:00 PM 16.35 61.43 0.098 7.42 22.15 0.06
5/9/2023 7:45:00 PM 16.21 61.178 0.103 7.39 22.63 0.06
5/9/2023 8:00:00 PM 16.07 60.926 0.106 7.36 23.15 0.06
5/9/2023 8:15:00 PM 15.93 60.674 0.105 7.33 25.46 0.06
5/9/2023 8:30:00 PM 15.81 60.458 0.105 7.33 21.82 0.06
5/9/2023 8:45:00 PM 15.71 60.278 0.104 7.32 22.9 0.06
5/9/2023 9:00:00 PM 15.58 60.044 0.106 7.34 23.87 0.06
5/9/2023 9:15:00 PM 15.5 59.9 0.106 7.34 22.29 0.06
5/9/2023 9:30:00 PM 15.41 59.738 0.106 7.33 26.88 0.06
5/9/2023 9:45:00 PM 15.32 59.576 0.105 7.29 22.54 0.06
5/9/2023 10:00:00 PM 15.26 59.468 0.105 7.27 31.3 0.06
5/9/2023 10:15:00 PM 15.18 59.324 0.109 7.22 25.2 0.06
5/9/2023 10:30:00 PM 15.11 59.198 0.105 7.23 28.29 0.06
5/9/2023 10:45:00 PM 15.03 59.054 0.107 7.12 27.85 0.06
5/9/2023 11:00:00 PM 14.97 58.946 0.106 7.21 26.81 0.06
5/9/2023 11:15:00 PM 14.89 58.802 0.106 7.21 29.74 0.06
5/9/2023 11:30:00 PM 14.81 58.658 0.11 7.21 22.92 0.06
5/9/2023 11:45:00 PM 14.73 58.514 0.106 7.2 23.79 0.06
5/10/2023 12:00:00 AM 14.65 58.37 0.104 7.21 31.62 0.06
5/10/2023 12:15:00 AM 14.56 58.208 0.109 7.19 29 0.06
5/10/2023 12:30:00 AM 14.5 58.1 0.112 7.19 22.61 0.06
5/10/2023 12:45:00 AM 14.42 57.956 0.111 7.14 26.84 0.06
5/10/2023 1:00:00 AM 14.35 57.83 0.126 7.15 27.63 0.06
5/10/2023 1:15:00 AM 14.26 57.668 0.109 7.13 25.75 0.06
5/10/2023 1:30:00 AM 14.18 57.524 0.102 7.15 36.75 0.06
5/10/2023 1:45:00 AM 14.11 57.398 0.101 7.1 23.47 0.06
5/10/2023 2:00:00 AM 14.02 57.236 0.102 7.14 22.7 0.06
5/10/2023 2:15:00 AM 13.98 57.164 0.103 7.1 23.29 0.06
5/10/2023 2:30:00 AM 13.93 57.074 0.097 7.07 23.55 0.06
5/10/2023 2:45:00 AM 13.89 57.002 0.097 7.1 28.47 0.06
5/10/2023 3:00:00 AM 13.87 56.966 0.096 7.05 22.41 0.06
5/10/2023 3:15:00 AM 13.84 56.912 0.1 7.06 26.19 0.06
5/10/2023 3:30:00 AM 13.8 56.84 0.097 7.05 24.81 0.06
5/10/2023 3:45:00 AM 13.77 56.786 0.098 7.03 35.23 0.06
5/10/2023 4:00:00 AM 13.75 56.75 0.097 6.99 25.49 0.06
5/10/2023 4:15:00 AM 13.71 56.678 0.098 7.03 32.69 0.06
5/10/2023 4:30:00 AM 13.65 56.57 0.097 7.03 24.65 0.06
5/10/2023 4:45:00 AM 13.58 56.444 0.098 6.99 25.96 0.06
5/10/2023 5:00:00 AM 13.53 56.354 0.103 7.04 21.61 0.06
5/10/2023 5:15:00 AM 13.5 56.3 0.104 7.01 22.81 0.06
5/10/2023 5:30:00 AM 13.44 56.192 0.106 7.03 25.39 0.06
5/10/2023 5:45:00 AM 13.37 56.066 0.11 7.04 23.31 0.06
5/10/2023 6:00:00 AM 13.31 55.958 0.11 6.91 31.44 0.06
5/10/2023 6:15:00 AM 13.25 55.85 0.11 6.93 23.44 0.06
5/10/2023 6:30:00 AM 13.2 55.76 0.116 6.94 23.94 0.06
5/10/2023 6:45:00 AM 13.16 55.688 0.119 6.94 26.4 0.06
5/10/2023 7:00:00 AM 13.11 55.598 0.112 7 24.83 0.06
5/10/2023 7:15:00 AM 13.08 55.544 0.105 7.02 32.94 0.06
5/10/2023 7:30:00 AM 13.02 55.436 0.104 7.02 41.36 0.06
5/10/2023 7:45:00 AM 12.98 55.364 0.11 6.99 22.23 0.06
5/10/2023 8:00:00 AM 12.96 55.328 0.104 7.04 35.15 0.06
5/10/2023 8:15:00 AM 12.94 55.292 0.105 7.04 22.47 0.06
5/10/2023 8:30:00 AM 12.97 55.346 0.109 7.02 28.81 0.06
5/10/2023 8:45:00 AM 12.99 55.382 0.107 7 23.33 0.06
5/10/2023 9:00:00 AM 13.04 55.472 0.113 6.99 25.71 0.06
5/10/2023 9:15:00 AM 13.11 55.598 0.115 7.05 34.34 0.06
5/10/2023 9:30:00 AM 13.19 55.742 0.12 7.06 27.72 0.06
5/10/2023 9:45:00 AM 13.28 55.904 0.12 7.02 27.62 0.06
5/10/2023 10:00:00 AM 13.41 56.138 0.117 7.04 32.52 0.06
5/10/2023 10:15:00 AM 13.56 56.408 0.114 7.06 33.58 0.06
5/10/2023 10:30:00 AM 13.66 56.588 0.117 7.05 45.02 0.06
5/10/2023 10:45:00 AM 13.83 56.894 0.114 7.09 47.13 0.06
5/10/2023 11:00:00 AM 13.92 57.056 0.106 6.99 34.63 0.06
5/10/2023 11:15:00 AM 14.11 57.398 0.114 7 37.33 0.06
5/10/2023 11:30:00 AM 14.3 57.74 0.107 7.07 37.1 0.06
5/10/2023 11:45:00 AM 14.52 58.136 0.106 7.07 38.19 0.06
5/10/2023 12:00:00 PM 14.71 58.478 0.108 7.12 49.36 0.06
5/10/2023 12:15:00 PM 14.82 58.676 0.116 6.93 41.09 0.06
5/10/2023 12:30:00 PM 15.01 59.018 0.115 7.02 44.25 0.06
5/10/2023 12:45:00 PM 15.34 59.612 0.113 6.91 54.84 0.06
5/10/2023 1:00:00 PM 15.53 59.954 0.117 7.09 35.13 0.06
5/10/2023 1:15:00 PM 15.72 60.296 0.115 7.13 46.55 0.06
5/10/2023 1:30:00 PM 15.86 60.548 0.124 7.11 26.23 0.06
5/10/2023 1:45:00 PM 16.08 60.944 0.126 7.11 42.74 0.06
5/10/2023 2:00:00 PM 16.23 61.214 0.126 7.1 40.93 0.06
5/10/2023 2:15:00 PM 16.44 61.592 0.116 7.09 25.14 0.06
5/10/2023 2:30:00 PM 16.6 61.88 0.128 7.03 42.57 0.06
5/10/2023 2:45:00 PM 16.83 62.294 0.119 7.13 44.98 0.06
5/10/2023 3:00:00 PM 16.93 62.474 0.134 7.09 29.08 0.06
5/10/2023 3:15:00 PM 17.09 62.762 0.135 7.05 27.43 0.06
5/10/2023 3:30:00 PM 17.27 63.086 0.134 7.11 34.88 0.06
5/10/2023 3:45:00 PM 17.43 63.374 0.132 7.1 26.94 0.06
5/10/2023 4:00:00 PM 17.49 63.482 0.147 7.01 35.36 0.06
5/10/2023 4:15:00 PM 17.6 63.68 0.128 7.1 37.71 0.06
5/10/2023 4:30:00 PM 17.69 63.842 0.119 7.09 32.49 0.06
5/10/2023 4:45:00 PM 17.78 64.004 0.12 7.13 30.68 0.06
5/10/2023 5:00:00 PM 17.87 64.166 0.123 7.13 28.22 0.06
5/10/2023 5:15:00 PM 17.93 64.274 0.131 7.16 25.27 0.06
5/10/2023 5:30:00 PM 17.94 64.292 0.126 7.21 31.37 0.06
5/10/2023 5:45:00 PM 17.9 64.22 0.121 7.2 37.64 0.06
5/10/2023 6:00:00 PM 17.89 64.202 0.112 7.27 28.16 0.06
5/10/2023 6:15:00 PM 17.84 64.112 0.115 7.29 23.87 0.06
5/10/2023 6:30:00 PM 17.76 63.968 0.11 7.28 27.32 0.06
5/10/2023 6:45:00 PM 17.66 63.788 0.108 7.31 23.38 0.06
5/10/2023 7:00:00 PM 17.53 63.554 0.106 7.33 28.05 0.06
5/10/2023 7:15:00 PM 17.4 63.32 0.11 7.33 24.11 0.06
5/10/2023 7:30:00 PM 17.24 63.032 0.113 7.37 22.85 0.06
5/10/2023 7:45:00 PM 17.08 62.744 0.112 7.35 26.36 0.06
5/10/2023 8:00:00 PM 16.94 62.492 0.111 7.35 25.69 0.06
5/10/2023 8:15:00 PM 16.79 62.222 0.114 7.36 31.72 0.06
5/10/2023 8:30:00 PM 16.66 61.988 0.133 7.34 30.38 0.06
5/10/2023 8:45:00 PM 16.52 61.736 0.12 7.31 30.25 0.06
5/10/2023 9:00:00 PM 16.38 61.484 0.135 7.25 22.68 0.06
5/10/2023 9:15:00 PM 16.26 61.268 0.113 7.26 23.77 0.06
5/10/2023 9:30:00 PM 16.17 61.106 0.11 7.19 22.4 0.06
5/10/2023 9:45:00 PM 16.09 60.962 0.111 7.18 32.61 0.06
5/10/2023 10:00:00 PM 16.02 60.836 0.11 7.16 22.86 0.06
5/10/2023 10:15:00 PM 15.95 60.71 0.099 7.23 29.77 0.06
5/10/2023 10:30:00 PM 15.88 60.584 0.101 7.2 22.85 0.06
5/10/2023 10:45:00 PM 15.81 60.458 0.099 7.21 24.99 0.06
5/10/2023 11:00:00 PM 15.74 60.332 0.097 7.21 23.35 0.06
5/10/2023 11:15:00 PM 15.66 60.188 0.103 7.23 24.44 0.06
5/10/2023 11:30:00 PM 15.59 60.062 0.093 7.18 33.59 0.06
5/10/2023 11:45:00 PM 15.53 59.954 0.091 7.16 33.08 0.06
5/11/2023 12:00:00 AM 15.44 59.792 0.095 7.1 43.03 0.06
5/11/2023 12:15:00 AM 15.38 59.684 0.126 7.11 26.28 0.06
5/11/2023 12:30:00 AM 15.29 59.522 0.098 7.15 26.18 0.06
5/11/2023 12:45:00 AM 15.23 59.414 0.105 7.11 37.8 0.06
5/11/2023 1:00:00 AM 15.17 59.306 0.109 7.14 34.9 0.06
5/11/2023 1:15:00 AM 15.11 59.198 0.109 7.13 28.16 0.06
5/11/2023 1:30:00 AM 15.05 59.09 0.109 7.1 41.86 0.06
5/11/2023 1:45:00 AM 14.98 58.964 0.104 7.11 36.09 0.06
5/11/2023 2:00:00 AM 14.91 58.838 0.109 7.08 28.86 0.06
5/11/2023 2:15:00 AM 14.86 58.748 0.108 7.1 42.37 0.06
5/11/2023 2:30:00 AM 14.81 58.658 0.114 7.07 31.43 0.06
5/11/2023 2:45:00 AM 14.74 58.532 0.147 7.02 37.46 0.06
5/11/2023 3:00:00 AM 14.67 58.406 0.134 7.09 35.57 0.06
5/11/2023 3:15:00 AM 14.61 58.298 0.121 7.08 23.57 0.06
5/11/2023 3:30:00 AM 14.56 58.208 0.122 7.08 24.28 0.06
5/11/2023 3:45:00 AM 14.5 58.1 0.105 7.08 24.54 0.06
5/11/2023 4:15:00 AM 14.39 57.902 0.104 7.06 25.83 0.06
5/11/2023 4:30:00 AM 14.32 57.776 0.099 7.05 26.86 0.06
5/11/2023 4:45:00 AM 14.26 57.668 0.099 7.06 31.07 0.06
5/11/2023 5:00:00 AM 14.19 57.542 0.098 7.01 25.74 0.06
5/11/2023 5:15:00 AM 14.13 57.434 0.098 7.04 28.74 0.06
5/11/2023 5:30:00 AM 14.06 57.308 0.102 7 33.74 0.06
5/11/2023 5:45:00 AM 14.01 57.218 0.097 7 27.16 0.06
5/11/2023 6:00:00 AM 13.96 57.128 0.098 7.01 31.34 0.06
5/11/2023 6:15:00 AM 13.9 57.02 0.102 6.96 27.89 0.06
5/11/2023 6:30:00 AM 13.85 56.93 0.103 7.01 27.25 0.06
5/11/2023 6:45:00 AM 13.79 56.822 0.096 7 30.26 0.06
5/11/2023 7:00:00 AM 13.76 56.768 0.094 6.99 34.19 0.06
5/11/2023 7:15:00 AM 13.72 56.696 0.093 6.96 26.61 0.06
5/11/2023 7:30:00 AM 13.68 56.624 0.097 6.99 27.47 0.06
5/11/2023 7:45:00 AM 13.64 56.552 0.091 7.01 27.84 0.06
5/11/2023 8:00:00 AM 13.61 56.498 0.112 6.99 34.96 0.06
5/11/2023 8:15:00 AM 13.6 56.48 0.112 6.99 28.23 0.06
5/11/2023 8:30:00 AM 13.59 56.462 0.093 7.02 23.68 0.06
5/11/2023 8:45:00 AM 13.63 56.534 0.103 7.02 26.53 0.06
5/11/2023 9:00:00 AM 13.67 56.606 0.089 7.04 39.49 0.06
5/11/2023 9:15:00 AM 13.73 56.714 0.093 7.04 29.96 0.06
5/11/2023 9:30:00 AM 13.81 56.858 0.094 6.99 45.6 0.06
5/11/2023 9:45:00 AM 13.92 57.056 0.128 7.04 38.63 0.06
5/11/2023 10:00:00 AM 14.06 57.308 0.104 7.06 35.94 0.06
5/11/2023 10:15:00 AM 14.21 57.578 0.116 7.05 42.33 0.06
5/11/2023 10:30:00 AM 14.35 57.83 0.109 7.02 42.54 0.06
5/11/2023 10:45:00 AM 14.51 58.118 0.099 7.12 36 0.06
5/11/2023 11:00:00 AM 14.67 58.406 0.093 7.12 47.25 0.06
5/11/2023 11:15:00 AM 14.85 58.73 0.096 7.07 31.45 0.06
5/11/2023 11:30:00 AM 15.13 59.234 0.09 7.09 31.22 0.06
5/11/2023 11:45:00 AM 15.33 59.594 0.086 7.13 34.84 0.06
5/11/2023 12:00:00 PM 15.48 59.864 0.088 6.98 33.45 0.06
5/11/2023 12:15:00 PM 15.65 60.17 0.09 6.96 36.46 0.06
5/11/2023 12:30:00 PM 15.84 60.512 0.115 7.04 43.75 0.06
5/11/2023 12:45:00 PM 16.08 60.944 0.108 7.01 45.15 0.06
5/11/2023 1:00:00 PM 16.32 61.376 0.113 7.1 42.54 0.06
5/11/2023 1:15:00 PM 16.53 61.754 0.116 7.07 40.71 0.06
5/11/2023 1:30:00 PM 16.77 62.186 0.123 7.13 41.14 0.06
5/11/2023 1:45:00 PM 17.04 62.672 0.092 7.13 37.74 0.06
5/11/2023 2:00:00 PM 17.24 63.032 0.094 7.18 31.39 0.06
5/11/2023 2:15:00 PM 17.54 63.572 0.089 7.24 38.24 0.06
5/11/2023 2:30:00 PM 17.79 64.022 0.091 7.25 26.41 0.06
5/11/2023 2:45:00 PM 17.91 64.238 0.103 7.16 28.13 0.06
5/11/2023 3:00:00 PM 18.12 64.616 0.091 7.23 32.44 0.06
5/11/2023 3:15:00 PM 18.27 64.886 0.132 7.26 36.25 0.06
5/11/2023 3:30:00 PM 18.49 65.282 0.128 7.26 37.29 0.06
5/11/2023 3:45:00 PM 18.62 65.516 0.131 7.26 32.4 0.06
5/11/2023 4:00:00 PM 18.73 65.714 0.116 7.21 34.79 0.06
5/11/2023 4:15:00 PM 18.79 65.82201 0.115 7.2 51.02 0.06
5/11/2023 4:30:00 PM 18.92 66.056 0.129 7.25 42 0.06
5/11/2023 4:45:00 PM 18.98 66.164 0.14 7.28 34.58 0.06
5/11/2023 5:00:00 PM 19.05 66.29 0.12 7.27 28.78 0.06
5/11/2023 5:15:00 PM 19.01 66.218 0.132 7.16 37.95 0.06
5/11/2023 5:30:00 PM 19.06 66.308 0.142 7.16 47.08 0.06
5/11/2023 5:45:00 PM 19.1 66.38 0.143 7.09 37.04 0.06
5/11/2023 6:00:00 PM 19.05 66.29 0.147 7 32.3 0.06
5/11/2023 6:15:00 PM 18.98 66.164 0.142 6.43 38.36 0.06
5/11/2023 6:30:00 PM 18.94 66.092 0.128 6.91 27.01 0.06
5/11/2023 6:45:00 PM 18.89 66.002 0.135 6.54 24.88 0.06
5/11/2023 7:00:00 PM 18.81 65.858 0.129 7.02 57.63 0.06
5/11/2023 7:15:00 PM 18.72 65.696 0.13 7.03 23.01 0.06
5/11/2023 7:30:00 PM 18.63 65.534 0.111 6.93 32.8 0.06
5/11/2023 7:45:00 PM 18.52 65.336 0.123 7.13 22.78 0.06
5/11/2023 8:00:00 PM 18.43 65.174 0.126 7.06 26.85 0.06
5/11/2023 8:15:00 PM 18.32 64.976 0.106 7.07 27.18 0.06
5/11/2023 8:30:00 PM 18.23 64.814 0.114 7.08 37.74 0.06
5/11/2023 8:45:00 PM 18.12 64.616 0.106 7.09 4630.51 0.06
5/11/2023 9:00:00 PM 17.99 64.382 0.112 7.11 30.13 0.06
5/11/2023 9:15:00 PM 17.88 64.184 0.149 7.12 27.26 0.06
5/11/2023 9:30:00 PM 17.74 63.932 0.167 7.07 53.74 0.06
5/11/2023 9:45:00 PM 17.62 63.716 0.114 7.06 24.03 0.06
5/11/2023 10:00:00 PM 17.52 63.536 0.114 7.08 26.55 0.06
5/11/2023 10:15:00 PM 17.4 63.32 0.112 6.87 31.65 0.06
5/11/2023 10:30:00 PM 17.29 63.122 0.126 6.92 89.87 0.06
5/11/2023 10:45:00 PM 17.19 62.942 0.109 6.89 145.5 0.06
5/11/2023 11:00:00 PM 17.1 62.78 0.112 6.92 33.16 0.06
5/11/2023 11:15:00 PM 17.04 62.672 0.116 6.94 21.05 0.06
5/11/2023 11:30:00 PM 16.98 62.564 0.115 6.31 23.66 0.06
5/11/2023 11:45:00 PM 16.92 62.456 0.11 6.78 52.85 0.06
5/12/2023 12:00:00 AM 16.87 62.366 0.104 6.75 35.94 0.06
5/12/2023 12:15:00 AM 16.79 62.222 0.106 6.58 21.66 0.06
5/12/2023 12:30:00 AM 16.72 62.096 0.1 6.76 23.57 0.06
5/12/2023 12:45:00 AM 16.67 62.006 0.093 6.77 22.88 0.05
5/12/2023 1:00:00 AM 16.6 61.88 0.09 6.68 25.77 0.06
5/12/2023 1:15:00 AM 16.54 61.772 0.088 6.39 31.02 0.06
5/12/2023 1:30:00 AM 16.46 61.628 0.088 6.54 21.94 0.06
5/12/2023 1:45:00 AM 16.41 61.538 0.086 6.71 37.93 0.06
5/12/2023 2:00:00 AM 16.34 61.412 0.088 6.72 24.19 0.06
5/12/2023 2:15:00 AM 16.29 61.322 0.088 6.51 30.59 0.06
5/12/2023 2:30:00 AM 16.21 61.178 0.092 6.68 27.01 0.06
5/12/2023 2:45:00 AM 16.16 61.088 0.092 6.63 34.29 0.06
5/12/2023 3:00:00 AM 16.12 61.016 0.094 6.72 36.3 0.06
5/12/2023 3:15:00 AM 16.07 60.926 0.094 6.83 23.72 0.06
5/12/2023 3:30:00 AM 16.03 60.854 0.093 6.79 34.75 0.06
5/12/2023 3:45:00 AM 15.95 60.71 0.09 6.5 22.68 0.06
5/12/2023 4:00:00 AM 15.94 60.692 0.107 6.52 28.34 0.06
5/12/2023 4:15:00 AM 15.86 60.548 0.11 6.68 19.44 0.06
5/12/2023 4:30:00 AM 15.81 60.458 0.121 6.67 23.09 0.06
5/12/2023 4:45:00 AM 15.76 60.368 0.124 6.47 20.79 0.06
5/12/2023 5:00:00 AM 15.68 60.224 0.145 6.76 22.35 0.06
5/12/2023 5:15:00 AM 15.63 60.134 0.137 6.62 20.3 0.05
5/12/2023 5:30:00 AM 15.55 59.99 0.127 6.58 27.52 0.06
5/12/2023 5:45:00 AM 15.54 59.972 0.134 6.68 30.48 0.06
5/12/2023 6:00:00 AM 15.48 59.864 0.132 6.58 27.37 0.05
5/12/2023 6:15:00 AM 15.4 59.72 0.12 6.69 22.65 0.06
5/12/2023 6:30:00 AM 15.33 59.594 0.128 6.83 29.41 0.05
5/12/2023 6:45:00 AM 15.29 59.522 0.135 6.74 38.25 0.06
5/12/2023 7:00:00 AM 15.24 59.432 0.119 6.65 22.51 0.06
5/12/2023 7:15:00 AM 15.19 59.342 0.115 6.67 74.27 0.05
5/12/2023 7:30:00 AM 15.17 59.306 0.116 6.6 34.6 0.06
5/12/2023 7:45:00 AM 15.13 59.234 0.118 6.59 114.64 0.06
5/12/2023 8:00:00 AM 15.13 59.234 0.117 6.56 44.99 0.05
5/12/2023 8:15:00 AM 15.13 59.234 0.117 6.6 79.05 0.05
5/12/2023 8:30:00 AM 15.12 59.216 0.115 6.6 328.88 0.05
5/12/2023 8:45:00 AM 15.12 59.216 0.118 6.58 161.67 0.05
5/12/2023 9:00:00 AM 15.15 59.27 0.122 6.56 298.82 0.06
5/12/2023 9:15:00 AM 15.19 59.342 0.124 6.59 183.86 0.06
5/12/2023 9:30:00 AM 15.24 59.432 0.129 6.56 102.64 0.06
5/12/2023 9:45:00 AM 15.31 59.558 0.131 6.57 111.51 0.06
5/12/2023 10:00:00 AM 15.4 59.72 0.133 6.55 265.04 0.06
5/12/2023 10:15:00 AM 15.5 59.9 0.132 6.48 203.34 0.06
5/12/2023 10:30:00 AM 15.61 60.098 0.133 6.53 186.6 0.06
5/12/2023 10:45:00 AM 15.74 60.332 0.132 6.59 110.29 0.06
5/12/2023 11:00:00 AM 15.88 60.584 0.134 6.58 173.82 0.06
5/12/2023 11:15:00 AM 16.05 60.89 0.126 6.59 247.37 0.06
5/12/2023 11:30:00 AM 16.23 61.214 0.132 6.52 140.47 0.06
5/12/2023 11:45:00 AM 16.42 61.556 0.128 6.59 84.49 0.06
5/12/2023 12:00:00 PM 16.68 62.024 0.13 6.56 67.59 0.06
5/12/2023 12:15:00 PM 16.94 62.492 0.141 6.53 55.87 0.06
5/12/2023 12:30:00 PM 17.14 62.852 0.149 6.57 66.06 0.06
5/12/2023 12:45:00 PM 17.38 63.284 0.126 6.52 93.14 0.06
5/12/2023 1:00:00 PM 17.53 63.554 0.13 6.56 29.46 0.06
5/12/2023 1:15:00 PM 17.79 64.022 0.136 6.52 78.41 0.05
5/12/2023 1:30:00 PM 17.92 64.256 0.136 6.54 85.61 0.06
5/12/2023 1:45:00 PM 18.08 64.544 0.146 6.56 78.41 0.05
5/12/2023 2:00:00 PM 18.27 64.886 0.165 6.54 95.19 0.06
5/12/2023 2:15:00 PM 18.47 65.246 0.142 6.49 147.43 0.05
5/12/2023 2:30:00 PM 18.61 65.498 0.17 6.56 61.56 0.05
5/12/2023 2:45:00 PM 18.82 65.876 0.151 6.6 249.85 0.05
5/12/2023 3:00:00 PM 18.98 66.164 0.195 6.63 234.15 0.06
5/12/2023 3:15:00 PM 19.11 66.398 0.178 6.6 415.35 0.06
5/12/2023 3:30:00 PM 19.21 66.578 0.198 6.61 299.71 0.06
5/12/2023 3:45:00 PM 19.36 66.848 0.228 6.62 386.28 0.06
5/12/2023 4:00:00 PM 19.45 67.01 0.171 6.57 282.15 0.06
5/12/2023 4:15:00 PM 19.56 67.208 0.17 6.57 399.86 0.06
5/12/2023 4:30:00 PM 19.65 67.37 0.234 6.57 819.4 0.06
5/12/2023 4:45:00 PM 19.8 67.64 0.225 6.62 522.98 0.06
5/12/2023 5:00:00 PM 19.8 67.64 0.298 6.65 480.03 0.07
5/12/2023 5:15:00 PM 19.84 67.712 0.169 6.62 615 0.07
5/12/2023 5:30:00 PM 19.88 67.784 0.233 6.59 710.8 0.07
5/12/2023 5:45:00 PM 19.91 67.838 0.196 6.59 223.02 0.07
5/12/2023 6:00:00 PM 19.91 67.838 0.181 6.45 481.41 0.08
5/12/2023 6:15:00 PM 19.91 67.838 0.194 6.51 497.33 0.08
5/12/2023 6:30:00 PM 19.9 67.82 0.146 6.52 238.51 0.08
5/12/2023 6:45:00 PM 19.89 67.802 0.182 6.54 109.92 0.08
5/12/2023 7:00:00 PM 19.87 67.766 0.181 6.49 135.01 0.08
5/12/2023 7:15:00 PM 19.85 67.73 0.178 6.59 170.11 0.08
5/12/2023 7:30:00 PM 19.82 67.676 0.178 6.63 74.18 0.08
5/12/2023 7:45:00 PM 19.78 67.604 0.182 6.59 78.85 0.07
5/12/2023 8:00:00 PM 19.73 67.514 0.186 6.62 164.05 0.07
5/12/2023 8:15:00 PM 19.67 67.406 0.198 6.65 189.82 0.07
5/12/2023 8:30:00 PM 19.6 67.28 0.177 6.65 127.83 0.08
5/12/2023 8:45:00 PM 19.52 67.136 0.185 6.63 158.95 0.08
5/12/2023 9:00:00 PM 19.44 66.992 0.168 6.66 359.86 0.08
5/12/2023 9:15:00 PM 19.36 66.848 0.164 6.7 224.18 0.08
5/12/2023 9:30:00 PM 19.27 66.686 0.157 6.69 350.62 0.08
5/12/2023 9:45:00 PM 19.17 66.506 0.133 6.69 260.74 0.08
5/12/2023 10:00:00 PM 19.07 66.326 0.124 6.7 159.43 0.08
5/12/2023 10:15:00 PM 18.97 66.146 0.124 6.74 181.47 0.08
5/12/2023 10:30:00 PM 18.87 65.966 0.117 6.69 104.63 0.08
5/12/2023 10:45:00 PM 18.77 65.786 0.119 6.73 247.3 0.08
5/12/2023 11:00:00 PM 18.67 65.606 0.111 6.72 158.69 0.08
5/12/2023 11:15:00 PM 18.56 65.408 0.111 6.72 247.22 0.08
5/12/2023 11:30:00 PM 18.43 65.174 0.11 6.65 120.58 0.08
5/12/2023 11:45:00 PM 18.31 64.958 0.113 6.71 126.41 0.08
5/13/2023 12:00:00 AM 18.2 64.76 0.114 6.74 103.12 0.08
5/13/2023 12:15:00 AM 18.08 64.544 0.11 6.76 45.12 0.09
5/13/2023 12:30:00 AM 17.96 64.328 0.115 6.77 50.54 0.07
5/13/2023 12:45:00 AM 17.86 64.148 0.114 6.76 226.48 0.07
5/13/2023 1:00:00 AM 17.73 63.914 0.111 6.75 150.72 0.09
5/13/2023 1:15:00 AM 17.64 63.752 0.125 6.77 196.24 0.08
5/13/2023 1:30:00 AM 17.56 63.608 0.128 6.72 124.49 0.08
5/13/2023 1:45:00 AM 17.46 63.428 0.14 6.69 87.43 0.07
5/13/2023 2:00:00 AM 17.36 63.248 0.14 6.71 73.2 0.07
5/13/2023 2:15:00 AM 17.25 63.05 0.195 6.65 61.27 0.07
5/13/2023 2:30:00 AM 17.15 62.87 0.172 6.72 92.11 0.06
5/13/2023 2:45:00 AM 17.05 62.69 0.151 6.79 130.77 0.07
5/13/2023 3:00:00 AM 16.93 62.474 0.165 6.68 132.85 0.07
5/13/2023 3:15:00 AM 16.82 62.276 0.157 6.44 112.45 0.07
5/13/2023 3:30:00 AM 16.73 62.114 0.159 6.6 146.82 0.06
5/13/2023 3:45:00 AM 16.65 61.97 0.16 6.63 215.55 0.06
5/13/2023 4:00:00 AM 16.57 61.826 0.145 6.56 129.72 0.07
5/13/2023 4:15:00 AM 16.51 61.718 0.13 6.72 66.85 0.06
5/13/2023 4:30:00 AM 16.44 61.592 0.182 6.73 36.14 0.06
5/13/2023 4:45:00 AM 16.4 61.52 0.147 6.71 96.37 0.06
5/13/2023 5:00:00 AM 16.34 61.412 0.152 6.67 83.61 0.06
5/13/2023 5:15:00 AM 16.29 61.322 0.136 6.78 58.12 0.06
5/13/2023 5:30:00 AM 16.25 61.25 0.126 6.72 151.94 0.06
5/13/2023 5:45:00 AM 16.21 61.178 0.119 6.74 64.05 0.06
5/13/2023 6:00:00 AM 16.17 61.106 0.128 6.76 183.66 0.06
5/13/2023 6:15:00 AM 16.15 61.07 0.135 6.77 263.15 0.06
5/13/2023 6:30:00 AM 16.15 61.07 0.158 6.79 243.85 0.06
5/13/2023 6:45:00 AM 16.14 61.052 0.192 6.68 417.24 0.06
5/13/2023 7:00:00 AM 16.13 61.034 0.139 6.73 291.68 0.06
5/13/2023 7:15:00 AM 16.12 61.016 0.136 6.79 306.41 0.06
5/13/2023 7:30:00 AM 16.11 60.998 0.137 6.76 462.05 0.06
5/13/2023 7:45:00 AM 16.12 61.016 0.15 6.7 1145.41 0.06
5/13/2023 8:00:00 AM 16.13 61.034 0.166 6.73 916.54 0.06
5/13/2023 8:15:00 AM 16.14 61.052 0.152 6.78 851.36 0.06
5/13/2023 8:30:00 AM 16.15 61.07 0.171 6.77 618.11 0.06
5/13/2023 8:45:00 AM 16.18 61.124 0.16 6.76 463.1 0.06
5/13/2023 9:00:00 AM 16.22 61.196 0.164 6.68 412.55 0.06
5/13/2023 9:15:00 AM 16.27 61.286 0.179 6.68 543.74 0.06
5/13/2023 9:30:00 AM 16.33 61.394 0.179 6.82 582.23 0.06
5/13/2023 9:45:00 AM 16.39 61.502 0.176 6.72 675.45 0.06
5/13/2023 10:00:00 AM 16.49 61.682 0.177 6.8 353.52 0.06
5/13/2023 10:15:00 AM 16.59 61.862 0.152 6.78 229.16 0.06
5/13/2023 10:30:00 AM 16.7 62.06 0.151 6.82 495.18 0.06
5/13/2023 10:45:00 AM 16.8 62.24 0.132 6.78 347.07 0.06
5/13/2023 11:00:00 AM 16.93 62.474 0.113 6.76 558.44 0.06
5/13/2023 11:15:00 AM 17.04 62.672 0.108 6.72 91.53 0.06
5/13/2023 11:30:00 AM 17.19 62.942 0.107 6.78 96.5 0.06
5/13/2023 11:45:00 AM 17.34 63.212 0.098 6.77 415.16 0.06
5/13/2023 12:00:00 PM 17.43 63.374 0.101 6.8 305.77 0.07
5/13/2023 12:15:00 PM 17.55 63.59 0.088 6.82 145.33 0.07
5/13/2023 12:30:00 PM 17.7 63.86 0.087 6.82 100.93 0.08
5/13/2023 12:45:00 PM 17.89 64.202 0.088 6.57 117.42 0.08
5/13/2023 1:00:00 PM 17.97 64.346 0.09 6.79 97.96 0.08
5/13/2023 1:15:00 PM 18.09 64.562 0.087 6.84 42.69 0.09
5/13/2023 1:30:00 PM 18.24 64.832 0.103 6.73 53.78 0.09
5/13/2023 1:45:00 PM 18.37 65.066 0.102 6.61 73.09 0.11
5/13/2023 2:00:00 PM 18.58 65.444 0.081 6.59 138.07 0.09
5/13/2023 2:15:00 PM 18.8 65.84 0.086 6.56 83.6 0.11
5/13/2023 2:30:00 PM 18.86 65.948 0.085 6.53 51.16 0.12
5/13/2023 2:45:00 PM 18.98 66.164 0.086 6.65 49.06 0.13
5/13/2023 3:00:00 PM 19.09 66.362 0.084 6.89 65.54 0.11
5/13/2023 3:15:00 PM 19.24 66.632 0.084 6.93 68.37 0.12
5/13/2023 3:30:00 PM 19.35 66.83 0.085 6.8 53.02 0.11
5/13/2023 3:45:00 PM 19.51 67.118 0.085 6.85 42.21 0.11
5/13/2023 4:00:00 PM 19.59 67.262 0.086 6.9 36.43 0.11
5/13/2023 4:15:00 PM 19.65 67.37 0.088 6.75 121.73 0.13
5/13/2023 4:30:00 PM 19.69 67.442 0.087 6.78 222.63 0.19
5/13/2023 4:45:00 PM 19.77 67.586 0.087 6.81 119.59 0.14
5/13/2023 5:00:00 PM 19.81 67.658 0.09 6.79 100.42 0.11
5/13/2023 5:15:00 PM 19.86 67.748 0.094 6.81 78.66 0.11
5/13/2023 5:30:00 PM 19.9 67.82 0.094 6.83 84.16 0.08
5/13/2023 5:45:00 PM 19.87 67.766 0.091 6.8 10.5 0.08
5/13/2023 6:00:00 PM 19.83 67.694 0.101 6.8 2.85 0.08
5/13/2023 6:15:00 PM 19.82 67.676 0.107 6.82 5.54 0.08
5/13/2023 6:30:00 PM 19.81 67.658 0.114 6.81 297.37 0.08
5/13/2023 6:45:00 PM 19.78 67.604 0.122 6.79 52.85 0.07
5/13/2023 7:00:00 PM 19.75 67.55 0.112 6.81 56.46 0.07
5/13/2023 7:15:00 PM 19.68 67.424 0.119 6.76 58.32 0.07
5/13/2023 7:30:00 PM 19.61 67.298 0.109 6.82 76.28 0.07
5/13/2023 7:45:00 PM 19.51 67.118 0.106 6.84 72.15 0.06
5/13/2023 8:00:00 PM 19.4 66.92 0.106 6.76 94.87 0.07
5/13/2023 8:15:00 PM 19.29 66.722 0.099 6.8 100.73 0.07
5/13/2023 8:30:00 PM 19.16 66.488 0.099 6.87 147.46 0.07
5/13/2023 8:45:00 PM 19.04 66.272 0.098 6.81 142.46 0.07
5/13/2023 9:00:00 PM 18.91 66.038 0.098 6.81 90.28 0.07
5/13/2023 9:15:00 PM 18.76 65.768 0.098 6.82 47.71 0.07
5/13/2023 9:30:00 PM 18.61 65.498 0.098 6.81 64.18 0.07
5/13/2023 9:45:00 PM 18.47 65.246 0.1 6.81 74.6 0.08
5/13/2023 10:00:00 PM 18.32 64.976 0.099 6.84 141.5 0.09
5/13/2023 10:15:00 PM 18.18 64.724 0.098 6.81 114.19 0.09
5/13/2023 10:30:00 PM 18.05 64.49 0.097 6.88 85.11 0.07
5/13/2023 10:45:00 PM 17.93 64.274 0.094 6.93 120.13 0.07
5/13/2023 11:00:00 PM 17.81 64.058 0.097 6.86 109.51 0.07
5/13/2023 11:15:00 PM 17.74 63.932 0.096 6.79 94.49 0.07
5/13/2023 11:30:00 PM 17.62 63.716 0.093 6.77 89.8 0.07
5/13/2023 11:45:00 PM 17.54 63.572 0.091 6.77 42.55 0.07
5/14/2023 12:00:00 AM 17.45 63.41 0.091 6.8 57.37 0.07
5/14/2023 12:15:00 AM 17.39 63.302 0.094 6.79 85.91 0.07
5/14/2023 12:30:00 AM 17.31 63.158 0.095 6.79 98.53 0.06
5/14/2023 12:45:00 AM 17.23 63.014 0.096 6.76 115.66 0.06
5/14/2023 1:00:00 AM 17.14 62.852 0.097 6.87 174.15 0.06
5/14/2023 1:15:00 AM 17.01 62.618 0.096 6.72 78.63 0.06
5/14/2023 1:30:00 AM 16.94 62.492 0.096 6.79 44.89 0.07
5/14/2023 1:45:00 AM 16.89 62.402 0.097 6.87 69.69 0.09
5/14/2023 2:00:00 AM 16.81 62.258 0.094 6.85 98 0.1
5/14/2023 2:15:00 AM 16.73 62.114 0.098 6.72 203.35 0.08
5/14/2023 2:30:00 AM 16.64 61.952 0.093 6.79 159.9 0.09
5/14/2023 2:45:00 AM 16.54 61.772 0.096 6.82 283.7 0.09
5/14/2023 3:00:00 AM 16.46 61.628 0.092 6.76 289.02 0.08
5/14/2023 3:15:00 AM 16.41 61.538 0.091 6.8 101.52 0.08
5/14/2023 3:30:00 AM 16.31 61.358 0.095 6.84 102.15 0.08
5/14/2023 3:45:00 AM 16.23 61.214 0.096 6.82 251.48 0.08
5/14/2023 4:00:00 AM 16.13 61.034 0.096 6.73 199.76 0.07
5/14/2023 4:15:00 AM 16.08 60.944 0.098 6.78 207.7 0.07
5/14/2023 4:30:00 AM 15.99 60.782 0.096 6.75 334.04 0.07
5/14/2023 4:45:00 AM 15.96 60.728 0.095 6.73 481.78 0.07
5/14/2023 5:00:00 AM 15.89 60.602 0.095 6.68 466.67 0.08
5/14/2023 5:15:00 AM 15.81 60.458 0.094 6.7 292.29 0.08
5/14/2023 5:30:00 AM 15.72 60.296 0.094 6.69 190.61 0.08
5/14/2023 5:45:00 AM 15.67 60.206 0.101 6.74 160.9 0.08
5/14/2023 6:00:00 AM 15.66 60.188 0.12 6.81 144.66 0.07
5/14/2023 6:15:00 AM 15.64 60.152 0.116 6.76 118.42 0.08
5/14/2023 6:30:00 AM 15.6 60.08 0.141 6.76 66.63 0.08
5/14/2023 6:45:00 AM 15.54 59.972 0.128 6.76 148.15 0.08
5/14/2023 7:00:00 AM 15.43 59.774 0.132 6.8 213.7 0.08
5/14/2023 7:15:00 AM 15.42 59.756 0.141 6.75 143.3 0.08
5/14/2023 7:30:00 AM 15.38 59.684 0.135 6.81 151.25 0.08
5/14/2023 7:45:00 AM 15.35 59.63 0.154 6.77 124.92 0.09
5/14/2023 8:00:00 AM 15.33 59.594 0.181 6.74 143.52 0.09
5/14/2023 8:15:00 AM 15.3 59.54 0.185 6.74 145.39 0.1
5/14/2023 8:30:00 AM 15.27 59.486 0.156 6.79 170.46 0.1
5/14/2023 8:45:00 AM 15.25 59.45 0.16 6.76 134.24 0.1
5/14/2023 9:00:00 AM 15.24 59.432 0.15 6.75 143.56 0.09
5/14/2023 9:15:00 AM 15.25 59.45 0.159 6.78 115.26 0.1
5/14/2023 9:30:00 AM 15.28 59.504 0.163 6.78 89.21 0.09
5/14/2023 9:45:00 AM 15.31 59.558 0.172 6.78 162.99 0.09
5/14/2023 10:00:00 AM 15.35 59.63 0.171 6.78 155.66 0.09
5/14/2023 10:15:00 AM 15.42 59.756 0.163 6.86 178.77 0.09
5/14/2023 10:30:00 AM 15.5 59.9 0.163 6.85 240.18 0.09
5/14/2023 10:45:00 AM 15.6 60.08 0.167 6.87 144.72 0.09
5/14/2023 11:00:00 AM 15.72 60.296 0.13 6.86 452.81 0.07
5/14/2023 11:15:00 AM 15.86 60.548 0.138 6.83 105.69 0.09
5/14/2023 11:30:00 AM 15.98 60.764 0.143 6.85 110.68 0.11
5/14/2023 11:45:00 AM 16.14 61.052 0.149 6.86 99.84 0.11
5/14/2023 12:00:00 PM 16.31 61.358 0.143 6.88 85.62 0.07
5/14/2023 12:15:00 PM 16.51 61.718 0.132 6.9 86.57 0.1
5/14/2023 12:30:00 PM 16.72 62.096 0.13 6.82 74.54 0.11
5/14/2023 12:45:00 PM 16.94 62.492 0.129 6.8 136.31 0.12
5/14/2023 1:00:00 PM 17.19 62.942 0.123 6.88 128.44 0.12
5/14/2023 1:15:00 PM 17.39 63.302 0.128 6.87 85.82 0.12
5/14/2023 1:30:00 PM 17.59 63.662 0.127 6.88 282.54 0.12
5/14/2023 1:45:00 PM 17.79 64.022 0.129 6.86 80.57 0.12
5/14/2023 2:00:00 PM 18.02 64.436 0.124 6.9 118.21 0.11
5/14/2023 2:15:00 PM 18.22 64.796 0.123 6.91 21.07 0.11
5/14/2023 2:30:00 PM 18.42 65.156 0.128 6.87 5.76 0.12
5/14/2023 2:45:00 PM 18.58 65.444 0.123 6.92 23.19 0.12
5/14/2023 3:00:00 PM 18.78 65.804 0.124 6.86 33.83 0.12
5/14/2023 3:15:00 PM 18.98 66.164 0.121 6.88 293.91 0.13
5/14/2023 3:30:00 PM 19.07 66.326 0.124 6.9 159.29 0.12
5/14/2023 3:45:00 PM 19.18 66.524 0.123 6.91 406.94 0.09
5/14/2023 4:00:00 PM 19.28 66.704 0.126 6.76 280.84 0.09
5/14/2023 4:15:00 PM 19.36 66.848 0.124 6.85 104.45 0.09
5/14/2023 4:30:00 PM 19.45 67.01 0.127 6.91 250.93 0.1
5/14/2023 4:45:00 PM 19.53 67.154 0.126 6.91 315.46 0.09
5/14/2023 5:00:00 PM 19.59 67.262 0.121 6.89 1223.85 0.1
5/14/2023 5:15:00 PM 19.64 67.352 0.125 6.85 442.41 0.11
5/14/2023 5:30:00 PM 19.67 67.406 0.126 6.9 526.3 0.12
5/14/2023 5:45:00 PM 19.69 67.442 0.117 6.87 652.21 0.12
5/14/2023 6:00:00 PM 19.68 67.424 0.13 6.84 377.86 0.11
5/14/2023 6:15:00 PM 19.67 67.406 0.126 6.89 128.65 0.11
5/14/2023 6:30:00 PM 19.64 67.352 0.115 6.87 299.23 0.11
5/14/2023 6:45:00 PM 19.59 67.262 0.133 6.89 236.37 0.1
5/14/2023 7:00:00 PM 19.51 67.118 0.141 6.9 288.77 0.1
5/14/2023 7:15:00 PM 19.43 66.974 0.123 6.87 353.14 0.1
5/14/2023 7:30:00 PM 19.31 66.758 0.13 6.8 112.53 0.1
5/14/2023 7:45:00 PM 19.17 66.506 0.126 6.86 165.92 0.1
5/14/2023 8:00:00 PM 19.02 66.236 0.144 6.87 203.29 0.1
5/14/2023 8:15:00 PM 18.83 65.894 0.146 6.87 196.72 0.09
5/14/2023 8:30:00 PM 18.63 65.534 0.156 6.88 206.7 0.09
5/14/2023 8:45:00 PM 18.42 65.156 0.144 6.89 258.75 0.1
5/14/2023 9:00:00 PM 18.24 64.832 0.136 6.89 387.34 0.11
5/14/2023 9:15:00 PM 18.03 64.454 0.144 6.88 406.95 0.1
5/14/2023 9:30:00 PM 17.85 64.13 0.141 6.85 265.99 0.09
5/14/2023 9:45:00 PM 17.69 63.842 0.148 6.86 204.42 0.09
5/14/2023 10:00:00 PM 17.52 63.536 0.137 6.9 301.27 0.08
5/14/2023 10:15:00 PM 17.38 63.284 0.14 6.92 268.74 0.09
5/14/2023 10:30:00 PM 17.25 63.05 0.136 6.83 134.37 0.09
5/14/2023 10:45:00 PM 17.11 62.798 0.136 6.92 179.48 0.09
5/14/2023 11:00:00 PM 16.95 62.51 0.139 6.93 208.51 0.1
5/14/2023 11:15:00 PM 16.83 62.294 0.135 6.9 233.73 0.1
5/14/2023 11:30:00 PM 16.72 62.096 0.136 6.84 289.93 0.1
5/14/2023 11:45:00 PM 16.62 61.916 0.18 6.91 299.58 0.09
5/15/2023 12:00:00 AM 16.52 61.736 0.138 6.86 318.63 0.06
5/15/2023 12:15:00 AM 16.38 61.484 0.147 6.86 179.51 0.05
5/15/2023 12:30:00 AM 16.26 61.268 0.134 6.84 209.58 0.06
5/15/2023 12:45:00 AM 16.2 61.16 0.128 6.85 159.15 0.06
5/15/2023 1:00:00 AM 16.11 60.998 0.128 6.74 425.83 0.06
5/15/2023 1:15:00 AM 15.99 60.782 0.144 6.72 359.09 0.06
5/15/2023 1:30:00 AM 15.91 60.638 0.119 6.75 502.41 0.06
5/15/2023 1:45:00 AM 15.84 60.512 0.124 6.76 302.33 0.06
5/15/2023 2:00:00 AM 15.74 60.332 0.127 6.84 227.28 0.05
5/15/2023 2:15:00 AM 15.64 60.152 0.127 6.83 153.15 0.06
5/15/2023 2:30:00 AM 15.57 60.026 0.127 6.85 239.25 0.06
5/15/2023 2:45:00 AM 15.49 59.882 0.131 6.75 230.25 0.08
5/15/2023 3:00:00 AM 15.4 59.72 0.128 6.71 214.34 0.06
5/15/2023 3:15:00 AM 15.32 59.576 0.136 6.81 208 0.07
5/15/2023 3:30:00 AM 15.21 59.378 0.144 6.84 175.78 0.08
5/15/2023 3:45:00 AM 15.12 59.216 0.14 6.82 208.51 0.08
5/15/2023 4:00:00 AM 15.07 59.126 0.142 6.86 109.26 0.09
5/15/2023 4:15:00 AM 14.96 58.928 0.154 6.82 229.99 0.08
5/15/2023 4:30:00 AM 14.86 58.748 0.147 6.94 163.06 0.08
5/15/2023 4:45:00 AM 14.77 58.586 0.147 6.84 230.68 0.09
5/15/2023 5:00:00 AM 14.69 58.442 0.146 6.85 214.28 0.1
5/15/2023 5:15:00 AM 14.62 58.316 0.166 6.88 160.21 0.1
5/15/2023 5:30:00 AM 14.56 58.208 0.145 6.86 213.68 0.11
5/15/2023 5:45:00 AM 14.49 58.082 0.134 6.84 232.04 0.11
5/15/2023 6:00:00 AM 14.43 57.974 0.137 6.86 294.65 0.12
5/15/2023 6:15:00 AM 14.37 57.866 0.12 6.9 237 0.13
5/15/2023 6:30:00 AM 14.33 57.794 0.12 6.9 243.96 0.14
5/15/2023 6:45:00 AM 14.25 57.65 0.11 6.84 280.22 0.14
5/15/2023 7:00:00 AM 14.22 57.596 0.104 6.88 55.17 0.13
5/15/2023 7:15:00 AM 14.15 57.47 0.111 6.86 86.59 0.14
5/15/2023 7:30:00 AM 14.07 57.326 0.111 6.83 95.2 0.13
5/15/2023 7:45:00 AM 14.01 57.218 0.111 6.88 51.59 0.14
5/15/2023 8:00:00 AM 13.96 57.128 0.105 6.87 72.81 0.14
5/15/2023 8:15:00 AM 13.89 57.002 0.104 6.88 131.62 0.13
5/15/2023 8:30:00 AM 13.89 57.002 0.105 6.74 54.78 0.13
5/15/2023 8:45:00 AM 13.89 57.002 0.105 6.77 61.73 0.11
5/15/2023 9:00:00 AM 13.89 57.002 0.108 6.79 112.86 0.09
5/15/2023 9:15:00 AM 13.94 57.092 0.107 6.85 170.04 0.14
5/15/2023 9:30:00 AM 13.98 57.164 0.113 6.81 195.31 0.15
5/15/2023 9:45:00 AM 14.02 57.236 0.111 6.93 214.34 0.15
5/15/2023 10:00:00 AM 14.09 57.362 0.113 6.88 215.02 0.14
5/15/2023 10:15:00 AM 14.19 57.542 0.115 6.92 182.16 0.14
5/15/2023 10:30:00 AM 14.29 57.722 0.119 6.9 194.66 0.15
5/15/2023 10:45:00 AM 14.42 57.956 0.117 6.92 273.72 0.14
5/15/2023 11:00:00 AM 14.56 58.208 0.112 6.93 220.83 0.16
5/15/2023 11:15:00 AM 14.71 58.478 0.115 6.99 189.98 0.15
5/15/2023 11:30:00 AM 14.89 58.802 0.118 6.91 189.56 0.14
5/15/2023 11:45:00 AM 15.08 59.144 0.116 6.94 201.78 0.14
5/15/2023 12:00:00 PM 15.31 59.558 0.124 6.94 190.34 0.14
5/15/2023 12:15:00 PM 15.55 59.99 0.121 6.94 198.51 0.16
5/15/2023 12:30:00 PM 15.77 60.386 0.119 6.9 246.16 0.16
5/15/2023 12:45:00 PM 16 60.8 0.12 6.93 246.92 0.14
5/15/2023 1:00:00 PM 16.26 61.268 0.127 6.93 263.19 0.15
5/15/2023 1:15:00 PM 16.48 61.664 0.132 6.92 302.75 0.15
5/15/2023 1:30:00 PM 16.71 62.078 0.124 6.86 270.97 0.15
5/15/2023 1:45:00 PM 16.95 62.51 0.127 6.95 287.62 0.14
5/15/2023 2:00:00 PM 17.17 62.906 0.128 6.92 238.03 0.15
5/15/2023 2:15:00 PM 17.38 63.284 0.129 6.91 266.53 0.13
5/15/2023 2:30:00 PM 17.6 63.68 0.131 6.92 177.99 0.12
5/15/2023 2:45:00 PM 17.78 64.004 0.133 6.96 180.95 0.06
5/15/2023 3:00:00 PM 17.99 64.382 0.127 6.95 223.7 0.06
5/15/2023 3:15:00 PM 18.19 64.742 0.131 6.98 176.11 0.08
5/15/2023 3:30:00 PM 18.38 65.084 0.127 6.93 124.03 0.11
5/15/2023 3:45:00 PM 18.55 65.39 0.119 6.93 217.37 0.12
5/15/2023 4:00:00 PM 18.68 65.624 0.115 6.93 239.28 0.06
5/15/2023 4:15:00 PM 18.83 65.894 0.121 6.86 274.01 0.05
5/15/2023 4:30:00 PM 18.93 66.074 0.117 6.93 199.3 0.05
5/15/2023 4:45:00 PM 19.03 66.254 0.119 6.91 203.46 0.05
5/15/2023 5:00:00 PM 19.12 66.416 0.123 6.85 210.12 0.06
5/15/2023 5:15:00 PM 19.19 66.542 0.123 6.91 142.3 0.06
5/15/2023 5:30:00 PM 19.23 66.614 0.128 6.87 142.75 0.06
5/15/2023 5:45:00 PM 19.28 66.704 0.129 6.96 122 0.06
5/15/2023 6:00:00 PM 19.32 66.776 0.129 6.5 104.73 0.07
5/15/2023 6:15:00 PM 19.34 66.812 0.134 6.86 128.27 0.07
5/15/2023 6:30:00 PM 19.36 66.848 0.134 6.96 205.29 0.09
5/15/2023 6:45:00 PM 19.37 66.866 0.126 7 256.32 0.1
5/15/2023 7:00:00 PM 19.36 66.848 0.135 7 214.43 0.11
5/15/2023 7:15:00 PM 19.34 66.812 0.132 7 212.44 0.12
5/15/2023 7:30:00 PM 19.3 66.74 0.132 6.96 206.74 0.12
5/15/2023 7:45:00 PM 19.25 66.65 0.125 6.86 173.05 0.12
5/15/2023 8:00:00 PM 19.17 66.506 0.123 6.99 206.61 0.13
5/15/2023 8:15:00 PM 19.09 66.362 0.125 6.97 202.92 0.13
5/15/2023 8:30:00 PM 18.98 66.164 0.125 6.98 176.65 0.13
5/15/2023 8:45:00 PM 18.87 65.966 0.123 6.92 182.7 0.12
5/15/2023 9:00:00 PM 18.74 65.732 0.126 6.9 177.5 0.13
5/15/2023 9:15:00 PM 18.6 65.48 0.126 6.92 138.83 0.15
5/15/2023 9:30:00 PM 18.46 65.228 0.121 7 148.52 0.15
5/15/2023 9:45:00 PM 18.32 64.976 0.119 6.99 166.49 0.14
5/15/2023 10:00:00 PM 18.18 64.724 0.127 7.01 218.76 0.13
5/15/2023 10:15:00 PM 18.04 64.472 0.118 7.02 274.9 0.13
5/15/2023 10:30:00 PM 17.93 64.274 0.121 7.01 199.44 0.11
5/15/2023 10:45:00 PM 17.78 64.004 0.119 7.01 274.04 0.07
5/15/2023 11:00:00 PM 17.66 63.788 0.126 6.97 181.69 0.07
5/15/2023 11:15:00 PM 17.53 63.554 0.124 6.99 179.74 0.12
5/15/2023 11:30:00 PM 17.43 63.374 0.118 7.03 307.16 0.12
5/15/2023 11:45:00 PM 17.33 63.194 0.118 7.05 211.81 0.11
5/16/2023 12:00:00 AM 17.23 63.014 0.123 7.01 304.25 0.12
5/16/2023 12:15:00 AM 17.13 62.834 0.119 6.96 245.37 0.12
5/16/2023 12:30:00 AM 17.03 62.654 0.096 6.85 230.64 0.11
5/16/2023 12:45:00 AM 16.94 62.492 0.102 6.91 268.35 0.11
5/16/2023 1:00:00 AM 16.85 62.33 0.101 7 262.85 0.07
5/16/2023 1:15:00 AM 16.75 62.15 0.095 6.91 192.61 0.1
5/16/2023 1:30:00 AM 16.67 62.006 0.102 7.03 246.15 0.1
5/16/2023 1:45:00 AM 16.6 61.88 0.096 7.06 333.81 0.1
5/16/2023 2:00:00 AM 16.51 61.718 0.093 7.06 414.5 0.09
5/16/2023 2:15:00 AM 16.42 61.556 0.086 7.08 419.86 0.09
5/16/2023 2:30:00 AM 16.32 61.376 0.088 7.06 253.3 0.1
5/16/2023 2:45:00 AM 16.21 61.178 0.085 7.07 266.07 0.1
5/16/2023 3:00:00 AM 16.13 61.034 0.085 7.02 219.56 0.1
5/16/2023 3:15:00 AM 16.06 60.908 0.085 7 189.23 0.08
5/16/2023 3:30:00 AM 15.99 60.782 0.087 7.03 256.57 0.11
5/16/2023 3:45:00 AM 15.88 60.584 0.086 7.09 291.23 0.11
5/16/2023 4:00:00 AM 15.82 60.476 0.084 7.04 164 0.12
5/16/2023 4:15:00 AM 15.73 60.314 0.09 7.09 136.26 0.12
5/16/2023 4:30:00 AM 15.65 60.17 0.087 7.01 213.37 0.12
5/16/2023 4:45:00 AM 15.55 59.99 0.089 6.93 43.3 0.12
5/16/2023 5:00:00 AM 15.49 59.882 0.089 6.93 116.17 0.12
5/16/2023 5:15:00 AM 15.39 59.702 0.089 6.95 147.12 0.13
5/16/2023 5:30:00 AM 15.33 59.594 0.093 6.95 164.35 0.14
5/16/2023 5:45:00 AM 15.26 59.468 0.087 6.95 254.21 0.09
5/16/2023 6:00:00 AM 15.2 59.36 0.086 6.95 151.29 0.1
5/16/2023 6:15:00 AM 15.11 59.198 0.089 7 181.7 0.1
5/16/2023 6:30:00 AM 15.02 59.036 0.088 6.31 189.25 0.11
5/16/2023 6:45:00 AM 14.97 58.946 0.083 6.34 175.2 0.16
5/16/2023 7:00:00 AM 14.9 58.82 0.082 6.5 195.61 0.2
5/16/2023 7:15:00 AM 14.81 58.658 0.083 6.55 131.43 0.17
5/16/2023 7:30:00 AM 14.77 58.586 0.086 6.59 287.1 0.12
5/16/2023 7:45:00 AM 14.7 58.46 0.088 6.77 246.92 0.07
5/16/2023 8:00:00 AM 14.65 58.37 0.083 6.4 255.04 0.12
5/16/2023 8:15:00 AM 14.6 58.28 0.087 6.74 289.06 0.12
5/16/2023 8:30:00 AM 14.58 58.244 0.088 6.89 225.45 0.12
5/16/2023 8:45:00 AM 14.56 58.208 0.083 6.89 253.68 0.14
5/16/2023 9:00:00 AM 14.54 58.172 0.085 6.88 307.93 0.12
5/16/2023 9:15:00 AM 14.54 58.172 0.087 6.98 204.22 0.12
5/16/2023 9:30:00 AM 14.55 58.19 0.093 6.88 255.59 0.16
5/16/2023 9:45:00 AM 14.59 58.262 0.096 6.9 162.66 0.18
5/16/2023 10:00:00 AM 14.65 58.37 0.1 6.93 197.82 0.14
5/16/2023 10:15:00 AM 14.72 58.496 0.088 6.96 190.91 0.14
5/16/2023 10:30:00 AM 14.8 58.64 0.093 6.97 143.56 0.18
5/16/2023 10:45:00 AM 14.9 58.82 0.088 7 160.66 0.19
5/16/2023 11:00:00 AM 15.03 59.054 0.095 6.98 177.37 0.2
5/16/2023 11:15:00 AM 15.15 59.27 0.091 6.97 131.94 0.17
5/16/2023 11:30:00 AM 15.29 59.522 0.099 6.97 141.68 0.17
5/16/2023 11:45:00 AM 15.45 59.81 0.096 7.06 163.51 0.16
5/16/2023 12:00:00 PM 15.67 60.206 0.094 6.95 128.27 0.21
5/16/2023 12:15:00 PM 15.9 60.62 0.092 6.96 85.25 0.23
5/16/2023 12:30:00 PM 16.12 61.016 0.084 6.98 127 0.25
5/16/2023 12:45:00 PM 16.37 61.466 0.085 6.95 136.15 0.26
5/16/2023 1:00:00 PM 16.64 61.952 0.082 6.96 94.08 0.27
5/16/2023 1:15:00 PM 16.87 62.366 0.084 6.97 98.15 0.26
5/16/2023 1:30:00 PM 17.1 62.78 0.09 6.97 125.27 0.26
5/16/2023 1:45:00 PM 17.28 63.104 0.095 7.04 191.42 0.24
5/16/2023 2:00:00 PM 17.47 63.446 0.083 7.01 178.57 0.25
5/16/2023 2:15:00 PM 17.67 63.806 0.079 6.99 163.47 0.25
5/16/2023 2:30:00 PM 17.9 64.22 0.08 6.89 133.03 0.26
5/16/2023 2:45:00 PM 18.09 64.562 0.085 6.97 130.25 0.21
5/16/2023 3:00:00 PM 18.28 64.904 0.082 7 127.59 0.19
5/16/2023 3:15:00 PM 18.47 65.246 0.082 7.05 182.26 0.21
5/16/2023 3:30:00 PM 18.67 65.606 0.08 6.99 122.24 0.2
5/16/2023 3:45:00 PM 18.83 65.894 0.077 6.83 168.11 0.22
5/16/2023 4:00:00 PM 18.98 66.164 0.078 6.96 167.15 0.2
5/16/2023 4:15:00 PM 19.13 66.434 0.078 6.94 881.98 0.2
5/16/2023 4:30:00 PM 19.25 66.65 0.084 6.98 461.59 0.17
5/16/2023 4:45:00 PM 19.33 66.794 0.08 6.97 217.08 0.22
5/16/2023 5:00:00 PM 19.47 67.046 0.081 7.01 187.15 0.17
5/16/2023 5:15:00 PM 19.48 67.064 0.082 7.08 299.29 0.24
5/16/2023 5:30:00 PM 19.51 67.118 0.089 6.97 171.65 0.27
5/16/2023 5:45:00 PM 19.64 67.352 0.093 6.91 80.7 0.11
5/16/2023 6:00:00 PM 19.64 67.352 0.095 6.82 108.35 0.2
5/16/2023 6:15:00 PM 19.62 67.316 0.094 6.96 91.29 0.39
5/16/2023 6:30:00 PM 19.57 67.226 0.106 6.97 155.16 0.32
5/16/2023 6:45:00 PM 19.47 67.046 0.098 6.97 124.33 0.43
5/16/2023 7:00:00 PM 19.42 66.956 0.106 6.92 197.09 0.47
5/16/2023 7:15:00 PM 19.36 66.848 0.098 7.01 106.64 0.59
5/16/2023 7:30:00 PM 19.29 66.722 0.102 6.97 100.41 0.57
5/16/2023 7:45:00 PM 19.21 66.578 0.108 6.96 59.7 0.24
5/16/2023 8:00:00 PM 19.11 66.398 0.108 7.01 73.79 0.15
5/16/2023 8:15:00 PM 18.99 66.182 0.114 7.03 73.03 0.27
5/16/2023 8:30:00 PM 18.85 65.93 0.116 6.94 125.35 0.23
5/16/2023 8:45:00 PM 18.71 65.67799 0.108 7 105.76 0.22
5/16/2023 9:00:00 PM 18.57 65.426 0.108 6.97 161.57 0.09
5/16/2023 9:15:00 PM 18.44 65.192 0.106 6.98 108.51 0.13
5/16/2023 9:30:00 PM 18.31 64.958 0.105 6.99 121.67 0.1
5/16/2023 9:45:00 PM 18.18 64.724 0.107 7.08 88.87 0.16
5/16/2023 10:00:00 PM 18.07 64.526 0.103 7.03 141.49 0.13
5/16/2023 10:15:00 PM 17.94 64.292 0.104 7.07 93.25 0.16
5/16/2023 10:30:00 PM 17.83 64.094 0.099 7.03 130.27 0.22
5/16/2023 10:45:00 PM 17.72 63.896 0.101 7.12 132.86 0.25
5/16/2023 11:00:00 PM 17.6 63.68 0.104 7.13 133.09 0.23
5/16/2023 11:15:00 PM 17.49 63.482 0.098 7.33 137.34 0.15
5/16/2023 11:30:00 PM 17.37 63.266 0.103 7.15 121.56 0.12
5/16/2023 11:45:00 PM 17.27 63.086 0.101 7.14 112.47 0.14
5/17/2023 12:00:00 AM 17.16 62.888 0.103 7.04 118.71 0.13
5/17/2023 12:15:00 AM 17.06 62.708 0.105 7.01 136.32 0.14
5/17/2023 12:30:00 AM 16.96 62.528 0.111 7.08 128.96 0.1
5/17/2023 12:45:00 AM 16.86 62.348 0.106 7.06 103.09 0.1
5/17/2023 1:00:00 AM 16.76 62.168 0.106 7.04 121.63 0.11
5/17/2023 1:15:00 AM 16.64 61.952 0.11 7.08 142.65 0.11
5/17/2023 1:30:00 AM 16.54 61.772 0.109 7.02 146.32 0.1
5/17/2023 1:45:00 AM 16.41 61.538 0.115 7.08 169.92 0.11
5/17/2023 2:00:00 AM 16.29 61.322 0.117 6.97 134.61 0.13
5/17/2023 2:15:00 AM 16.16 61.088 0.114 7.06 128.05 0.07
5/17/2023 2:30:00 AM 16.02 60.836 0.115 7.05 152.99 0.05
5/17/2023 2:45:00 AM 15.89 60.602 0.114 6.89 80.89 0.05
5/17/2023 3:00:00 AM 15.74 60.332 0.103 6.84 125.39 0.05
5/17/2023 3:15:00 AM 15.63 60.134 0.102 6.87 107.19 0.05
5/17/2023 3:30:00 AM 15.52 59.936 0.101 6.92 120.31 0.05
5/17/2023 3:45:00 AM 15.4 59.72 0.1 6.98 114.02 0.06
5/17/2023 4:00:00 AM 15.29 59.522 0.099 6.92 102.75 0.05
5/17/2023 4:15:00 AM 15.18 59.324 0.098 6.95 96.25 0.05
5/17/2023 4:30:00 AM 15.1 59.18 0.08 6.77 80.3 0.05
5/17/2023 4:45:00 AM 15 59 0.09 6.92 79.77 0.06
5/17/2023 5:00:00 AM 14.89 58.802 0.091 6.99 92.11 0.08
5/17/2023 5:15:00 AM 14.82 58.676 0.09 7.03 130.11 0.12
5/17/2023 5:30:00 AM 14.72 58.496 0.089 6.97 78.12 0.09
5/17/2023 5:45:00 AM 14.63 58.334 0.086 6.9 91.49 0.14
5/17/2023 6:00:00 AM 14.55 58.19 0.088 6.58 90.71 0.18
5/17/2023 6:15:00 AM 14.48 58.064 0.104 6.77 99.33 0.2
5/17/2023 6:30:00 AM 14.43 57.974 0.11 6.85 74.1 0.23
5/17/2023 6:45:00 AM 14.35 57.83 0.111 6.9 90.01 0.24
5/17/2023 7:00:00 AM 14.26 57.668 0.107 6.92 88.8 0.22
5/17/2023 7:15:00 AM 14.15 57.47 0.099 6.76 112.98 0.26
5/17/2023 7:30:00 AM 14.09 57.362 0.098 6.87 122.98 0.26
5/17/2023 7:45:00 AM 14.04 57.272 0.099 6.96 76.34 0.21
5/17/2023 8:00:00 AM 13.96 57.128 0.093 6.84 76.07 0.24
5/17/2023 8:15:00 AM 13.89 57.002 0.102 6.86 81.02 0.19
5/17/2023 8:30:00 AM 13.82 56.876 0.101 6.88 84.59 0.2
5/17/2023 8:45:00 AM 13.77 56.786 0.102 6.8 120.67 0.22
5/17/2023 9:00:00 AM 13.72 56.696 0.107 6.9 68.66 0.21
5/17/2023 9:15:00 AM 13.69 56.642 0.111 6.82 80.94 0.19
5/17/2023 9:30:00 AM 13.66 56.588 0.119 6.77 86.15 0.21
5/17/2023 9:45:00 AM 13.63 56.534 0.12 6.87 86.13 0.24
5/17/2023 10:00:00 AM 13.64 56.552 0.123 6.84 96.28 0.25
5/17/2023 10:15:00 AM 13.67 56.606 0.118 6.91 91.79 0.23
5/17/2023 10:30:00 AM 13.72 56.696 0.128 6.99 100.5 0.22
5/17/2023 10:45:00 AM 13.8 56.84 0.143 6.95 128.67 0.17
5/17/2023 11:00:00 AM 13.89 57.002 0.136 6.93 121.17 0.11
5/17/2023 11:15:00 AM 14 57.2 0.13 6.78 112.1 0.06
5/17/2023 11:30:00 AM 14.11 57.398 0.138 6.88 126.27 0.06
5/17/2023 11:45:00 AM 14.22 57.596 0.147 6.91 124.34 0.07
5/17/2023 12:00:00 PM 14.35 57.83 0.146 6.87 126.79 0.07
5/17/2023 12:15:00 PM 14.49 58.082 0.151 6.92 60.43 0.06
5/17/2023 12:30:00 PM 14.68 58.424 0.153 6.91 44.62 0.06
5/17/2023 12:45:00 PM 14.94 58.892 0.154 6.92 79.38 0.06
5/17/2023 1:00:00 PM 15.1 59.18 0.172 6.93 59.51 0.06
5/17/2023 1:15:00 PM 15.25 59.45 0.171 6.93 62.29 0.06
5/17/2023 1:30:00 PM 15.46 59.828 0.168 6.89 57.94 0.07
5/17/2023 1:45:00 PM 15.67 60.206 0.165 6.9 53.16 0.08
5/17/2023 2:00:00 PM 15.88 60.584 0.173 6.91 62.45 0.07
5/17/2023 2:15:00 PM 16.09 60.962 0.18 7.07 472.26 0.06
5/17/2023 2:30:00 PM 16.31 61.358 0.175 6.93 46.62 0.06
5/17/2023 2:45:00 PM 16.5 61.7 0.186 6.92 42.54 0.07
5/17/2023 3:00:00 PM 16.68 62.024 0.169 6.96 74.47 0.09
5/17/2023 3:15:00 PM 16.88 62.384 0.202 6.99 63.35 0.09
5/17/2023 3:30:00 PM 17.05 62.69 0.197 6.94 100.69 0.08
5/17/2023 3:45:00 PM 17.17 62.906 0.193 6.89 78.89 0.07
5/17/2023 4:00:00 PM 17.28 63.104 0.184 6.84 55.68 0.09
5/17/2023 4:15:00 PM 17.39 63.302 0.169 6.92 77.16 0.1
5/17/2023 4:30:00 PM 17.46 63.428 0.178 6.96 85.81 0.11
5/17/2023 4:45:00 PM 17.59 63.662 0.16 6.85 48.08 0.11
5/17/2023 5:00:00 PM 17.6 63.68 0.17 6.86 125.54 0.12
5/17/2023 5:15:00 PM 17.62 63.716 0.192 6.83 95.56 0.11
5/17/2023 5:30:00 PM 17.63 63.734 0.207 6.83 165.48 0.11
5/17/2023 5:45:00 PM 17.64 63.752 0.194 6.83 129.56 0.09
5/17/2023 6:00:00 PM 17.63 63.734 0.174 6.81 160.95 0.09
5/17/2023 6:15:00 PM 17.63 63.734 0.183 6.87 245.67 0.11
5/17/2023 6:30:00 PM 17.61 63.698 0.188 6.73 316.97 0.09
5/17/2023 6:45:00 PM 17.58 63.644 0.181 6.83 212.67 0.08
5/17/2023 7:00:00 PM 17.53 63.554 0.16 6.92 101.33 0.09
5/17/2023 7:15:00 PM 17.44 63.392 0.16 6.92 93.64 0.07
5/17/2023 7:30:00 PM 17.33 63.194 0.161 6.69 73.82 0.07
5/17/2023 7:45:00 PM 17.18 62.924 0.16 6.87 61.45 0.07
5/17/2023 8:00:00 PM 17 62.6 0.141 6.56 58.56 0.09
5/17/2023 8:15:00 PM 16.8 62.24 0.138 6.63 60.32 0.09
5/17/2023 8:30:00 PM 16.61 61.898 0.156 6.58 57.07 0.09
5/17/2023 8:45:00 PM 16.4 61.52 0.13 6.6 95.57 0.07
5/17/2023 9:00:00 PM 16.21 61.178 0.13 6.65 82.41 0.06
5/17/2023 9:15:00 PM 16.02 60.836 0.144 6.72 104.89 0.07
5/17/2023 9:30:00 PM 15.83 60.494 0.137 6.54 55.48 0.07
5/17/2023 9:45:00 PM 15.64 60.152 0.136 6.74 57.13 0.05
5/17/2023 10:00:00 PM 15.46 59.828 0.135 6.75 55.75 0.05
5/17/2023 10:15:00 PM 15.27 59.486 0.133 6.78 114.29 0.05
5/17/2023 10:30:00 PM 15.12 59.216 0.126 6.76 77.75 0.05
5/17/2023 10:45:00 PM 14.97 58.946 0.127 6.94 545.45 0.05
5/17/2023 11:00:00 PM 14.84 58.712 0.137 6.71 157.76 0.05
5/17/2023 11:15:00 PM 14.71 58.478 0.14 6.75 83.19 0.05
5/17/2023 11:30:00 PM 14.61 58.298 0.147 6.86 87.98 0.05
5/17/2023 11:45:00 PM 14.53 58.154 0.155 6.8 98.65 0.05
5/18/2023 12:00:00 AM 14.45 58.01 0.141 6.6 73.5 0.05
5/18/2023 12:15:00 AM 14.35 57.83 0.136 6.71 89.31 0.05
5/18/2023 12:30:00 AM 14.28 57.704 0.139 6.7 103.01 0.05
5/18/2023 12:45:00 AM 14.21 57.578 0.14 6.73 81.93 0.05
5/18/2023 1:00:00 AM 14.14 57.452 0.146 6.67 76.13 0.05
5/18/2023 1:15:00 AM 14.06 57.308 0.145 6.69 79.85 0.05
5/18/2023 1:30:00 AM 13.97 57.146 0.138 6.68 66.94 0.05
5/18/2023 1:45:00 AM 13.87 56.966 0.138 6.75 77.11 0.05
5/18/2023 2:00:00 AM 13.8 56.84 0.134 6.6 102.08 0.05
5/18/2023 2:15:00 AM 13.72 56.696 0.14 6.53 90.45 0.05
5/18/2023 2:30:00 AM 13.63 56.534 0.189 6.53 79.65 0.05
5/18/2023 2:45:00 AM 13.58 56.444 0.148 6.65 69.26 0.05
5/18/2023 3:00:00 AM 13.46 56.228 0.164 6.67 87.68 0.05
5/18/2023 3:15:00 AM 13.37 56.066 0.179 6.72 101.2 0.05
5/18/2023 3:30:00 AM 13.28 55.904 0.213 6.64 87.3 0.05
5/18/2023 3:45:00 AM 13.22 55.796 0.199 6.73 75.04 0.05
5/18/2023 4:00:00 AM 13.14 55.652 0.178 6.71 82.68 0.05
5/18/2023 4:15:00 AM 13.06 55.508 0.149 6.68 96.51 0.05
5/18/2023 4:30:00 AM 12.98 55.364 0.156 6.75 84.01 0.05
5/18/2023 4:45:00 AM 12.89 55.202 0.152 6.71 82.99 0.05
5/18/2023 5:00:00 AM 12.82 55.076 0.169 6.68 89.63 0.05
5/18/2023 5:15:00 AM 12.74 54.932 0.156 6.63 99.72 0.05
5/18/2023 5:30:00 AM 12.7 54.86 0.145 6.73 108.91 0.05
5/18/2023 5:45:00 AM 12.62 54.716 0.136 6.76 75.07 0.05
5/18/2023 6:00:00 AM 12.58 54.644 0.148 6.78 168.89 0.05
5/18/2023 6:15:00 AM 12.52 54.536 0.132 6.89 80.06 0.05
5/18/2023 6:30:00 AM 12.46 54.428 0.13 6.69 85.29 0.05
5/18/2023 6:45:00 AM 12.43 54.374 0.129 6.73 84.85 0.05
5/18/2023 7:00:00 AM 12.33 54.194 0.129 6.58 88.47 0.05
5/18/2023 7:15:00 AM 12.28 54.104 0.142 6.81 44.49 0.05
5/18/2023 7:30:00 AM 12.25 54.05 0.134 6.77 626.54 0.05
5/18/2023 7:45:00 AM 12.2 53.96 0.172 6.92 953.8 0.05
5/18/2023 8:00:00 AM 12.13 53.834 0.174 6.76 342.98 0.05
5/18/2023 8:15:00 AM 12.07 53.726 0.158 6.62 485.34 0.05
5/18/2023 8:30:00 AM 12.02 53.636 0.157 6.85 611.01 0.05
5/18/2023 8:45:00 AM 11.99 53.582 0.168 6.84 351.37 0.05
5/18/2023 9:00:00 AM 11.97 53.546 0.17 6.66 760.02 0.05
5/18/2023 9:15:00 AM 11.99 53.582 0.206 6.86 535.44 0.05
5/18/2023 9:30:00 AM 12.03 53.654 0.224 6.48 390.54 0.05
5/18/2023 9:45:00 AM 12.08 53.744 0.215 6.75 629.42 0.05
5/18/2023 10:00:00 AM 12.13 53.834 0.208 6.78 318.07 0.05
5/18/2023 10:15:00 AM 12.2 53.96 0.233 6.77 314.94 0.05
5/18/2023 10:30:00 AM 12.3 54.14 0.263 6.86 136.06 0.05
5/18/2023 10:45:00 AM 12.4 54.32 0.239 6.82 102.68 0.05
5/18/2023 11:00:00 AM 12.5 54.5 0.224 6.86 114.03 0.05
5/18/2023 11:15:00 AM 12.61 54.698 0.215 6.81 256.56 0.05
5/18/2023 11:30:00 AM 12.71 54.878 0.221 6.82 174.81 0.05
5/18/2023 11:45:00 AM 12.83 55.094 0.239 6.8 291.7 0.05
5/18/2023 12:00:00 PM 13.01 55.418 0.275 6.83 253.11 0.05
5/18/2023 12:15:00 PM 13.22 55.796 0.236 6.81 211.76 0.05
5/18/2023 12:30:00 PM 13.42 56.156 0.323 6.91 169.09 0.05
5/18/2023 12:45:00 PM 13.64 56.552 0.265 6.7 127.11 0.05
5/18/2023 1:00:00 PM 13.86 56.948 0.238 6.65 274.34 0.05
5/18/2023 1:15:00 PM 14.1 57.38 0.276 6.76 264.79 0.05
5/18/2023 1:30:00 PM 14.37 57.866 0.304 6.78 113.27 0.05
5/18/2023 1:45:00 PM 14.59 58.262 0.304 6.4 73.92 0.05
5/18/2023 2:00:00 PM 14.86 58.748 0.42 6.74 225.13 0.05
5/18/2023 2:15:00 PM 15.19 59.342 0.338 6.67 82.49 0.05
5/18/2023 2:30:00 PM 15.57 60.026 0.211 6.59 87.33 0.05
5/18/2023 2:45:00 PM 15.65 60.17 0.229 6.82 38.53 0.05
5/18/2023 3:00:00 PM 15.88 60.584 0.328 6.76 63.55 0.05
5/18/2023 3:15:00 PM 16.13 61.034 0.295 6.6 43.12 0.05
5/18/2023 3:30:00 PM 16.39 61.502 0.237 6.51 56.44 0.05
5/18/2023 3:45:00 PM 16.65 61.97 0.274 6.67 79.31 0.04
5/18/2023 4:00:00 PM 16.83 62.294 0.241 6.66 23.2 0.04
5/18/2023 4:15:00 PM 17.03 62.654 0.253 6.77 17.79 0.04
5/18/2023 4:30:00 PM 17.22 62.996 0.329 6.81 44.97 0.04
5/18/2023 4:45:00 PM 17.39 63.302 0.325 6.83 64.24 0.04
5/18/2023 5:00:00 PM 17.58 63.644 0.265 6.86 43.06 0.04
5/18/2023 5:15:00 PM 17.75 63.95 0.212 6.72 61.05 0.04
5/18/2023 5:30:00 PM 17.93 64.274 0.26 6.82 70.58 0.04
5/18/2023 5:45:00 PM 18.03 64.454 0.244 6.59 166.6 0.04
5/18/2023 6:00:00 PM 18.14 64.652 0.231 6.77 253.64 0.04
5/18/2023 6:15:00 PM 18.27 64.886 0.279 6.68 210.23 0.05
5/18/2023 6:30:00 PM 18.42 65.156 0.248 6.47 46.14 0.05
5/18/2023 6:45:00 PM 18.44 65.192 0.235 6.7 48.09 0.06
5/18/2023 7:00:00 PM 18.43 65.174 0.224 6.59 53.18 0.06
5/18/2023 7:15:00 PM 18.46 65.228 0.245 6.86 95.26 0.06
5/18/2023 7:30:00 PM 18.53 65.354 0.288 6.87 76.34 0.06
5/18/2023 7:45:00 PM 18.53 65.354 0.289 6.78 65.64 0.07
5/18/2023 8:00:00 PM 18.52 65.336 0.223 7.02 169.22 0.07
5/18/2023 8:15:00 PM 18.5 65.3 0.221 6.69 61.21 0.07
5/18/2023 8:30:00 PM 18.43 65.174 0.214 6.89 73.52 0.07
5/18/2023 8:45:00 PM 18.35 65.03 0.214 6.88 77.43 0.07
5/18/2023 9:00:00 PM 18.24 64.832 0.213 6.9 310.36 0.07
5/18/2023 9:15:00 PM 18.1 64.58 0.226 7.01 41.13 0.06
5/18/2023 9:30:00 PM 17.95 64.31 0.217 6.99 35.15 0.06
5/18/2023 9:45:00 PM 17.76 63.968 0.205 6.92 18.7 0.06
5/18/2023 10:00:00 PM 17.58 63.644 0.234 7.01 17.54 0.06
5/18/2023 10:15:00 PM 17.38 63.284 0.206 7.02 19.57 0.06
5/18/2023 10:30:00 PM 17.18 62.924 0.207 7.09 11.13 0.06
5/18/2023 10:45:00 PM 16.99 62.582 0.211 6.98 309.18 0.05
5/18/2023 11:00:00 PM 16.82 62.276 0.211 7.06 192.81 0.05
5/18/2023 11:15:00 PM 16.6 61.88 0.208 7.02 70.76 0.05
5/18/2023 11:30:00 PM 16.42 61.556 0.2 7.09 35.63 0.05
5/18/2023 11:45:00 PM 16.25 61.25 0.202 7.1 41.13 0.05
5/19/2023 12:00:00 AM 16.06 60.908 0.2 7 39.5 0.05
5/19/2023 12:15:00 AM 15.92 60.656 0.213 7.07 48.44 0.04
5/19/2023 12:30:00 AM 15.79 60.422 0.223 7.01 33.01 0.04
5/19/2023 12:45:00 AM 15.62 60.116 0.228 7.05 42.62 0.04
5/19/2023 1:00:00 AM 15.49 59.882 0.224 6.97 44.63 0.04
5/19/2023 1:15:00 AM 15.34 59.612 0.196 7.07 55.73 0.04
5/19/2023 1:30:00 AM 15.19 59.342 0.187 7.12 65.35 0.04
5/19/2023 1:45:00 AM 15.07 59.126 0.196 7.12 53.66 0.04
5/19/2023 2:00:00 AM 14.89 58.802 0.244 7.07 43.11 0.04
5/19/2023 2:15:00 AM 14.79 58.622 0.224 7.12 86.27 0.04
5/19/2023 2:30:00 AM 14.69 58.442 0.212 7.1 112.87 0.04
5/19/2023 2:45:00 AM 14.56 58.208 0.251 7.02 94.92 0.04
5/19/2023 3:00:00 AM 14.43 57.974 0.248 7.01 47.36 0.04
5/19/2023 3:15:00 AM 14.33 57.794 0.229 7.06 71.63 0.04
5/19/2023 3:30:00 AM 14.24 57.632 0.227 7.23 50.55 0.04
5/19/2023 3:45:00 AM 14.13 57.434 0.213 7.15 52.25 0.04
5/19/2023 4:00:00 AM 14.02 57.236 0.233 7.02 32.59 0.04
5/19/2023 4:15:00 AM 13.93 57.074 0.24 7.07 33.76 0.04
5/19/2023 4:30:00 AM 13.83 56.894 0.237 7.11 40.36 0.04
5/19/2023 4:45:00 AM 13.76 56.768 0.211 7.08 41.3 0.04
5/19/2023 5:00:00 AM 13.69 56.642 0.215 7 39.14 0.04
5/19/2023 5:15:00 AM 13.61 56.498 0.202 7.03 66.36 0.04
5/19/2023 5:30:00 AM 13.55 56.39 0.195 6.97 59.77 0.04
5/19/2023 5:45:00 AM 13.47 56.246 0.204 7.09 78.49 0.04
5/19/2023 6:00:00 AM 13.41 56.138 0.208 6.94 147.39 0.04
5/19/2023 6:15:00 AM 13.35 56.03 0.203 7.09 127.58 0.04
5/19/2023 6:30:00 AM 13.28 55.904 0.574 7.05 67.06 0.04
5/19/2023 6:45:00 AM 13.23 55.814 0.201 6.78 153.6 0.04
5/19/2023 7:00:00 AM 13.15 55.67 0.197 6.88 128.45 0.05
5/19/2023 7:15:00 AM 13.08 55.544 0.204 7.01 182 0.04
5/19/2023 7:30:00 AM 13.02 55.436 0.384 7.01 169.62 0.04
5/19/2023 7:45:00 AM 12.98 55.364 0.381 7.02 268.87 0.05
5/19/2023 8:00:00 AM 12.97 55.346 0.215 7.03 96.85 0.04
5/19/2023 8:15:00 AM 12.94 55.292 0.24 7.14 88.7 0.05
5/19/2023 8:30:00 AM 12.92 55.256 0.258 7.1 167.07 0.05
5/19/2023 8:45:00 AM 12.91 55.238 0.214 6.97 101.5 0.05
5/19/2023 9:00:00 AM 12.89 55.202 0.205 7.02 164.63 0.05
5/19/2023 9:15:00 AM 12.9 55.22 0.239 7.05 135.59 0.05
5/19/2023 9:30:00 AM 12.91 55.238 0.21 6.99 113.96 0.05
5/19/2023 9:45:00 AM 12.94 55.292 0.209 7.09 134.09 0.05
5/19/2023 10:00:00 AM 12.96 55.328 0.219 7.11 136.35 0.05
5/19/2023 10:15:00 AM 13 55.4 0.197 7.08 155.59 0.05
5/19/2023 10:30:00 AM 13.05 55.49 0.193 6.96 108.25 0.05
5/19/2023 10:45:00 AM 13.12 55.616 0.228 6.48 142.62 0.05
5/19/2023 11:00:00 AM 13.18 55.724 0.232 6.91 77.47 0.05
5/19/2023 11:15:00 AM 13.26 55.868 0.194 7.05 72.49 0.05
5/19/2023 11:30:00 AM 13.34 56.012 0.248 7.07 125.14 0.05
5/19/2023 11:45:00 AM 13.42 56.156 0.25 7.09 169.43 0.05
5/19/2023 12:00:00 PM 13.52 56.336 0.238 7.03 155.61 0.05
5/19/2023 12:15:00 PM 13.62 56.516 0.237 6.26 173.23 0.05
5/19/2023 12:30:00 PM 13.73 56.714 0.233 6.86 148.46 0.05
5/19/2023 12:45:00 PM 13.83 56.894 0.247 7.02 205.88 0.05
5/19/2023 1:00:00 PM 13.92 57.056 0.189 7.02 161.67 0.05
5/19/2023 1:15:00 PM 14.05 57.29 0.175 6.9 321.02 0.05
5/19/2023 1:30:00 PM 14.16 57.488 0.196 6.89 323.35 0.05
5/19/2023 1:45:00 PM 14.29 57.722 0.343 7.02 118.78 0.05
5/19/2023 2:00:00 PM 14.43 57.974 0.179 7 357.65 0.05
5/19/2023 2:15:00 PM 14.6 58.28 0.197 7.06 538.67 0.05
5/19/2023 2:30:00 PM 14.77 58.586 0.197 6.88 95.67 0.05
5/19/2023 2:45:00 PM 14.93 58.874 0.213 6.91 141.15 0.04
5/19/2023 3:00:00 PM 15.1 59.18 0.193 6.94 241.9 0.05
5/19/2023 3:15:00 PM 15.27 59.486 0.201 7.03 171.96 0.04
5/19/2023 3:30:00 PM 15.45 59.81 0.207 6.93 770.44 0.05
5/19/2023 3:45:00 PM 15.65 60.17 0.217 7.03 167.5 0.05
5/19/2023 4:00:00 PM 15.83 60.494 0.234 6.99 611.42 0.04
5/19/2023 4:15:00 PM 16 60.8 0.289 6.99 172.96 0.04
5/19/2023 4:30:00 PM 16.15 61.07 0.225 6.96 122.48 0.04
5/19/2023 4:45:00 PM 16.29 61.322 0.282 6.91 62.78 0.04
5/19/2023 5:00:00 PM 16.43 61.574 0.258 6.95 59.71 0.04
5/19/2023 5:15:00 PM 16.57 61.826 0.278 7 56.13 0.04
5/19/2023 5:30:00 PM 16.72 62.096 0.245 7 135.37 0.04
5/19/2023 5:45:00 PM 16.87 62.366 0.285 7.03 126.37 0.04
5/19/2023 6:00:00 PM 17.02 62.636 0.265 6.64 117.7 0.04
5/19/2023 6:15:00 PM 17.16 62.888 0.257 7.01 282.59 0.04
5/19/2023 6:30:00 PM 17.26 63.068 0.29 6.94 182.31 0.04
5/19/2023 6:45:00 PM 17.39 63.302 0.305 6.95 98.88 0.04
5/19/2023 7:00:00 PM 17.52 63.536 0.299 6.87 83.28 0.04
5/19/2023 7:15:00 PM 17.64 63.752 0.31 6.88 62.36 0.04
5/19/2023 7:30:00 PM 17.73 63.914 0.326 6.98 81.96 0.04
5/19/2023 7:45:00 PM 17.79 64.022 0.289 6.92 117.84 0.04
5/19/2023 8:00:00 PM 17.85 64.13 0.285 7.09 78.94 0.05
5/19/2023 8:15:00 PM 17.87 64.166 0.26 6.87 68.96 0.05
5/19/2023 8:30:00 PM 17.87 64.166 0.23 6.92 54.91 0.05
5/19/2023 8:45:00 PM 17.81 64.058 0.235 6.85 67.05 0.05
5/19/2023 9:00:00 PM 17.76 63.968 0.241 6.86 470.96 0.05
5/19/2023 9:15:00 PM 17.71 63.878 0.248 6.67 364.62 0.05
5/19/2023 9:30:00 PM 17.63 63.734 0.196 6.77 439.63 0.05
5/19/2023 9:45:00 PM 17.54 63.572 0.239 6.82 767.04 0.05
5/19/2023 10:00:00 PM 17.44 63.392 0.221 6.84 177.51 0.05
5/19/2023 10:15:00 PM 17.32 63.176 0.255 6.82 73.62 0.05
5/19/2023 10:30:00 PM 17.19 62.942 0.274 6.78 81.49 0.05
5/19/2023 10:45:00 PM 17.06 62.708 0.237 6.83 84.71 0.05
5/19/2023 11:00:00 PM 16.93 62.474 0.234 6.85 95.73 0.05
5/19/2023 11:15:00 PM 16.79 62.222 0.374 6.96 96.37 0.04
5/19/2023 11:30:00 PM 16.66 61.988 0.316 6.84 230.21 0.04
5/19/2023 11:45:00 PM 16.53 61.754 0.251 6.85 103.76 0.04
5/20/2023 12:00:00 AM 16.42 61.556 0.245 6.74 97.55 0.04
5/20/2023 12:15:00 AM 16.31 61.358 0.25 6.74 120.13 0.04
5/20/2023 12:30:00 AM 16.21 61.178 0.254 6.53 80.66 0.04
5/20/2023 12:45:00 AM 16.09 60.962 0.252 6.77 86.03 0.04
5/20/2023 1:00:00 AM 15.98 60.764 0.262 6.68 78.52 0.04
5/20/2023 1:15:00 AM 15.87 60.566 0.262 6.7 105.7 0.04
5/20/2023 1:30:00 AM 15.76 60.368 0.233 6.76 85.31 0.04
5/20/2023 1:45:00 AM 15.67 60.206 0.24 7.02 82.81 0.04
5/20/2023 2:00:00 AM 15.56 60.008 0.238 6.8 93.93 0.04
5/20/2023 2:15:00 AM 15.46 59.828 0.236 6.74 97.35 0.04
5/20/2023 2:30:00 AM 15.37 59.666 0.225 6.71 216.65 0.04
5/20/2023 2:45:00 AM 15.28 59.504 0.23 6.75 123.15 0.04
5/20/2023 3:00:00 AM 15.18 59.324 0.234 6.76 139.76 0.04
5/20/2023 3:15:00 AM 15.09 59.162 0.228 6.71 121.13 0.04
5/20/2023 3:30:00 AM 15.01 59.018 0.229 6.36 239.67 0.04
5/20/2023 3:45:00 AM 14.92 58.856 0.226 6.63 127.11 0.04
5/20/2023 4:00:00 AM 14.84 58.712 0.224 6.82 119.31 0.04
5/20/2023 4:15:00 AM 14.77 58.586 0.227 6.56 117.21 0.04
5/20/2023 4:30:00 AM 14.71 58.478 0.217 5.85 154.87 0.04
5/20/2023 4:45:00 AM 14.65 58.37 0.215 6.37 172.69 0.04
5/20/2023 5:00:00 AM 14.59 58.262 0.214 6.76 113.32 0.04
5/20/2023 5:15:00 AM 14.54 58.172 0.206 6.05 88.66 0.04
5/20/2023 5:30:00 AM 14.49 58.082 0.199 6.89 111.01 0.04
5/20/2023 5:45:00 AM 14.45 58.01 0.187 6.09 124.94 0.04
5/20/2023 6:00:00 AM 14.42 57.956 0.189 6.24 125.74 0.04
5/20/2023 6:15:00 AM 14.37 57.866 0.185 6.69 110.98 0.04
5/20/2023 6:30:00 AM 14.32 57.776 0.183 6.82 111.68 0.04
5/20/2023 6:45:00 AM 14.27 57.686 0.175 6.43 118.7 0.04
5/20/2023 7:00:00 AM 14.25 57.65 0.186 6.82 117.58 0.04
5/20/2023 7:15:00 AM 14.22 57.596 0.179 5.48 140.65 0.04
5/20/2023 7:30:00 AM 14.2 57.56 0.179 6.79 284.67 0.04
5/20/2023 7:45:00 AM 14.17 57.506 0.181 6.79 193.51 0.04
5/20/2023 8:00:00 AM 14.14 57.452 0.176 6.82 150 0.04
5/20/2023 8:15:00 AM 14.11 57.398 0.18 6.76 129.25 0.04
5/20/2023 8:30:00 AM 14.1 57.38 0.173 6.52 123.53 0.04
5/20/2023 8:45:00 AM 14.1 57.38 0.172 6.56 128.37 0.04
5/20/2023 9:00:00 AM 14.1 57.38 0.172 6.31 131.18 0.04
5/20/2023 9:15:00 AM 14.09 57.362 0.166 6.57 141.22 0.04
5/20/2023 9:30:00 AM 14.09 57.362 0.168 6.75 149.26 0.04
5/20/2023 9:45:00 AM 14.09 57.362 0.166 6.75 138.92 0.04
5/20/2023 10:00:00 AM 14.1 57.38 0.167 6.63 134.94 0.04
5/20/2023 10:15:00 AM 14.11 57.398 0.163 6.74 174.16 0.04
5/20/2023 10:30:00 AM 14.12 57.416 0.161 6.74 201.58 0.04
5/20/2023 10:45:00 AM 14.15 57.47 0.166 6.69 195.96 0.04
5/20/2023 11:00:00 AM 14.18 57.524 0.164 6.72 202.6 0.04
5/20/2023 11:15:00 AM 14.21 57.578 0.163 6.67 201.28 0.04
5/20/2023 11:30:00 AM 14.24 57.632 0.164 6.71 138.51 0.04
5/20/2023 11:45:00 AM 14.28 57.704 0.17 6.81 172.01 0.04
5/20/2023 12:00:00 PM 14.32 57.776 0.173 6.85 216.56 0.04
5/20/2023 12:15:00 PM 14.37 57.866 0.165 6.8 168.7 0.04
5/20/2023 12:30:00 PM 14.43 57.974 0.169 6.83 167.36 0.04
5/20/2023 12:45:00 PM 14.49 58.082 0.17 6.84 169.88 0.04
5/20/2023 1:00:00 PM 14.56 58.208 0.168 6.81 133.11 0.04
5/20/2023 1:15:00 PM 14.66 58.388 0.165 6.54 178.41 0.04
5/20/2023 1:30:00 PM 14.74 58.532 0.165 6.59 123.64 0.04
5/20/2023 1:45:00 PM 14.81 58.658 0.167 6.71 154.33 0.04
5/20/2023 2:00:00 PM 14.88 58.784 0.168 6.78 153.09 0.04
5/20/2023 2:15:00 PM 14.95 58.91 0.163 6.78 141.19 0.04
5/20/2023 2:30:00 PM 15.03 59.054 0.165 6.34 180.4 0.04
5/20/2023 2:45:00 PM 15.1 59.18 0.168 6.68 174.52 0.04
5/20/2023 3:00:00 PM 15.16 59.288 0.166 6.76 161.54 0.04
5/20/2023 3:15:00 PM 15.22 59.396 0.172 6.68 133.42 0.04
5/20/2023 3:30:00 PM 15.27 59.486 0.172 6.79 141.88 0.04
5/20/2023 3:45:00 PM 15.33 59.594 0.16 6.8 228.3 0.04
5/20/2023 4:00:00 PM 15.38 59.684 0.168 6.41 174.58 0.04
5/20/2023 4:15:00 PM 15.44 59.792 0.159 6.74 241.15 0.04
5/20/2023 4:30:00 PM 15.49 59.882 0.166 6.76 143.22 0.04
5/20/2023 4:45:00 PM 15.57 60.026 0.169 6.76 95.44 0.04
5/20/2023 5:00:00 PM 15.64 60.152 0.179 6.84 94.02 0.04
5/20/2023 5:15:00 PM 15.72 60.296 0.169 6.74 95.78 0.04
5/20/2023 5:30:00 PM 15.79 60.422 0.173 6.76 145.25 0.04
5/20/2023 5:45:00 PM 15.86 60.548 0.172 6.8 153.9 0.04
5/20/2023 6:00:00 PM 15.94 60.692 0.173 6.76 164.9 0.04
5/20/2023 6:15:00 PM 16 60.8 0.171 6.66 111.42 0.04
5/20/2023 6:30:00 PM 16.09 60.962 0.172 6.76 93.56 0.04
5/20/2023 6:45:00 PM 16.13 61.034 0.171 6.82 86.93 0.04
5/20/2023 7:00:00 PM 16.17 61.106 0.17 6.78 70.01 0.04
5/20/2023 7:15:00 PM 16.19 61.142 0.168 6.73 126.15 0.04
5/20/2023 7:30:00 PM 16.22 61.196 0.167 6.81 85.8 0.04
5/20/2023 7:45:00 PM 16.26 61.268 0.168 6.79 70.64 0.04
5/20/2023 8:00:00 PM 16.29 61.322 0.163 6.8 173.27 0.04
5/20/2023 8:15:00 PM 16.32 61.376 0.163 6.84 90.95 0.04
5/20/2023 8:30:00 PM 16.35 61.43 0.164 6.83 127.71 0.04
5/20/2023 8:45:00 PM 16.38 61.484 0.163 6.78 152.82 0.04
5/20/2023 9:00:00 PM 16.42 61.556 0.162 6.83 114.11 0.04
5/20/2023 9:15:00 PM 16.45 61.61 0.156 6.81 130.79 0.03
5/20/2023 9:30:00 PM 16.48 61.664 0.158 6.78 151.27 0.04
5/20/2023 9:45:00 PM 16.5 61.7 0.157 6.78 169.64 0.03
5/20/2023 10:00:00 PM 16.5 61.7 0.154 6.83 124.81 0.03
5/20/2023 10:15:00 PM 16.48 61.664 0.157 6.84 135.56 0.04
5/20/2023 10:30:00 PM 16.44 61.592 0.157 6.82 119.84 0.03
5/20/2023 10:45:00 PM 16.41 61.538 0.159 6.77 134.52 0.04
5/20/2023 11:00:00 PM 16.36 61.448 0.165 6.87 112.17 0.04
5/20/2023 11:15:00 PM 16.3 61.34 0.176 6.69 121.55 0.04
5/20/2023 11:30:00 PM 16.24 61.232 0.169 6.83 120.59 0.04
5/20/2023 11:45:00 PM 16.18 61.124 0.161 6.8 128.58 0.03
5/21/2023 12:00:00 AM 16.11 60.998 0.171 6.77 121.26 0.04
5/21/2023 12:15:00 AM 16.05 60.89 0.164 6.75 89.81 0.04
5/21/2023 12:30:00 AM 15.98 60.764 0.162 6.86 111.85 0.04
5/21/2023 12:45:00 AM 15.92 60.656 0.148 6.82 131.77 0.03
5/21/2023 1:00:00 AM 15.84 60.512 0.141 6.65 138.59 0.04
5/21/2023 1:15:00 AM 15.77 60.386 0.148 6.83 147.86 0.04
5/21/2023 1:30:00 AM 15.69 60.242 0.143 6.75 135.2 0.04
5/21/2023 1:45:00 AM 15.62 60.116 0.141 6.72 158.3 0.04
5/21/2023 2:00:00 AM 15.54 59.972 0.135 6.8 172.49 0.04
5/21/2023 2:15:00 AM 15.44 59.792 0.146 6.69 189.14 0.04
5/21/2023 2:30:00 AM 15.33 59.594 0.137 6.76 358.34 0.04
5/21/2023 2:45:00 AM 15.22 59.396 0.136 6.3 348.05 0.04
5/21/2023 3:00:00 AM 15.12 59.216 0.13 6.49 127.16 0.04
5/21/2023 3:15:00 AM 15.01 59.018 0.136 6.56 125.17 0.04
5/21/2023 3:30:00 AM 14.91 58.838 0.133 6.74 127.24 0.04
5/21/2023 3:45:00 AM 14.77 58.586 0.135 6.68 136.55 0.04
5/21/2023 4:00:00 AM 14.68 58.424 0.13 6.66 170.57 0.04
5/21/2023 4:15:00 AM 14.56 58.208 0.14 6.81 98.99 0.04
5/21/2023 4:30:00 AM 14.44 57.992 0.135 6.8 87.55 0.04
5/21/2023 4:45:00 AM 14.34 57.812 0.136 6.77 98.97 0.04
5/21/2023 5:00:00 AM 14.22 57.596 0.14 6.72 83.83 0.04
5/21/2023 5:15:00 AM 14.1 57.38 0.149 6.72 88.31 0.04
5/21/2023 5:30:00 AM 14 57.2 0.139 6.77 104.44 0.04
5/21/2023 5:45:00 AM 13.9 57.02 0.144 6.78 92.5 0.04
5/21/2023 6:00:00 AM 13.82 56.876 0.135 6.8 85.53 0.04
5/21/2023 6:15:00 AM 13.73 56.714 0.135 6.85 87.64 0.04
5/21/2023 6:30:00 AM 13.67 56.606 0.133 6.79 92.09 0.04
5/21/2023 6:45:00 AM 13.61 56.498 0.134 6.68 79.86 0.04
5/21/2023 7:00:00 AM 13.54 56.372 0.16 6.81 333.76 0.04
5/21/2023 7:15:00 AM 13.5 56.3 0.156 6.75 120.58 0.04
5/21/2023 7:30:00 AM 13.48 56.264 0.161 6.73 222.22 0.04
5/21/2023 7:45:00 AM 13.44 56.192 0.174 6.71 189.87 0.04
5/21/2023 8:00:00 AM 13.4 56.12 0.167 6.71 101.14 0.04
5/21/2023 8:15:00 AM 13.39 56.102 0.15 6.76 225.13 0.04
5/21/2023 8:30:00 AM 13.38 56.084 0.152 6.8 143.98 0.04
5/21/2023 8:45:00 AM 13.37 56.066 0.15 6.77 133.3 0.04
5/21/2023 9:00:00 AM 13.35 56.03 0.157 6.83 149.01 0.04
5/21/2023 9:15:00 AM 13.33 55.994 0.161 6.77 99.21 0.04
5/21/2023 9:30:00 AM 13.33 55.994 0.17 6.85 233.67 0.04
5/21/2023 9:45:00 AM 13.34 56.012 0.169 6.69 167.87 0.04
5/21/2023 10:00:00 AM 13.36 56.048 0.18 6.69 2002.95 0.04
5/21/2023 10:15:00 AM 13.39 56.102 0.169 6.66 1182.52 0.04
5/21/2023 10:30:00 AM 13.44 56.192 0.172 6.76 500.77 0.04
5/21/2023 10:45:00 AM 13.5 56.3 0.19 6.56 153.21 0.04
5/21/2023 11:00:00 AM 13.56 56.408 0.18 6.58 555.46 0.04
5/21/2023 11:15:00 AM 13.61 56.498 0.185 6.48 473.64 0.04
5/21/2023 11:30:00 AM 13.68 56.624 0.192 6.67 344.42 0.04
5/21/2023 11:45:00 AM 13.77 56.786 0.194 6.72 431.9 0.04
5/21/2023 12:00:00 PM 13.85 56.93 0.199 6.75 357.6 0.04
5/21/2023 12:15:00 PM 13.93 57.074 0.222 6.75 324.15 0.04
5/21/2023 12:30:00 PM 14.05 57.29 0.202 6.75 227.29 0.04
5/21/2023 12:45:00 PM 14.17 57.506 0.196 6.73 458.39 0.04
5/21/2023 1:00:00 PM 14.27 57.686 0.203 6.74 475.04 0.04
5/21/2023 1:15:00 PM 14.37 57.866 0.197 6.81 439.07 0.04
5/21/2023 1:30:00 PM 14.5 58.1 0.202 6.77 600.94 0.04
5/21/2023 1:45:00 PM 14.67 58.406 0.232 6.77 519.33 0.04
5/21/2023 2:00:00 PM 14.82 58.676 0.221 6.79 903.14 0.04
5/21/2023 2:15:00 PM 15 59 0.216 6.8 157.42 0.04
5/21/2023 2:30:00 PM 15.18 59.324 0.224 6.8 494.3 0.04
5/21/2023 2:45:00 PM 15.37 59.666 0.255 6.73 572.19 0.04
5/21/2023 3:00:00 PM 15.6 60.08 0.251 6.69 596.61 0.04
5/21/2023 3:15:00 PM 15.8 60.44 0.297 6.78 786.73 0.04
5/21/2023 3:30:00 PM 16.04 60.872 0.318 6.75 871.98 0.04
5/21/2023 3:45:00 PM 16.22 61.196 0.314 6.8 586.16 0.04
5/21/2023 4:00:00 PM 16.43 61.574 0.329 6.78 980.66 0.04
5/21/2023 4:15:00 PM 16.62 61.916 0.304 6.88 501.11 0.04
5/21/2023 4:30:00 PM 16.81 62.258 0.331 5.99 916.34 0.04
5/21/2023 4:45:00 PM 16.99 62.582 0.326 6.7 639.16 0.04
5/21/2023 5:00:00 PM 17.16 62.888 0.327 6.73 481.5 0.03
5/21/2023 5:15:00 PM 17.33 63.194 0.311 6.74 572.13 0.03
5/21/2023 5:30:00 PM 17.47 63.446 0.373 6.56 356.34 0.04
5/21/2023 5:45:00 PM 17.6 63.68 0.322 6.63 1201.28 0.04
5/21/2023 6:00:00 PM 17.73 63.914 0.592 6.78 691.97 0.04
5/21/2023 6:15:00 PM 17.83 64.094 0.456 6.77 1034.36 0.05
5/21/2023 6:30:00 PM 17.91 64.238 0.421 6.89 747.7 0.05
5/21/2023 6:45:00 PM 18.02 64.436 0.327 6.76 543.95 0.06
5/21/2023 7:00:00 PM 18.11 64.598 0.324 6.8 893.8 0.06
5/21/2023 7:15:00 PM 18.18 64.724 0.358 6.8 660.78 0.07
5/21/2023 7:30:00 PM 18.24 64.832 0.33 6.78 987.16 0.07
5/21/2023 7:45:00 PM 18.28 64.904 0.505 6.74 852.34 0.07
5/21/2023 8:00:00 PM 18.3 64.94 0.376 6.73 740.91 0.07
5/21/2023 8:15:00 PM 18.3 64.94 0.303 6.82 680.01 0.07
5/21/2023 8:30:00 PM 18.28 64.904 0.401 6.86 386.49 0.07
5/21/2023 8:45:00 PM 18.24 64.832 0.311 6.82 430.43 0.07
5/21/2023 9:00:00 PM 18.19 64.742 0.345 6.86 614.33 0.07
5/21/2023 9:15:00 PM 18.11 64.598 0.319 6.85 733.87 0.07
5/21/2023 9:30:00 PM 18.02 64.436 0.28 6.9 359.72 0.07
5/21/2023 9:45:00 PM 17.92 64.256 0.265 6.93 379.75 0.07
5/21/2023 10:00:00 PM 17.8 64.04 0.382 6.9 558.24 0.06
5/21/2023 10:15:00 PM 17.67 63.806 0.305 6.78 854.2 0.06
5/21/2023 10:30:00 PM 17.55 63.59 0.364 6.67 765.87 0.06
5/21/2023 10:45:00 PM 17.42 63.356 0.316 6.83 368.68 0.06
5/21/2023 11:00:00 PM 17.28 63.104 0.313 6.84 291.21 0.06
5/21/2023 11:15:00 PM 17.15 62.87 0.322 6.82 368.39 0.06
5/21/2023 11:30:00 PM 17.03 62.654 0.338 6.83 588.37 0.06
5/21/2023 11:45:00 PM 16.91 62.438 0.326 6.84 1077.78 0.06
5/22/2023 12:00:00 AM 16.8 62.24 0.309 6.82 591.14 0.06
5/22/2023 12:15:00 AM 16.71 62.078 0.309 6.93 927.77 0.05
5/22/2023 12:30:00 AM 16.6 61.88 0.3 6.82 755.5 0.05
5/22/2023 12:45:00 AM 16.49 61.682 0.304 6.92 690.49 0.05
5/22/2023 1:00:00 AM 16.39 61.502 0.314 6.94 108.2 0.05
5/22/2023 1:15:00 AM 16.29 61.322 0.298 6.85 135.46 0.05
5/22/2023 1:30:00 AM 16.17 61.106 0.329 6.87 134.42 0.05
5/22/2023 1:45:00 AM 16.09 60.962 0.295 6.9 218.51 0.04
5/22/2023 2:00:00 AM 16 60.8 0.265 6.88 326.97 0.05
5/22/2023 2:15:00 AM 15.9 60.62 0.276 6.73 154.32 0.04
5/22/2023 2:30:00 AM 15.8 60.44 0.282 6.96 293.32 0.04
5/22/2023 2:45:00 AM 15.72 60.296 0.277 6.89 243.84 0.04
5/22/2023 3:00:00 AM 15.63 60.134 0.267 6.96 373.6 0.04
5/22/2023 3:15:00 AM 15.52 59.936 0.271 6.91 430.49 0.04
5/22/2023 3:30:00 AM 15.43 59.774 0.271 6.92 415.53 0.04
5/22/2023 3:45:00 AM 15.37 59.666 0.253 6.9 625.89 0.04
5/22/2023 4:00:00 AM 15.29 59.522 0.26 6.94 497.51 0.04
5/22/2023 4:15:00 AM 15.19 59.342 0.251 6.82 364.29 0.04
5/22/2023 4:30:00 AM 15.12 59.216 0.25 6.92 416.42 0.04
5/22/2023 4:45:00 AM 15.04 59.072 0.252 6.9 217.64 0.04
5/22/2023 5:00:00 AM 14.95 58.91 0.238 6.8 188.6 0.04
5/22/2023 5:15:00 AM 14.91 58.838 0.247 6.58 274.54 0.04
5/22/2023 5:30:00 AM 14.84 58.712 0.235 6.84 273.09 0.04
5/22/2023 5:45:00 AM 14.75 58.55 0.237 6.64 503.06 0.04
5/22/2023 6:00:00 AM 14.73 58.514 0.234 6.83 316.56 0.04
5/22/2023 6:15:00 AM 14.66 58.388 0.236 6.92 411.66 0.04
5/22/2023 6:30:00 AM 14.58 58.244 0.237 6.91 542.51 0.04
5/22/2023 6:45:00 AM 14.55 58.19 0.237 6.85 371.68 0.04
5/22/2023 7:00:00 AM 14.47 58.046 0.248 6.97 261.39 0.04
5/22/2023 7:15:00 AM 14.44 57.992 0.252 6.93 298.64 0.04
5/22/2023 7:30:00 AM 14.39 57.902 0.252 6.93 498.28 0.04
5/22/2023 7:45:00 AM 14.35 57.83 0.266 7 717.18 0.04
5/22/2023 8:00:00 AM 14.31 57.758 0.258 6.97 852.82 0.04
5/22/2023 8:15:00 AM 14.26 57.668 0.268 7 928.33 0.04
5/22/2023 8:30:00 AM 14.22 57.596 0.247 6.42 715.92 0.04
5/22/2023 8:45:00 AM 14.2 57.56 0.242 6.81 701.03 0.04
5/22/2023 9:00:00 AM 14.18 57.524 0.239 6.9 951.92 0.04
5/22/2023 9:15:00 AM 14.18 57.524 0.246 6.97 1088.28 0.04
5/22/2023 9:30:00 AM 14.18 57.524 0.225 6.95 883.67 0.04
5/22/2023 9:45:00 AM 14.2 57.56 0.229 6.96 435.37 0.04
5/22/2023 10:00:00 AM 14.24 57.632 0.236 6.91 223 0.05
5/22/2023 10:15:00 AM 14.28 57.704 0.225 6.93 482.33 0.05
5/22/2023 10:30:00 AM 14.33 57.794 0.237 6.9 361.33 0.04
5/22/2023 10:45:00 AM 14.39 57.902 0.231 6.86 495.34 0.04
5/22/2023 11:00:00 AM 14.47 58.046 0.226 6.91 524.47 0.04
5/22/2023 11:15:00 AM 14.53 58.154 0.227 6.9 733.9 0.04
5/22/2023 11:30:00 AM 14.62 58.316 0.223 6.9 494.74 0.04
5/22/2023 11:45:00 AM 14.7 58.46 0.221 6.9 182.74 0.04
5/22/2023 12:00:00 PM 14.8 58.64 0.219 6.98 206.62 0.04
5/22/2023 12:15:00 PM 14.93 58.874 0.212 6.95 159.47 0.04
5/22/2023 12:30:00 PM 15.11 59.198 0.214 6.91 158.55 0.05
5/22/2023 12:45:00 PM 15.3 59.54 0.229 6.88 227.66 0.05
5/22/2023 1:00:00 PM 15.56 60.008 0.237 6.87 163.17 0.06
5/22/2023 1:15:00 PM 15.83 60.494 0.23 6.99 192.31 0.06
5/22/2023 1:30:00 PM 16.13 61.034 0.228 7.04 246.24 0.07
5/22/2023 1:45:00 PM 16.44 61.592 0.224 6.98 206.98 0.06
5/22/2023 2:00:00 PM 16.74 62.132 0.222 6.86 118.08 0.08
5/22/2023 2:15:00 PM 17.03 62.654 0.213 6.86 67.12 0.08
5/22/2023 2:30:00 PM 17.31 63.158 0.212 6.85 167.24 0.08
5/22/2023 2:45:00 PM 17.62 63.716 0.21 6.82 110.8 0.08
5/22/2023 3:00:00 PM 17.87 64.166 0.209 6.87 123.97 0.08
5/22/2023 3:15:00 PM 18.1 64.58 0.205 6.94 122.34 0.09
5/22/2023 3:30:00 PM 18.32 64.976 0.206 6.96 125 0.07
5/22/2023 3:45:00 PM 18.48 65.264 0.201 6.82 88.86 0.07
5/22/2023 4:00:00 PM 18.67 65.606 0.209 6.61 143.55 0.1
5/22/2023 4:15:00 PM 18.84 65.912 0.209 6.62 82.95 0.08
5/22/2023 4:30:00 PM 19.03 66.254 0.202 6.8 63.33 0.09
5/22/2023 4:45:00 PM 19.19 66.542 0.206 6.75 91.12 0.09
5/22/2023 5:00:00 PM 19.35 66.83 0.205 6.83 167.79 0.08
5/22/2023 5:15:00 PM 19.55 67.19 0.203 6.93 265.46 0.07
5/22/2023 5:30:00 PM 19.64 67.352 0.203 6.94 102.89 0.07
5/22/2023 5:45:00 PM 19.73 67.514 0.204 6.93 159.83 0.07
5/22/2023 6:00:00 PM 19.81 67.658 0.208 6.93 158.57 0.07
5/22/2023 6:15:00 PM 19.83 67.694 0.202 6.58 111.67 0.08
5/22/2023 6:30:00 PM 19.9 67.82 0.212 6.88 119.99 0.09
5/22/2023 6:45:00 PM 19.98 67.964 0.197 6.92 104.25 0.08
5/22/2023 7:00:00 PM 20.08 68.144 0.197 6.86 143.17 0.08
5/22/2023 7:15:00 PM 20.09 68.162 0.203 6.86 143.24 0.09
5/22/2023 7:30:00 PM 20.12 68.216 0.213 6.95 150.67 0.09
5/22/2023 7:45:00 PM 20.18 68.324 0.2 6.74 113.81 0.09
5/22/2023 8:00:00 PM 20.22 68.396 0.206 6.91 158.13 0.09
5/22/2023 8:15:00 PM 20.22 68.396 0.208 6.89 152.33 0.09
5/22/2023 8:30:00 PM 20.19 68.342 0.202 6.85 146.56 0.09
5/22/2023 8:45:00 PM 20.16 68.288 0.201 6.81 185.33 0.09
5/22/2023 9:00:00 PM 20.12 68.216 0.217 6.75 86.2 0.09
5/22/2023 9:15:00 PM 20.06 68.108 0.207 6.95 96.81 0.09
5/22/2023 9:30:00 PM 19.99 67.982 0.213 6.96 84.39 0.09
5/22/2023 9:45:00 PM 19.9 67.82 0.22 6.89 91.9 0.08
5/22/2023 10:00:00 PM 19.81 67.658 0.221 6.97 73.29 0.08
5/22/2023 10:15:00 PM 19.71 67.478 0.21 6.81 72.07 0.08
5/22/2023 10:30:00 PM 19.6 67.28 0.211 6.91 81.66 0.07
5/22/2023 10:45:00 PM 19.48 67.064 0.226 6.92 69.5 0.07
5/22/2023 11:00:00 PM 19.35 66.83 0.213 7.01 116.87 0.07
5/22/2023 11:15:00 PM 19.22 66.596 0.229 6.99 60 0.07
5/22/2023 11:30:00 PM 19.09 66.362 0.218 6.83 67.81 0.07
5/22/2023 11:45:00 PM 18.96 66.128 0.219 6.84 84.07 0.06
5/23/2023 12:00:00 AM 18.82 65.876 0.223 6.71 98.62 0.06
5/23/2023 12:15:00 AM 18.7 65.66 0.215 6.81 144.66 0.06
5/23/2023 12:30:00 AM 18.58 65.444 0.219 6.96 99.67 0.06
5/23/2023 12:45:00 AM 18.46 65.228 0.222 7 116.46 0.06
5/23/2023 1:00:00 AM 18.35 65.03 0.212 6.91 132.72 0.05
5/23/2023 1:15:00 AM 18.25 64.85 0.225 6.94 78.61 0.05
5/23/2023 1:30:00 AM 18.15 64.67 0.234 6.95 90.27 0.05
5/23/2023 1:45:00 AM 18.05 64.49 0.226 7 120.49 0.05
5/23/2023 2:00:00 AM 17.96 64.328 0.224 6.89 122.18 0.05
5/23/2023 2:15:00 AM 17.87 64.166 0.224 6.99 64.96 0.05
5/23/2023 2:30:00 AM 17.79 64.022 0.23 6.99 54.33 0.05
5/23/2023 2:45:00 AM 17.71 63.878 0.22 7.04 82.33 0.05
5/23/2023 3:00:00 AM 17.63 63.734 0.229 6.83 94.58 0.05
5/23/2023 3:15:00 AM 17.55 63.59 0.223 6.88 173.11 0.05
5/23/2023 3:30:00 AM 17.48 63.464 0.228 7.02 169.19 0.05
5/23/2023 3:45:00 AM 17.4 63.32 0.225 7.04 312.12 0.05
5/23/2023 4:00:00 AM 17.33 63.194 0.229 6.92 156.46 0.05
5/23/2023 4:15:00 AM 17.25 63.05 0.235 6.93 91.18 0.05
5/23/2023 4:30:00 AM 17.18 62.924 0.241 6.96 136.4 0.05
5/23/2023 4:45:00 AM 17.1 62.78 0.238 6.85 75.63 0.05
5/23/2023 5:00:00 AM 17.02 62.636 0.239 7 85.75 0.05
5/23/2023 5:15:00 AM 16.95 62.51 0.238 7.02 91.99 0.04
5/23/2023 5:30:00 AM 16.89 62.402 0.242 6.98 275.5 0.04
5/23/2023 5:45:00 AM 16.81 62.258 0.244 7.1 144.63 0.04
5/23/2023 6:00:00 AM 16.74 62.132 0.252 7 118.02 0.04
5/23/2023 6:15:00 AM 16.68 62.024 0.271 7.04 190.45 0.04
5/23/2023 6:30:00 AM 16.62 61.916 0.277 6.94 311.59 0.04
5/23/2023 6:45:00 AM 16.55 61.79 0.313 7.02 218.35 0.04
5/23/2023 7:00:00 AM 16.48 61.664 0.305 7.1 219 0.04
5/23/2023 7:15:00 AM 16.42 61.556 0.301 7.06 623.12 0.04
5/23/2023 7:30:00 AM 16.36 61.448 0.291 7 294.65 0.04
5/23/2023 7:45:00 AM 16.33 61.394 0.291 7.05 274.15 0.04
5/23/2023 8:00:00 AM 16.28 61.304 0.292 6.99 195.25 0.04
5/23/2023 8:15:00 AM 16.24 61.232 0.285 7.05 199.08 0.04
5/23/2023 8:30:00 AM 16.21 61.178 0.274 6.99 308.55 0.04
5/23/2023 8:45:00 AM 16.19 61.142 0.27 6.99 193.17 0.04
5/23/2023 9:00:00 AM 16.01 60.818 0.086 6.32 34.16 7.01
5/23/2023 9:15:00 AM 16.01 60.818 0.086 6.28 28.2 6.84
5/23/2023 9:30:00 AM 16.05 60.89 0.087 6.29 14.3 6.92
5/23/2023 9:45:00 AM 16.09 60.962 0.086 6.32 6.37 7.06
5/23/2023 10:00:00 AM 16.15 61.07 0.086 6.33 4.94 7.2
5/23/2023 10:15:00 AM 16.23 61.214 0.086 6.34 5.91 7.2
5/23/2023 10:30:00 AM 16.33 61.394 0.086 6.37 4.91 7.47
5/23/2023 10:45:00 AM 16.4 61.52 0.086 6.38 6.29 7.58
5/23/2023 11:00:00 AM 16.5 61.7 0.086 6.38 5.16 7.62
5/23/2023 11:15:00 AM 16.65 61.97 0.086 6.4 5.04 7.84
5/23/2023 11:30:00 AM 16.8 62.24 0.086 6.43 4.94 8.04
5/23/2023 11:45:00 AM 16.94 62.492 0.085 6.45 4.61 8.15
5/23/2023 12:00:00 PM 17.07 62.726 0.086 6.48 4.26 8.29
5/23/2023 12:15:00 PM 17.22 62.996 0.085 6.44 4.8 8.02
5/23/2023 12:30:00 PM 17.41 63.338 0.085 6.47 4.2 8.2
5/23/2023 12:45:00 PM 17.7 63.86 0.085 6.48 3.62 8.38
5/23/2023 1:00:00 PM 17.94 64.292 0.085 6.5 3.64 8.48
5/23/2023 1:15:00 PM 18.19 64.742 0.085 6.55 3.32 8.73
5/23/2023 1:30:00 PM 18.52 65.336 0.085 6.58 3.52 8.84
5/23/2023 1:45:00 PM 18.9 66.02 0.085 6.64 3.39 9.22
5/23/2023 2:00:00 PM 19.3 66.74 0.085 6.67 3.42 9.27
5/23/2023 2:15:00 PM 19.58 67.244 0.085 6.7 3.78 9.42
5/23/2023 2:30:00 PM 20.05 68.09 0.085 6.73 3.61 9.46
5/23/2023 2:45:00 PM 20.54 68.972 0.085 6.79 3.38 9.63
5/23/2023 3:00:00 PM 20.91 69.638 0.085 6.82 3.45 9.76
5/23/2023 3:15:00 PM 21.11 69.998 0.085 6.84 3.41 9.8
5/23/2023 3:30:00 PM 21.4 70.52 0.085 6.89 3.41 9.94
5/23/2023 3:45:00 PM 21.69 71.042 0.085 6.92 3.42 10
5/23/2023 4:00:00 PM 21.83 71.294 0.085 6.95 3.13 10.08
5/23/2023 4:15:00 PM 21.93 71.474 0.085 6.9 3.19 9.94
5/23/2023 4:30:00 PM 22.14 71.852 0.085 6.99 3.38 10.04
5/23/2023 4:45:00 PM 22.19 71.942 0.085 6.9 3.19 9.91
5/23/2023 5:00:00 PM 22.21 71.978 0.085 6.97 3.42 10.17
5/23/2023 5:15:00 PM 22.35 72.23 0.085 7.01 3.37 10.18
5/23/2023 5:30:00 PM 22.23 72.014 0.085 7.02 3.43 10.13
5/23/2023 5:45:00 PM 22.37 72.266 0.085 7.06 3.67 10.16
5/23/2023 6:00:00 PM 22.45 72.41 0.085 7.03 3.6 10.13
5/23/2023 6:15:00 PM 22.5 72.5 0.085 7.01 3.42 9.97
5/23/2023 6:30:00 PM 22.51 72.518 0.085 6.97 3.12 9.83
5/23/2023 6:45:00 PM 22.55 72.59 0.085 7 3.33 9.94
5/23/2023 7:00:00 PM 22.49 72.482 0.085 6.89 3.95 9.54
5/23/2023 7:15:00 PM 22.52 72.536 0.085 6.92 3.76 9.55
5/23/2023 7:30:00 PM 22.48 72.464 0.085 6.94 3.94 9.61
5/23/2023 7:45:00 PM 22.37 72.266 0.085 6.91 4.06 9.55
5/23/2023 8:00:00 PM 22.3 72.14 0.085 6.88 3.85 9.41
5/23/2023 8:15:00 PM 22.26 72.068 0.085 6.98 3.83 9.62
5/23/2023 8:30:00 PM 22.14 71.852 0.085 7 4.5 9.69
5/23/2023 8:45:00 PM 22.02 71.636 0.085 7.01 5.1 9.65
5/23/2023 9:00:00 PM 21.83 71.294 0.085 6.98 4.91 9.58
5/23/2023 9:15:00 PM 21.65 70.97 0.085 6.95 4.96 9.49
5/23/2023 9:30:00 PM 21.45 70.61 0.086 6.93 4.84 9.39
5/23/2023 9:45:00 PM 21.27 70.286 0.086 6.9 4.85 9.29
5/23/2023 10:00:00 PM 21.07 69.926 0.086 6.86 5.25 9.2
5/23/2023 10:15:00 PM 20.89 69.602 0.086 6.83 5.34 9.07
5/23/2023 10:30:00 PM 20.72 69.296 0.086 6.8 5.13 8.94
5/23/2023 10:45:00 PM 20.55 68.99 0.086 6.77 5.12 8.81
5/23/2023 11:00:00 PM 20.39 68.702 0.086 6.73 5.01 8.67
5/23/2023 11:15:00 PM 20.26 68.468 0.086 6.7 5.14 8.49
5/23/2023 11:30:00 PM 20.11 68.198 0.086 6.67 5.31 8.37
5/23/2023 11:45:00 PM 19.96 67.92799 0.086 6.64 6.18 8.21
5/24/2023 12:00:00 AM 19.83 67.694 0.086 6.61 5.41 8.07
5/24/2023 12:15:00 AM 19.69 67.442 0.086 6.58 5.66 7.92
5/24/2023 12:30:00 AM 19.55 67.19 0.087 6.56 5.74 7.78
5/24/2023 12:45:00 AM 19.43 66.974 0.087 6.52 5.73 7.61
5/24/2023 1:00:00 AM 19.3 66.74 0.087 6.51 6.63 7.5
5/24/2023 1:15:00 AM 19.16 66.488 0.087 6.49 5.98 7.38
5/24/2023 1:30:00 AM 19.02 66.236 0.087 6.48 5.74 7.28
5/24/2023 1:45:00 AM 18.9 66.02 0.087 6.46 8.11 7.19
5/24/2023 2:00:00 AM 18.75 65.75 0.087 6.44 6.25 7.09
5/24/2023 2:15:00 AM 18.62 65.516 0.087 6.43 5.93 7.02
5/24/2023 2:30:00 AM 18.49 65.282 0.087 6.42 6.44 6.96
5/24/2023 2:45:00 AM 18.37 65.066 0.087 6.4 5.67 6.89
5/24/2023 3:00:00 AM 18.24 64.832 0.087 6.4 6.31 6.84
5/24/2023 3:15:00 AM 18.1 64.58 0.087 6.39 6.83 6.8
5/24/2023 3:30:00 AM 18.04 64.472 0.087 6.38 9.56 6.69
5/24/2023 3:45:00 AM 17.88 64.184 0.087 6.37 7.18 6.68
5/24/2023 4:00:00 AM 17.76 63.968 0.087 6.36 7.81 6.64
5/24/2023 4:15:00 AM 17.65 63.77 0.087 6.36 7.66 6.61
5/24/2023 4:30:00 AM 17.55 63.59 0.087 6.35 6.64 6.57
5/24/2023 4:45:00 AM 17.44 63.392 0.087 6.35 6.26 6.54
5/24/2023 5:00:00 AM 17.33 63.194 0.087 6.34 7.44 6.51
5/24/2023 5:15:00 AM 17.21 62.978 0.087 6.34 7.4 6.47
5/24/2023 5:30:00 AM 17.1 62.78 0.087 6.33 6.34 6.47
5/24/2023 5:45:00 AM 17.01 62.618 0.087 6.33 7.27 6.42
5/24/2023 6:00:00 AM 16.91 62.438 0.087 6.33 7.19 6.4
5/24/2023 6:15:00 AM 16.8 62.24 0.087 6.32 6.76 6.39
5/24/2023 6:30:00 AM 16.72 62.096 0.087 6.31 8.8 6.36
5/24/2023 6:45:00 AM 16.6 61.88 0.087 6.3 6.81 6.38
5/24/2023 7:00:00 AM 16.5 61.7 0.087 6.29 7.07 6.41
5/24/2023 7:15:00 AM 16.4 61.52 0.087 6.29 8.38 6.41
5/24/2023 7:30:00 AM 16.3 61.34 0.087 6.28 7.27 6.43
5/24/2023 7:45:00 AM 16.21 61.178 0.087 6.28 7.54 6.47
5/24/2023 8:00:00 AM 16.12 61.016 0.087 6.28 7.59 6.5
5/24/2023 8:15:00 AM 16.06 60.908 0.087 6.28 8.88 6.53
5/24/2023 8:30:00 AM 15.98 60.764 0.087 6.28 7.32 6.58
5/24/2023 8:45:00 AM 15.92 60.656 0.087 6.28 7.93 6.6
5/24/2023 9:00:00 AM 15.85 60.53 0.087 6.28 7.79 6.69
5/24/2023 9:15:00 AM 15.8 60.44 0.087 6.29 7.7 6.76
5/24/2023 9:30:00 AM 15.76 60.368 0.087 6.3 7.43 6.86
5/24/2023 9:45:00 AM 15.73 60.314 0.087 6.31 6.38 6.98
5/24/2023 10:00:00 AM 15.7 60.26 0.087 6.32 7.69 7.14
5/24/2023 10:15:00 AM 15.78 60.404 0.087 6.33 7.09 7.25
5/24/2023 10:30:00 AM 15.84 60.512 0.087 6.35 6.09 7.38
5/24/2023 10:45:00 AM 15.95 60.71 0.087 6.35 7.44 7.46
5/24/2023 11:00:00 AM 16 60.8 0.087 6.39 6.87 7.68
5/24/2023 11:15:00 AM 16.08 60.944 0.087 6.4 6.73 7.54
5/24/2023 11:30:00 AM 16.22 61.196 0.087 6.4 7.8 7.78
5/24/2023 11:45:00 AM 16.33 61.394 0.087 6.42 7.43 7.94
5/24/2023 12:00:00 PM 16.42 61.556 0.087 6.44 6.56 8.1
5/24/2023 12:15:00 PM 16.52 61.736 0.087 6.4 5.78 7.82
5/24/2023 12:30:00 PM 16.87 62.366 0.086 6.44 5.11 7.91
5/24/2023 12:45:00 PM 17.27 63.086 0.086 6.47 4.14 8.08
5/24/2023 1:00:00 PM 17.58 63.644 0.087 6.5 4.88 8.38
5/24/2023 1:15:00 PM 17.86 64.148 0.087 6.52 5.42 8.5
5/24/2023 1:30:00 PM 18.14 64.652 0.087 6.56 4.75 8.64
5/24/2023 1:45:00 PM 18.46 65.228 0.087 6.59 6.11 8.91
5/24/2023 2:00:00 PM 18.77 65.786 0.087 6.62 4.14 8.92
5/24/2023 2:15:00 PM 19.02 66.236 0.087 6.65 4.67 9.13
5/24/2023 2:30:00 PM 19.24 66.632 0.087 6.7 4.43 9.21
5/24/2023 2:45:00 PM 19.43 66.974 0.087 6.73 3.97 9.24
5/24/2023 3:00:00 PM 19.61 67.298 0.087 6.8 4.16 9.55
5/24/2023 3:15:00 PM 19.85 67.73 0.087 6.8 4.38 9.56
5/24/2023 3:30:00 PM 19.93 67.874 0.087 6.83 4.29 9.5
5/24/2023 3:45:00 PM 20.03 68.054 0.087 6.84 4.55 9.58
5/24/2023 4:00:00 PM 20.17 68.306 0.087 6.84 4.24 9.55
5/24/2023 4:15:00 PM 20.3 68.54 0.087 6.9 4.69 9.76
5/24/2023 4:30:00 PM 20.41 68.738 0.087 6.88 4.06 9.58
5/24/2023 4:45:00 PM 20.49 68.882 0.087 6.88 4.53 9.59
5/24/2023 5:00:00 PM 20.52 68.936 0.087 6.96 4.47 9.69
5/24/2023 5:15:00 PM 20.51 68.918 0.087 6.92 4.53 9.71
5/24/2023 5:30:00 PM 20.44 68.792 0.087 6.93 4.54 9.63
5/24/2023 5:45:00 PM 20.34 68.612 0.087 6.89 4.83 9.52
5/24/2023 6:00:00 PM 20.31 68.558 0.087 6.86 4.42 9.35
5/24/2023 6:15:00 PM 20.34 68.612 0.087 6.89 5.25 9.4
5/24/2023 6:30:00 PM 20.29 68.522 0.087 6.9 5.07 9.39
5/24/2023 6:45:00 PM 20.2 68.36 0.088 6.91 4.85 9.41
5/24/2023 7:00:00 PM 20.06 68.108 0.088 6.93 6.05 9.37
5/24/2023 7:15:00 PM 19.89 67.802 0.088 6.92 5.33 9.31
5/24/2023 7:30:00 PM 19.68 67.424 0.088 6.91 4.67 9.26
5/24/2023 7:45:00 PM 19.49 67.082 0.088 6.89 5.25 9.21
5/24/2023 8:00:00 PM 19.31 66.758 0.088 6.89 4.84 9.18
5/24/2023 8:15:00 PM 19.17 66.506 0.088 6.88 5.16 9.16
5/24/2023 8:30:00 PM 19.06 66.308 0.088 6.88 4.72 9.16
5/24/2023 8:45:00 PM 18.97 66.146 0.088 6.85 5.58 9.07
5/24/2023 9:00:00 PM 18.86 65.948 0.088 6.83 5.46 9.01
5/24/2023 9:15:00 PM 18.74 65.732 0.088 6.82 5.67 8.96
5/24/2023 9:30:00 PM 18.63 65.534 0.088 6.81 5.62 8.9
5/24/2023 9:45:00 PM 18.48 65.264 0.088 6.8 6.66 8.87
5/24/2023 10:00:00 PM 18.33 64.994 0.088 6.79 5.88 8.85
5/24/2023 10:15:00 PM 18.2 64.76 0.088 6.77 6.03 8.78
5/24/2023 10:30:00 PM 18.02 64.436 0.088 6.75 5.85 8.7
5/24/2023 10:45:00 PM 17.85 64.13 0.088 6.74 6.82 8.63
5/24/2023 11:00:00 PM 17.7 63.86 0.088 6.71 6.77 8.55
5/24/2023 11:15:00 PM 17.55 63.59 0.088 6.69 7.32 8.45
5/24/2023 11:30:00 PM 17.4 63.32 0.089 6.66 7.72 8.36
5/24/2023 11:45:00 PM 17.25 63.05 0.089 6.64 8.04 8.25
5/25/2023 12:00:00 AM 17.11 62.798 0.089 6.62 7.51 8.15
5/25/2023 12:15:00 AM 16.94 62.492 0.089 6.6 6.71 8.06
5/25/2023 12:30:00 AM 16.83 62.294 0.089 6.58 6.71 7.97
5/25/2023 12:45:00 AM 16.71 62.078 0.089 6.56 6.43 7.88
5/25/2023 1:00:00 AM 16.57 61.826 0.089 6.54 7.69 7.78
5/25/2023 1:15:00 AM 16.45 61.61 0.089 6.52 9.51 7.71
5/25/2023 1:30:00 AM 16.36 61.448 0.089 6.49 7.29 7.59
5/25/2023 1:45:00 AM 16.23 61.214 0.089 6.46 7.1 7.53
5/25/2023 2:00:00 AM 16.07 60.926 0.089 6.44 7.4 7.47
5/25/2023 2:15:00 AM 15.96 60.728 0.09 6.43 7.12 7.42
5/25/2023 2:30:00 AM 15.86 60.548 0.09 6.41 6.88 7.35
5/25/2023 2:45:00 AM 15.71 60.278 0.09 6.41 6.55 7.36
5/25/2023 3:00:00 AM 15.59 60.062 0.09 6.4 7.93 7.33
5/25/2023 3:15:00 AM 15.48 59.864 0.09 6.39 6.76 7.31
5/25/2023 3:30:00 AM 15.36 59.648 0.09 6.38 9.02 7.29
5/25/2023 3:45:00 AM 15.23 59.414 0.089 6.37 7.31 7.29
5/25/2023 4:00:00 AM 15.1 59.18 0.089 6.37 7.28 7.3
5/25/2023 4:15:00 AM 14.99 58.982 0.089 6.36 7.51 7.29
5/25/2023 4:30:00 AM 14.87 58.766 0.089 6.35 15.57 7.24
5/25/2023 4:45:00 AM 14.73 58.514 0.089 6.35 19.67 7.28
5/25/2023 5:00:00 AM 14.63 58.334 0.089 6.34 9.88 7.21
5/25/2023 5:15:00 AM 14.53 58.154 0.089 6.33 14.06 7.17
5/25/2023 5:30:00 AM 14.41 57.938 0.089 6.33 8.61 7.21
5/25/2023 5:45:00 AM 14.33 57.794 0.089 6.32 8.11 7.19
5/25/2023 6:00:00 AM 14.27 57.686 0.089 6.32 14.32 7.17
5/25/2023 6:15:00 AM 14.17 57.506 0.089 6.31 8.18 7.15
5/25/2023 6:30:00 AM 14.09 57.362 0.089 6.31 16.17 7.14
5/25/2023 6:45:00 AM 14.01 57.218 0.089 6.31 8.9 7.13
5/25/2023 7:00:00 AM 13.99 57.182 0.089 6.3 8.02 7.09
5/25/2023 7:15:00 AM 13.9 57.02 0.089 6.3 8.77 7.09
5/25/2023 7:30:00 AM 13.84 56.912 0.089 6.29 7.49 7.08
5/25/2023 7:45:00 AM 14.06 57.308 0.088 6.29 7.19 7
5/25/2023 8:00:00 AM 14.02 57.236 0.088 6.29 8.75 6.99
5/25/2023 8:15:00 AM 13.94 57.092 0.088 6.29 9.37 7.01
5/25/2023 8:30:00 AM 13.89 57.002 0.088 6.29 8.91 7.05
5/25/2023 8:45:00 AM 13.85 56.93 0.088 6.29 7.22 7.06
5/25/2023 9:00:00 AM 13.84 56.912 0.088 6.3 7.29 7.07
5/25/2023 9:15:00 AM 13.85 56.93 0.088 6.3 7.43 7.1
5/25/2023 9:30:00 AM 13.85 56.93 0.088 6.31 7.03 7.16
5/25/2023 9:45:00 AM 13.92 57.056 0.088 6.31 6.76 7.21
5/25/2023 10:00:00 AM 14 57.2 0.088 6.33 6.79 7.32
5/25/2023 10:15:00 AM 14.05 57.29 0.088 6.35 7.61 7.48
5/25/2023 10:30:00 AM 14.05 57.29 0.088 6.36 6.63 7.56
5/25/2023 10:45:00 AM 14.19 57.542 0.088 6.36 5.76 7.55
5/25/2023 11:00:00 AM 14.29 57.722 0.088 6.4 6.21 7.86
5/25/2023 11:15:00 AM 14.46 58.028 0.088 6.41 5.41 7.97
5/25/2023 11:30:00 AM 14.65 58.37 0.088 6.42 5.53 7.98
5/25/2023 11:45:00 AM 14.81 58.658 0.088 6.43 5.96 7.92
5/25/2023 12:00:00 PM 15.07 59.126 0.088 6.44 5.73 8.06
5/25/2023 12:15:00 PM 15.33 59.594 0.088 6.46 4.74 8.17
5/25/2023 12:30:00 PM 15.68 60.224 0.088 6.5 4.8 8.47
5/25/2023 12:45:00 PM 16.01 60.818 0.088 6.56 6.23 8.75
5/25/2023 1:00:00 PM 16.3 61.34 0.087 6.59 7.33 8.87
5/25/2023 1:15:00 PM 16.73 62.114 0.087 6.62 6.12 9.08
5/25/2023 1:30:00 PM 17.01 62.618 0.087 6.65 9.8 9.14
5/25/2023 1:45:00 PM 17.3 63.14 0.087 6.68 6.39 9.31
5/25/2023 2:00:00 PM 17.71 63.878 0.087 6.76 4.95 9.47
5/25/2023 2:15:00 PM 17.89 64.202 0.087 6.79 5.21 9.62
5/25/2023 2:30:00 PM 18.1 64.58 0.087 6.79 4.96 9.62
5/25/2023 2:45:00 PM 18.43 65.174 0.087 6.89 4.86 9.75
5/25/2023 3:00:00 PM 18.65 65.57 0.087 6.9 4.98 9.84
5/25/2023 3:15:00 PM 18.89 66.002 0.087 6.95 5.27 9.87
5/25/2023 3:30:00 PM 19.04 66.272 0.087 6.94 4.6 9.83
5/25/2023 3:45:00 PM 19.24 66.632 0.088 6.94 4.93 9.87
5/25/2023 4:00:00 PM 19.5 67.1 0.088 7 4.8 9.96
5/25/2023 4:15:00 PM 19.72 67.496 0.088 7.01 4.69 9.94
5/25/2023 4:30:00 PM 19.95 67.91 0.088 7.05 4.75 9.98
5/25/2023 4:45:00 PM 20.09 68.162 0.088 7.03 4.54 9.91
5/25/2023 5:00:00 PM 20.22 68.396 0.088 7.03 4.49 9.93
5/25/2023 5:15:00 PM 20.39 68.702 0.088 7.07 4.43 9.94
5/25/2023 5:30:00 PM 20.48 68.864 0.088 7.07 4.51 9.88
5/25/2023 5:45:00 PM 20.58 69.044 0.088 7.06 4.79 9.84
5/25/2023 6:00:00 PM 20.63 69.134 0.088 7.14 4.25 9.87
5/25/2023 6:15:00 PM 20.7 69.26 0.088 7.15 6.31 9.87
5/25/2023 6:30:00 PM 20.66 69.188 0.088 7.16 5.09 9.85
5/25/2023 6:45:00 PM 20.66 69.188 0.088 7.08 4.2 9.72
5/25/2023 7:00:00 PM 20.68 69.224 0.088 7.13 5.58 9.82
5/25/2023 7:15:00 PM 20.69 69.242 0.088 7.12 9.57 9.74
5/25/2023 7:30:00 PM 20.73 69.314 0.088 7.12 5.16 9.65
5/25/2023 7:45:00 PM 20.73 69.314 0.088 7.08 4.56 9.59
5/25/2023 8:00:00 PM 20.69 69.242 0.088 6.97 4.24 9.44
5/25/2023 8:15:00 PM 20.62 69.116 0.088 7.04 4.85 9.47
5/25/2023 8:30:00 PM 20.63 69.134 0.088 7.08 8.75 9.6
5/25/2023 8:45:00 PM 20.56 69.008 0.088 7.09 9.97 9.62
5/25/2023 9:00:00 PM 20.46 68.828 0.088 7.03 5.8 9.53
5/25/2023 9:15:00 PM 20.35 68.63 0.088 6.98 18.9 9.37
5/25/2023 9:30:00 PM 20.24 68.432 0.088 7 153.25 9.22
5/25/2023 9:45:00 PM 20.1 68.18 0.088 7.01 7.7 9.44
5/25/2023 10:00:00 PM 19.97 67.946 0.088 6.98 14.14 9.16
5/25/2023 10:15:00 PM 19.77 67.586 0.088 6.99 10.9 9.41
5/25/2023 10:30:00 PM 19.51 67.118 0.088 7.01 8.29 9.46
5/25/2023 10:45:00 PM 19.29 66.722 0.088 6.98 7.07 9.41
5/25/2023 11:00:00 PM 19.06 66.308 0.088 6.96 7.1 9.34
5/25/2023 11:15:00 PM 18.84 65.912 0.088 6.93 6.47 9.22
5/25/2023 11:30:00 PM 18.59 65.462 0.088 6.9 6.93 9.17
5/25/2023 11:45:00 PM 18.37 65.066 0.089 6.86 6.35 9.03
5/26/2023 12:00:00 AM 18.12 64.616 0.089 6.82 6.95 8.9
5/26/2023 12:15:00 AM 17.9 64.22 0.089 6.78 6.19 8.77
5/26/2023 12:30:00 AM 17.7 63.86 0.089 6.74 6.87 8.6
5/26/2023 12:45:00 AM 17.48 63.464 0.089 6.71 6.38 8.45
5/26/2023 1:00:00 AM 17.26 63.068 0.089 6.67 6.84 8.31
5/26/2023 1:15:00 AM 17.05 62.69 0.09 6.64 6.6 8.15
5/26/2023 1:30:00 AM 16.87 62.366 0.09 6.6 6.89 7.98
5/26/2023 1:45:00 AM 16.67 62.006 0.09 6.56 7.06 7.79
5/26/2023 2:00:00 AM 16.46 61.628 0.09 6.53 8.17 7.65
5/26/2023 2:15:00 AM 16.28 61.304 0.09 6.51 7.03 7.52
5/26/2023 2:30:00 AM 16.13 61.034 0.09 6.48 7.41 7.38
5/26/2023 2:45:00 AM 15.97 60.746 0.09 6.46 7.48 7.28
5/26/2023 3:00:00 AM 15.8 60.44 0.09 6.44 6.96 7.18
5/26/2023 3:15:00 AM 15.67 60.206 0.091 6.42 7.91 7.07
5/26/2023 3:30:00 AM 15.52 59.936 0.091 6.41 7.33 7.05
5/26/2023 3:45:00 AM 15.4 59.72 0.091 6.4 8.3 6.98
5/26/2023 4:00:00 AM 15.26 59.468 0.091 6.38 6.75 6.93
5/26/2023 4:15:00 AM 15.14 59.252 0.091 6.36 7.14 6.89
5/26/2023 4:30:00 AM 15.05 59.09 0.091 6.35 7.57 6.85
5/26/2023 4:45:00 AM 14.88 58.784 0.091 6.33 7.27 6.87
5/26/2023 5:00:00 AM 14.77 58.586 0.091 6.32 7.8 6.84
5/26/2023 5:15:00 AM 14.67 58.406 0.091 6.32 13.37 6.82
5/26/2023 5:30:00 AM 14.61 58.298 0.091 6.3 26.41 6.72
5/26/2023 5:45:00 AM 14.46 58.028 0.09 6.31 7.85 6.81
5/26/2023 6:00:00 AM 14.36 57.848 0.09 6.3 13.09 6.79
5/26/2023 6:15:00 AM 14.26 57.668 0.09 6.3 7.71 6.8
5/26/2023 6:30:00 AM 14.2 57.56 0.09 6.29 7.23 6.8
5/26/2023 6:45:00 AM 14.11 57.398 0.09 6.3 7.03 6.82
5/26/2023 7:00:00 AM 14 57.2 0.09 6.29 24.52 6.79
5/26/2023 7:15:00 AM 13.94 57.092 0.09 6.3 8.63 6.8
5/26/2023 7:30:00 AM 13.86 56.948 0.09 6.29 7.97 6.8
5/26/2023 7:45:00 AM 14.04 57.272 0.089 6.29 8.74 6.73
5/26/2023 8:00:00 AM 13.99 57.182 0.089 6.29 9.78 6.73
5/26/2023 8:15:00 AM 13.91 57.038 0.089 6.28 8.44 6.75
5/26/2023 8:30:00 AM 13.85 56.93 0.089 6.29 7.78 6.8
5/26/2023 8:45:00 AM 13.8 56.84 0.089 6.29 7.6 6.83
5/26/2023 9:00:00 AM 13.79 56.822 0.089 6.29 6.67 6.83
5/26/2023 9:15:00 AM 13.83 56.894 0.089 6.3 6.8 6.83
5/26/2023 9:30:00 AM 13.88 56.984 0.089 6.3 7.16 6.83
5/26/2023 9:45:00 AM 13.93 57.074 0.089 6.3 6.39 6.86
5/26/2023 10:00:00 AM 13.92 57.056 0.089 6.33 6.93 7.01
5/26/2023 10:15:00 AM 13.92 57.056 0.089 6.33 6.08 7.05
5/26/2023 10:30:00 AM 14.01 57.218 0.089 6.34 6.52 7.09
5/26/2023 10:45:00 AM 14.1 57.38 0.089 6.34 5.46 7.08
5/26/2023 11:00:00 AM 14.29 57.722 0.089 6.34 15.18 7.18
5/26/2023 11:15:00 AM 14.37 57.866 0.089 6.35 6.59 7.15
5/26/2023 11:30:00 AM 14.61 58.298 0.089 6.35 5.34 7.1
5/26/2023 11:45:00 AM 14.85 58.73 0.089 6.39 4.85 7.25
5/26/2023 12:00:00 PM 15.23 59.414 0.089 6.41 4.93 7.52
5/26/2023 12:15:00 PM 15.5 59.9 0.088 6.44 4.98 7.73
5/26/2023 12:30:00 PM 15.89 60.602 0.088 6.48 4.31 7.97
5/26/2023 12:45:00 PM 16.32 61.376 0.088 6.53 4.14 8.28
5/26/2023 1:00:00 PM 16.64 61.952 0.088 6.55 5.24 8.38
5/26/2023 1:15:00 PM 17.11 62.798 0.088 6.61 4.91 8.78
5/26/2023 1:30:00 PM 17.5 63.5 0.088 6.64 4.47 8.9
5/26/2023 1:45:00 PM 17.81 64.058 0.088 6.7 4.88 9.1
5/26/2023 2:00:00 PM 18.16 64.688 0.088 6.74 4.26 9.19
5/26/2023 2:15:00 PM 18.36 65.048 0.088 6.74 4.11 9.24
5/26/2023 2:30:00 PM 18.64 65.552 0.088 6.77 4.53 9.33
5/26/2023 2:45:00 PM 19.09 66.362 0.088 6.8 4.79 9.53
5/26/2023 3:00:00 PM 19.43 66.974 0.088 6.85 4.56 9.59
5/26/2023 3:15:00 PM 19.62 67.316 0.088 6.89 4.15 9.67
5/26/2023 3:30:00 PM 19.92 67.856 0.088 6.92 4.09 9.68
5/26/2023 3:45:00 PM 20.13 68.234 0.088 6.92 4.09 9.69
5/26/2023 4:00:00 PM 20.41 68.738 0.088 6.99 4.62 9.82
5/26/2023 4:15:00 PM 20.6 69.08 0.088 7 3.99 9.78
5/26/2023 4:30:00 PM 20.79 69.422 0.088 7 4.08 9.74
5/26/2023 4:45:00 PM 20.97 69.746 0.089 7.01 4.51 9.66
5/26/2023 5:00:00 PM 21.23 70.214 0.089 7.05 4.11 9.79
5/26/2023 5:15:00 PM 21.39 70.502 0.089 7.05 4.17 9.76
5/26/2023 5:30:00 PM 21.45 70.61 0.089 7.04 4.06 9.72
5/26/2023 5:45:00 PM 21.44 70.592 0.089 7.05 4.16 9.68
5/26/2023 6:00:00 PM 21.55 70.79 0.088 7.12 4.31 9.75
5/26/2023 6:15:00 PM 21.58 70.844 0.088 7.13 4.15 9.79
5/26/2023 6:30:00 PM 21.62 70.916 0.089 7.14 4.09 9.76
5/26/2023 6:45:00 PM 21.69 71.042 0.089 7.17 4.55 9.78
5/26/2023 7:00:00 PM 21.71 71.078 0.088 7.14 4.17 9.72
5/26/2023 7:15:00 PM 21.73 71.114 0.089 7.02 4.06 9.53
5/26/2023 7:30:00 PM 21.73 71.114 0.089 7.11 4.59 9.72
5/26/2023 7:45:00 PM 21.72 71.096 0.089 6.98 3.89 9.44
5/26/2023 8:00:00 PM 21.73 71.114 0.089 6.97 3.89 9.41
5/26/2023 8:15:00 PM 21.68 71.024 0.089 7.02 7.33 9.36
5/26/2023 8:30:00 PM 21.57 70.826 0.089 6.99 5.1 9.29
5/26/2023 8:45:00 PM 21.54 70.772 0.089 7.07 9.32 9.44
5/26/2023 9:00:00 PM 21.38 70.484 0.089 7.01 5.21 9.29
5/26/2023 9:15:00 PM 21.21 70.17799 0.089 6.97 5.55 9.18
5/26/2023 9:30:00 PM 21.06 69.908 0.089 7 5.17 9.4
5/26/2023 9:45:00 PM 20.92 69.656 0.089 6.91 6.78 9.03
5/26/2023 10:00:00 PM 20.8 69.44 0.089 6.98 6.33 9.26
5/26/2023 10:15:00 PM 20.66 69.188 0.089 7.04 6.7 9.47
5/26/2023 10:30:00 PM 20.5 68.9 0.09 7.04 6.71 9.46
5/26/2023 10:45:00 PM 20.32 68.576 0.09 7.02 5.95 9.38
5/26/2023 11:00:00 PM 20.13 68.234 0.09 6.99 7.86 9.33
5/26/2023 11:15:00 PM 19.93 67.874 0.09 6.96 6.92 9.25
5/26/2023 11:30:00 PM 19.73 67.514 0.09 6.91 6.9 9.16
5/26/2023 11:45:00 PM 19.52 67.136 0.09 6.9 6.33 9.08
5/27/2023 12:00:00 AM 19.32 66.776 0.09 6.86 7.31 8.96
5/27/2023 12:15:00 AM 19.11 66.398 0.09 6.82 6.67 8.82
5/27/2023 12:30:00 AM 18.91 66.038 0.09 6.78 6.74 8.62
5/27/2023 12:45:00 AM 18.68 65.624 0.09 6.74 9.41 8.49
5/27/2023 1:00:00 AM 18.49 65.282 0.091 6.71 7.64 8.32
5/27/2023 1:15:00 AM 18.31 64.958 0.091 6.66 7.69 8.13
5/27/2023 1:30:00 AM 18.12 64.616 0.091 6.63 7.19 7.96
5/27/2023 1:45:00 AM 17.93 64.274 0.091 6.6 6.24 7.77
5/27/2023 2:00:00 AM 17.77 63.986 0.091 6.57 7.81 7.61
5/27/2023 2:15:00 AM 17.61 63.698 0.091 6.53 6.95 7.44
5/27/2023 2:30:00 AM 17.44 63.392 0.091 6.52 7.18 7.29
5/27/2023 2:45:00 AM 17.29 63.122 0.091 6.49 7.85 7.16
5/27/2023 3:00:00 AM 17.2 62.96 0.091 6.46 6.99 6.98
5/27/2023 3:15:00 AM 17.01 62.618 0.092 6.46 7.13 6.87
5/27/2023 3:30:00 AM 16.89 62.402 0.091 6.42 14.95 6.71
5/27/2023 3:45:00 AM 16.68 62.024 0.091 6.41 7.8 6.68
5/27/2023 4:00:00 AM 16.54 61.772 0.091 6.4 8.21 6.58
5/27/2023 4:15:00 AM 16.43 61.574 0.091 6.38 9.89 6.48
5/27/2023 4:30:00 AM 16.29 61.322 0.091 6.39 7.27 6.44
5/27/2023 4:45:00 AM 16.18 61.124 0.091 6.35 8.51 6.38
5/27/2023 5:00:00 AM 16.07 60.926 0.092 6.35 22.37 6.32
5/27/2023 5:15:00 AM 15.93 60.674 0.091 6.34 8.51 6.3
5/27/2023 5:30:00 AM 15.84 60.512 0.092 6.34 8.74 6.22
5/27/2023 5:45:00 AM 15.69 60.242 0.091 6.34 7.85 6.28
5/27/2023 6:00:00 AM 15.58 60.044 0.092 6.33 6.93 6.26
5/27/2023 6:15:00 AM 15.48 59.864 0.091 6.33 7.92 6.26
5/27/2023 6:30:00 AM 15.38 59.684 0.091 6.32 7.2 6.22
5/27/2023 6:45:00 AM 15.28 59.504 0.092 6.3 36.59 6.14
5/27/2023 7:00:00 AM 15.18 59.324 0.091 6.29 10.25 6.2
5/27/2023 7:15:00 AM 15.06 59.108 0.091 6.29 7.28 6.23
5/27/2023 7:30:00 AM 14.97 58.946 0.091 6.27 7.86 6.25
5/27/2023 7:45:00 AM 14.9 58.82 0.091 6.27 19.55 6.18
5/27/2023 8:00:00 AM 14.8 58.64 0.091 6.26 7.83 6.25
5/27/2023 8:15:00 AM 14.75 58.55 0.091 6.26 8.06 6.23
5/27/2023 8:30:00 AM 14.7 58.46 0.091 6.26 9.99 6.24
5/27/2023 8:45:00 AM 14.67 58.406 0.091 6.27 9.33 6.23
5/27/2023 9:00:00 AM 14.66 58.388 0.091 6.26 9.36 6.24
5/27/2023 9:15:00 AM 14.67 58.406 0.091 6.26 9.27 6.27
5/27/2023 9:30:00 AM 14.71 58.478 0.091 6.27 10.25 6.29
5/27/2023 9:45:00 AM 14.7 58.46 0.091 6.26 12.39 6.33
5/27/2023 10:00:00 AM 14.68 58.424 0.091 6.27 7.38 6.36
5/27/2023 10:15:00 AM 14.73 58.514 0.091 6.28 7.33 6.34
5/27/2023 10:30:00 AM 14.79 58.622 0.091 6.28 7.59 6.37
5/27/2023 10:45:00 AM 14.86 58.748 0.091 6.31 7.93 6.51
5/27/2023 11:00:00 AM 14.95 58.91 0.091 6.31 8.2 6.57
5/27/2023 11:15:00 AM 15.07 59.126 0.091 6.32 10.48 6.65
5/27/2023 11:30:00 AM 15.19 59.342 0.091 6.3 8.6 6.75
5/27/2023 11:45:00 AM 15.3 59.54 0.091 6.33 6.94 6.8
5/27/2023 12:00:00 PM 15.41 59.738 0.09 6.34 6.09 6.76
5/27/2023 12:15:00 PM 15.67 60.206 0.09 6.34 5.49 6.74
5/27/2023 12:30:00 PM 16.13 61.034 0.09 6.37 4.93 7.06
5/27/2023 12:45:00 PM 16.47 61.646 0.09 6.4 4.74 7.47
5/27/2023 1:00:00 PM 16.5 61.7 0.09 6.41 9.17 7.27
5/27/2023 1:15:00 PM 17.88 64.184 0.09 6.48 5.05 7.88
5/27/2023 1:30:00 PM 17.13 62.834 0.09 6.47 6.43 7.72
5/27/2023 1:45:00 PM 18.74 65.732 0.089 6.53 5.82 8.3
5/27/2023 2:00:00 PM 17.62 63.716 0.09 6.46 6.34 7.85
5/27/2023 2:15:00 PM 17.77 63.986 0.089 6.5 6.5 7.96
5/27/2023 2:30:00 PM 17.91 64.238 0.09 6.5 5.58 7.91
5/27/2023 2:45:00 PM 18.46 65.228 0.09 6.53 5.3 8.05
5/27/2023 3:00:00 PM 21.1 69.98 0.09 6.69 4.55 9.03
5/27/2023 3:15:00 PM 19.94 67.892 0.089 6.6 17.03 8.53
5/27/2023 3:30:00 PM 19.37 66.866 0.089 6.59 23.11 8.16
5/27/2023 3:45:00 PM 19.2 66.56 0.089 6.58 6.58 8.22
5/27/2023 4:00:00 PM 19.43 66.974 0.089 6.62 5.05 8.28
5/27/2023 4:15:00 PM 20.99 69.782 0.09 6.64 5.06 8.85
5/27/2023 4:30:00 PM 20.08 68.144 0.089 6.65 5.15 8.54
5/27/2023 4:45:00 PM 19.6 67.28 0.09 6.63 8.14 8.58
5/27/2023 5:00:00 PM 21.02 69.836 0.09 6.68 5.58 8.89
5/27/2023 5:15:00 PM 20.68 69.224 0.09 6.68 4.59 8.82
5/27/2023 5:30:00 PM 19.98 67.964 0.09 6.69 5.1 8.86
5/27/2023 5:45:00 PM 21.34 70.412 0.09 6.65 5.9 8.67
5/27/2023 6:00:00 PM 20 68 0.09 6.66 10.67 8.38
5/27/2023 6:15:00 PM 20.71 69.278 0.089 6.67 6.05 8.76
5/27/2023 6:30:00 PM 20.08 68.144 0.09 6.64 7.15 8.42
5/27/2023 6:45:00 PM 20.71 69.278 0.09 6.69 4.96 8.55
5/27/2023 7:00:00 PM 21.44 70.592 0.09 6.69 5.2 8.78
5/27/2023 7:15:00 PM 21.18 70.124 0.09 6.69 5.78 8.7
5/27/2023 7:30:00 PM 20.92 69.656 0.09 6.63 5.25 8.37
5/27/2023 7:45:00 PM 21.53 70.754 0.09 6.66 5.88 8.61
5/27/2023 8:00:00 PM 21.76 71.168 0.09 6.75 4.97 8.89
5/27/2023 8:15:00 PM 22.04 71.672 0.09 6.74 6.71 8.82
5/27/2023 8:30:00 PM 21.99 71.582 0.09 6.75 5.4 8.87
5/27/2023 8:45:00 PM 21.61 70.898 0.09 6.78 7.54 9.02
5/27/2023 9:00:00 PM 21.77 71.186 0.09 6.79 6.41 9.08
5/27/2023 9:15:00 PM 21.38 70.484 0.09 6.74 6.65 8.79
5/27/2023 9:30:00 PM 21.75 71.15 0.09 6.82 7.08 9.15
5/27/2023 9:45:00 PM 21.65 70.97 0.09 6.8 5.77 8.98
5/27/2023 10:00:00 PM 21.36 70.448 0.09 6.73 7.66 8.68
5/27/2023 10:15:00 PM 21.57 70.826 0.091 6.72 6.9 8.65
5/27/2023 10:30:00 PM 21.48 70.664 0.091 6.74 8.2 8.64
5/27/2023 10:45:00 PM 21.44 70.592 0.091 6.67 9.68 8.35
5/27/2023 11:00:00 PM 21.3 70.34 0.091 6.7 8.74 8.44
5/27/2023 11:15:00 PM 21.16 70.088 0.091 6.73 7.32 8.44
5/27/2023 11:30:00 PM 21.07 69.926 0.091 6.72 8.01 8.47
5/27/2023 11:45:00 PM 20.95 69.71 0.091 6.7 6.72 8.28
5/28/2023 12:00:00 AM 20.83 69.494 0.092 6.7 8.9 8.22
5/28/2023 12:15:00 AM 20.73 69.314 0.092 6.72 7.2 8.3
5/28/2023 12:30:00 AM 20.56 69.008 0.092 6.7 6.53 8.22
5/28/2023 12:45:00 AM 20.39 68.702 0.092 6.68 9.2 8.04
5/28/2023 1:00:00 AM 20.24 68.432 0.092 6.65 6.97 7.96
5/28/2023 1:15:00 AM 20.07 68.126 0.092 6.62 7.44 7.8
5/28/2023 1:30:00 AM 19.92 67.856 0.092 6.59 14.4 7.58
5/28/2023 1:45:00 AM 19.75 67.55 0.092 6.56 8.17 7.43
5/28/2023 2:00:00 AM 19.59 67.262 0.092 6.54 7.5 7.3
5/28/2023 2:15:00 AM 19.43 66.974 0.092 6.52 7.3 7.14
5/28/2023 2:30:00 AM 19.28 66.704 0.092 6.49 8.84 6.97
5/28/2023 2:45:00 AM 19.15 66.47 0.092 6.47 9.5 6.81
5/28/2023 3:00:00 AM 19 66.2 0.093 6.46 7.88 6.68
5/28/2023 3:15:00 AM 18.89 66.002 0.093 6.43 11.68 6.51
5/28/2023 3:30:00 AM 18.73 65.714 0.093 6.42 7.86 6.42
5/28/2023 3:45:00 AM 18.62 65.516 0.093 6.41 8.02 6.29
5/28/2023 4:00:00 AM 18.49 65.282 0.093 6.39 28.46 6.2
5/28/2023 4:15:00 AM 18.38 65.084 0.093 6.36 7.25 6.09
5/28/2023 4:30:00 AM 18.24 64.832 0.093 6.37 8.3 6.01
5/28/2023 4:45:00 AM 18.12 64.616 0.093 6.35 7.08 5.94
5/28/2023 5:00:00 AM 18 64.4 0.092 6.34 7.78 5.86
5/28/2023 5:15:00 AM 17.9 64.22 0.092 6.33 7.32 5.81
5/28/2023 5:30:00 AM 17.81 64.058 0.092 6.32 7.51 5.74
5/28/2023 5:45:00 AM 17.72 63.896 0.093 6.32 7.04 5.67
5/28/2023 6:00:00 AM 17.64 63.752 0.092 6.31 9.76 5.61
5/28/2023 6:15:00 AM 17.55 63.59 0.092 6.32 7.43 5.59
5/28/2023 6:30:00 AM 17.45 63.41 0.092 6.31 15.11 5.57
5/28/2023 6:45:00 AM 17.37 63.266 0.092 6.29 12.8 5.52
5/28/2023 7:00:00 AM 17.28 63.104 0.092 6.3 8.56 5.49
5/28/2023 7:15:00 AM 17.2 62.96 0.092 6.3 9.06 5.44
5/28/2023 7:30:00 AM 17.11 62.798 0.092 6.28 14.9 5.45
5/28/2023 7:45:00 AM 17.09 62.762 0.093 6.28 20.88 5.35
5/28/2023 8:00:00 AM 17.02 62.636 0.092 6.29 10.43 5.35
5/28/2023 8:15:00 AM 16.96 62.528 0.092 6.27 9.05 5.37
5/28/2023 8:30:00 AM 16.92 62.456 0.092 6.29 9.06 5.4
5/28/2023 8:45:00 AM 16.92 62.456 0.092 6.29 8.37 5.36
5/28/2023 9:00:00 AM 16.96 62.528 0.092 6.25 8.05 5.33
5/28/2023 9:15:00 AM 16.97 62.546 0.093 6.27 8.72 5.36
5/28/2023 9:30:00 AM 16.98 62.564 0.092 6.28 10.48 5.39
5/28/2023 9:45:00 AM 16.97 62.546 0.092 6.28 8.01 5.45
5/28/2023 10:00:00 AM 17 62.6 0.092 6.28 8.31 5.41
5/28/2023 10:15:00 AM 17.05 62.69 0.092 6.28 8.35 5.45
5/28/2023 10:30:00 AM 17.13 62.834 0.092 6.29 8.11 5.48
5/28/2023 10:45:00 AM 17.18 62.924 0.092 6.3 8.35 5.57
5/28/2023 11:00:00 AM 17.26 63.068 0.092 6.31 7.74 5.58
5/28/2023 11:15:00 AM 17.36 63.248 0.092 6.29 7.28 5.59
5/28/2023 11:30:00 AM 17.45 63.41 0.092 6.29 6.9 5.4
5/28/2023 11:45:00 AM 17.6 63.68 0.092 6.29 6.16 5.26
5/28/2023 12:00:00 PM 17.75 63.95 0.092 6.3 6.88 5.56
5/28/2023 12:15:00 PM 18.04 64.472 0.091 6.33 5.79 5.99
5/28/2023 12:30:00 PM 18.22 64.796 0.091 6.36 5.67 6.17
5/28/2023 12:45:00 PM 18.33 64.994 0.092 6.38 6.14 6.42
5/28/2023 1:00:00 PM 18.59 65.462 0.092 6.39 5.99 6.66
5/28/2023 1:15:00 PM 19.16 66.488 0.091 6.44 5.8 7.02
5/28/2023 1:30:00 PM 19.33 66.794 0.091 6.46 7.6 7.19
5/28/2023 1:45:00 PM 19.72 67.496 0.091 6.48 5.29 7.28
5/28/2023 2:00:00 PM 19.84 67.712 0.091 6.45 5.57 7.23
5/28/2023 2:15:00 PM 19.56 67.208 0.091 6.45 6.72 7.21
5/28/2023 2:30:00 PM 20.37 68.666 0.091 6.49 6.19 7.61
5/28/2023 2:45:00 PM 20.03 68.054 0.091 6.45 6.34 7.2
5/28/2023 3:00:00 PM 20.28 68.504 0.091 6.51 6.94 7.61
5/28/2023 3:15:00 PM 20.13 68.234 0.091 6.46 5.96 7.4
5/28/2023 3:30:00 PM 20.17 68.306 0.091 6.49 5.99 7.48
5/28/2023 3:45:00 PM 20.9 69.62 0.091 6.56 5.92 8.02
5/28/2023 4:00:00 PM 21.02 69.836 0.091 6.57 6.35 8.08
5/28/2023 4:15:00 PM 21.16 70.088 0.091 6.57 6.04 8.09
5/28/2023 4:30:00 PM 21.47 70.646 0.091 6.58 6.75 8.16
5/28/2023 4:45:00 PM 21.19 70.142 0.091 6.56 5.82 8.07
5/28/2023 5:00:00 PM 21.75 71.15 0.091 6.62 6.9 8.33
5/28/2023 5:15:00 PM 21.64 70.952 0.091 6.58 6.15 8.14
5/28/2023 5:30:00 PM 21.45 70.61 0.091 6.58 6.72 7.97
5/28/2023 5:45:00 PM 21.53 70.754 0.091 6.61 6.07 8.18
5/28/2023 6:00:00 PM 21.66 70.988 0.092 6.61 6.27 8.02
5/28/2023 6:15:00 PM 21.78 71.204 0.092 6.6 6.2 8.07
5/28/2023 6:30:00 PM 23.21 73.778 0.092 6.66 7.19 8.39
5/28/2023 6:45:00 PM 22.86 73.148 0.092 6.7 7.68 8.15
5/28/2023 7:00:00 PM 22.95 73.31 0.091 6.71 7.42 8.32
5/28/2023 7:15:00 PM 23.37 74.066 0.091 6.77 6.04 8.56
5/28/2023 7:30:00 PM 23.56 74.408 0.091 6.83 6.13 8.72
5/28/2023 7:45:00 PM 23.77 74.786 0.092 6.78 7.22 8.74
5/28/2023 8:00:00 PM 23.48 74.264 0.092 6.75 6.27 8.5
5/28/2023 8:15:00 PM 23.32 73.976 0.092 6.79 8.94 8.54
5/28/2023 8:30:00 PM 23.74 74.732 0.091 6.77 6.76 8.68
5/28/2023 8:45:00 PM 23.68 74.624 0.092 6.76 7.14 8.58
5/28/2023 9:00:00 PM 23.64 74.552 0.092 6.81 6.47 8.65
5/28/2023 9:15:00 PM 23.65 74.57 0.092 6.8 6.58 8.63
5/28/2023 9:30:00 PM 23.63 74.534 0.092 6.78 8.01 8.53
5/28/2023 9:45:00 PM 23.59 74.462 0.092 6.79 6.91 8.56
5/28/2023 10:00:00 PM 23.48 74.264 0.092 6.79 7.12 8.53
5/28/2023 10:15:00 PM 23.37 74.066 0.092 6.77 6.26 8.48
5/28/2023 10:30:00 PM 23.23 73.814 0.092 6.73 6.73 8.24
5/28/2023 10:45:00 PM 23.06 73.508 0.092 6.7 7.42 8.08
5/28/2023 11:00:00 PM 22.95 73.31 0.092 6.65 24.03 7.8
5/28/2023 11:15:00 PM 22.77 72.986 0.092 6.64 7.5 7.78
5/28/2023 11:30:00 PM 22.62 72.716 0.092 6.63 6.99 7.78
5/28/2023 11:45:00 PM 22.48 72.464 0.092 6.6 8.14 7.59
5/29/2023 12:00:00 AM 22.31 72.158 0.093 6.59 9.33 7.51
5/29/2023 12:15:00 AM 22.18 71.924 0.093 6.58 9.73 7.4
5/29/2023 12:30:00 AM 22.05 71.69 0.093 6.56 11.78 7.3
5/29/2023 12:45:00 AM 21.9 71.42 0.093 6.55 7.84 7.24
5/29/2023 1:00:00 AM 21.76 71.168 0.093 6.53 7.37 7.07
5/29/2023 1:15:00 AM 21.61 70.898 0.093 6.51 8.14 6.99
5/29/2023 1:30:00 AM 21.45 70.61 0.093 6.49 7.77 6.83
5/29/2023 1:45:00 AM 21.29 70.32201 0.093 6.47 7.53 6.64
5/29/2023 2:00:00 AM 21.16 70.088 0.093 6.44 8.3 6.45
5/29/2023 2:15:00 AM 21.02 69.836 0.093 6.42 8.26 6.31
5/29/2023 2:30:00 AM 20.89 69.602 0.093 6.4 6.9 6.08
5/29/2023 2:45:00 AM 20.74 69.332 0.093 6.39 7.2 6.06
5/29/2023 3:00:00 AM 20.6 69.08 0.093 6.37 7.43 5.97
5/29/2023 3:15:00 AM 20.49 68.882 0.093 6.36 9.99 5.8
5/29/2023 3:30:00 AM 20.35 68.63 0.093 6.35 7.7 5.75
5/29/2023 3:45:00 AM 20.22 68.396 0.093 6.34 6.99 5.69
5/29/2023 4:00:00 AM 20.09 68.162 0.093 6.33 8.19 5.57
5/29/2023 4:15:00 AM 19.97 67.946 0.093 6.32 8.18 5.53
5/29/2023 4:30:00 AM 19.86 67.748 0.093 6.31 7.13 5.42
5/29/2023 4:45:00 AM 19.71 67.478 0.093 6.31 8.57 5.41
5/29/2023 5:00:00 AM 19.59 67.262 0.093 6.3 7.56 5.36
5/29/2023 5:15:00 AM 19.47 67.046 0.093 6.3 11.55 5.27
5/29/2023 5:30:00 AM 19.38 66.884 0.093 6.29 7.98 5.21
5/29/2023 5:45:00 AM 19.25 66.65 0.093 6.29 7.9 5.21
5/29/2023 6:00:00 AM 19.12 66.416 0.093 6.29 8.3 5.24
5/29/2023 6:15:00 AM 19.02 66.236 0.093 6.29 7.14 5.21
5/29/2023 6:30:00 AM 18.9 66.02 0.093 6.28 42.55 5.14
5/29/2023 6:45:00 AM 18.78 65.804 0.092 6.28 8.21 5.19
5/29/2023 7:00:00 AM 18.68 65.624 0.092 6.28 7.62 5.18
5/29/2023 7:15:00 AM 18.58 65.444 0.092 6.28 8.64 5.22
5/29/2023 7:30:00 AM 18.48 65.264 0.092 6.28 8.52 5.22
5/29/2023 7:45:00 AM 18.38 65.084 0.092 6.28 8.8 5.21
5/29/2023 8:00:00 AM 18.28 64.904 0.092 6.28 10.45 5.22
5/29/2023 8:15:00 AM 18.2 64.76 0.092 6.28 9.87 5.21
5/29/2023 8:30:00 AM 18.11 64.598 0.092 6.29 9.22 5.23
5/29/2023 8:45:00 AM 18.06 64.508 0.092 6.28 9.51 5.24
5/29/2023 9:00:00 AM 18.03 64.454 0.092 6.28 23.6 5.26
5/29/2023 9:15:00 AM 18.02 64.436 0.093 6.28 9.43 5.27
5/29/2023 9:30:00 AM 17.92 64.256 0.092 6.29 11.25 5.33
5/29/2023 9:45:00 AM 17.87 64.166 0.092 6.29 9.11 5.36
5/29/2023 10:00:00 AM 17.85 64.13 0.092 6.29 8.56 5.43
5/29/2023 10:15:00 AM 17.78 64.004 0.092 6.31 9.7 5.6
5/29/2023 10:30:00 AM 17.8 64.04 0.092 6.32 8.89 5.76
5/29/2023 10:45:00 AM 17.86 64.148 0.092 6.33 9.17 5.83
5/29/2023 11:00:00 AM 17.95 64.31 0.092 6.33 9.75 5.88
5/29/2023 11:15:00 AM 18.04 64.472 0.092 6.34 7.49 5.96
5/29/2023 11:30:00 AM 18.17 64.706 0.092 6.36 7.11 6.13
5/29/2023 11:45:00 AM 18.3 64.94 0.092 6.37 6.92 6.44
5/29/2023 12:00:00 PM 18.43 65.174 0.092 6.39 6.96 6.57
5/29/2023 12:15:00 PM 18.54 65.372 0.092 6.37 6.36 6.45
5/29/2023 12:30:00 PM 18.66 65.588 0.092 6.37 5.91 6.38
5/29/2023 12:45:00 PM 18.83 65.894 0.092 6.37 6.06 6.34
5/29/2023 1:00:00 PM 19 66.2 0.092 6.38 6.47 6.37
5/29/2023 1:15:00 PM 19.34 66.812 0.092 6.41 6.71 6.61
5/29/2023 1:30:00 PM 19.6 67.28 0.092 6.42 6.01 6.85
5/29/2023 1:45:00 PM 19.99 67.982 0.092 6.46 6.13 7.24
5/29/2023 2:00:00 PM 19.91 67.838 0.092 6.5 6.54 7.49
5/29/2023 2:15:00 PM 20.2 68.36 0.092 6.53 6.77 7.73
5/29/2023 2:30:00 PM 20.67 69.206 0.092 6.53 5.93 7.62
5/29/2023 2:45:00 PM 20.86 69.548 0.092 6.6 7.59 8.17
5/29/2023 3:00:00 PM 21.17 70.106 0.092 6.6 6.25 8.11
5/29/2023 3:15:00 PM 21.18 70.124 0.092 6.61 6.51 8.36
5/29/2023 3:30:00 PM 21.2 70.16 0.092 6.63 7.02 8.27
5/29/2023 3:45:00 PM 21.67 71.006 0.092 6.66 7.46 8.56
5/29/2023 4:00:00 PM 22.04 71.672 0.091 6.69 6.25 8.73
5/29/2023 4:15:00 PM 21.34 70.412 0.092 6.68 6.2 8.45
5/29/2023 4:30:00 PM 21.85 71.33 0.092 6.68 6.35 8.56
5/29/2023 4:45:00 PM 22.21 71.978 0.092 6.69 6.07 8.53
5/29/2023 5:00:00 PM 22.8 73.04 0.092 6.78 6.61 9.01
5/29/2023 5:15:00 PM 23.44 74.192 0.091 6.83 6.72 9.19
5/29/2023 5:30:00 PM 22.23 72.014 0.092 6.71 6.31 8.58
5/29/2023 5:45:00 PM 24.29 75.722 0.091 6.83 6.64 8.93
5/29/2023 6:00:00 PM 22.72 72.896 0.092 6.8 6.67 8.34
5/29/2023 6:15:00 PM 24.31 75.758 0.092 6.92 7.52 8.85
5/29/2023 6:30:00 PM 24.44 75.992 0.092 6.88 7.83 8.68
5/29/2023 6:45:00 PM 24.15 75.47 0.092 6.86 6.84 8.67
5/29/2023 7:00:00 PM 24.17 75.506 0.091 6.92 6.19 9.15
5/29/2023 7:15:00 PM 24.34 75.812 0.092 6.95 7.52 8.94
5/29/2023 7:30:00 PM 24.69 76.442 0.091 6.96 7.18 9.01
5/29/2023 7:45:00 PM 24.72 76.496 0.092 6.89 6.32 8.76
5/29/2023 8:00:00 PM 24.89 76.802 0.091 6.96 7.18 8.85
5/29/2023 8:15:00 PM 24.88 76.784 0.092 6.94 7.01 8.72
5/29/2023 8:30:00 PM 24.91 76.838 0.092 6.95 6.99 8.71
5/29/2023 8:45:00 PM 24.56 76.208 0.092 6.94 7.04 8.86
5/29/2023 9:00:00 PM 24.54 76.172 0.092 6.94 7.37 8.77
5/29/2023 9:15:00 PM 24.35 75.83 0.092 6.87 8.6 8.67
5/29/2023 9:30:00 PM 24.33 75.794 0.092 6.85 12.89 8.45
5/29/2023 9:45:00 PM 24.25 75.65 0.092 6.85 9.38 8.39
5/29/2023 10:00:00 PM 24.15 75.47 0.092 6.81 8.71 8.17
5/29/2023 10:15:00 PM 23.91 75.038 0.092 6.81 8.03 8.24
5/29/2023 10:30:00 PM 23.77 74.786 0.093 6.78 10.98 8.06
5/29/2023 10:45:00 PM 23.6 74.48 0.093 6.78 7.84 8.1
5/29/2023 11:00:00 PM 23.42 74.156 0.093 6.74 9.18 7.92
5/29/2023 11:15:00 PM 23.15 73.67 0.093 6.75 9.81 7.97
5/29/2023 11:30:00 PM 22.95 73.31 0.093 6.73 9.64 7.8
5/29/2023 11:45:00 PM 22.71 72.878 0.093 6.71 12.26 7.76
5/30/2023 12:00:00 AM 22.49 72.482 0.093 6.67 11.9 7.62
5/30/2023 12:15:00 AM 22.29 72.122 0.093 6.65 9.22 7.52
5/30/2023 12:30:00 AM 22.02 71.636 0.093 6.62 8.39 7.29
5/30/2023 12:45:00 AM 21.86 71.348 0.093 6.61 8.2 7.22
5/30/2023 1:00:00 AM 21.66 70.988 0.093 6.6 10.16 7.16
5/30/2023 1:15:00 AM 21.46 70.628 0.093 6.57 9.88 7.02
5/30/2023 1:30:00 AM 21.23 70.214 0.093 6.55 8.65 6.86
5/30/2023 1:45:00 AM 21.03 69.854 0.094 6.53 9.66 6.77
5/30/2023 2:00:00 AM 20.85 69.53 0.094 6.52 11.26 6.64
5/30/2023 2:15:00 AM 20.65 69.17 0.094 6.5 8.53 6.57
5/30/2023 2:30:00 AM 20.48 68.864 0.094 6.49 8.78 6.54
5/30/2023 2:45:00 AM 20.31 68.558 0.094 6.47 8.56 6.43
5/30/2023 3:00:00 AM 20.17 68.306 0.094 6.46 9.16 6.33
5/30/2023 3:15:00 AM 20 68 0.094 6.44 8.85 6.25
5/30/2023 3:30:00 AM 19.87 67.766 0.094 6.43 9.3 6.15
5/30/2023 3:45:00 AM 19.71 67.478 0.094 6.41 10.26 6.06
5/30/2023 4:00:00 AM 19.57 67.226 0.094 6.4 11.51 6.05
5/30/2023 4:15:00 AM 19.41 66.938 0.094 6.4 8.39 6.03
5/30/2023 4:30:00 AM 19.28 66.704 0.094 6.4 8.64 5.99
5/30/2023 4:45:00 AM 19.13 66.434 0.094 6.39 29.04 5.94
5/30/2023 5:00:00 AM 19.01 66.218 0.094 6.38 10.97 5.9
5/30/2023 5:15:00 AM 18.91 66.038 0.094 6.37 14.53 5.88
5/30/2023 5:30:00 AM 18.78 65.804 0.094 6.36 9.82 5.83
5/30/2023 5:45:00 AM 18.64 65.552 0.094 6.36 8.61 5.81
5/30/2023 6:00:00 AM 18.54 65.372 0.094 6.35 12.85 5.73
5/30/2023 6:15:00 AM 18.48 65.264 0.094 6.34 9.9 5.66
5/30/2023 6:30:00 AM 18.37 65.066 0.094 6.34 19.66 5.64
5/30/2023 6:45:00 AM 18.23 64.814 0.094 6.33 13.15 5.66
5/30/2023 7:00:00 AM 18.11 64.598 0.094 6.32 12.42 5.64
5/30/2023 7:15:00 AM 18 64.4 0.094 6.33 11.66 5.59
5/30/2023 7:30:00 AM 17.91 64.238 0.094 6.32 13.72 5.64
5/30/2023 7:45:00 AM 17.81 64.058 0.094 6.32 12.56 5.62
5/30/2023 8:00:00 AM 17.73 63.914 0.094 6.32 12.55 5.61
5/30/2023 8:15:00 AM 17.64 63.752 0.094 6.32 16.62 5.63
5/30/2023 8:30:00 AM 17.56 63.608 0.094 6.32 12.49 5.62
5/30/2023 8:45:00 AM 17.51 63.518 0.093 6.31 10.78 5.65
5/30/2023 9:00:00 AM 17.49 63.482 0.094 6.32 12.32 5.67
5/30/2023 9:15:00 AM 17.43 63.374 0.093 6.33 11.66 5.76
5/30/2023 9:30:00 AM 17.36 63.248 0.093 6.33 12.58 5.73
5/30/2023 9:45:00 AM 17.22 62.996 0.093 6.33 14.75 5.83
5/30/2023 10:00:00 AM 17.16 62.888 0.093 6.33 16.31 5.83
5/30/2023 10:15:00 AM 17.12 62.816 0.093 6.34 16.14 5.92
5/30/2023 10:30:00 AM 17.07 62.726 0.093 6.35 19.99 6.06
5/30/2023 10:45:00 AM 17.04 62.672 0.093 6.35 15.21 6.19
5/30/2023 11:00:00 AM 17.12 62.816 0.093 6.36 17.9 6.24
5/30/2023 11:15:00 AM 17.2 62.96 0.093 6.38 14.25 6.48
5/30/2023 11:30:00 AM 17.26 63.068 0.093 6.4 13.69 6.68
5/30/2023 11:45:00 AM 17.37 63.266 0.093 6.4 14.92 6.73
5/30/2023 12:00:00 PM 17.49 63.482 0.093 6.39 14.08 6.61
5/30/2023 12:15:00 PM 17.61 63.698 0.093 6.43 438.14 6.97
5/30/2023 12:30:00 PM 17.72 63.896 0.094 6.45 587.7 7.25
5/30/2023 12:45:00 PM 17.89 64.202 0.093 6.41 235.66 6.97
5/30/2023 1:00:00 PM 18 64.4 0.093 6.43 45.16 7.16
5/30/2023 1:15:00 PM 18.13 64.634 0.093 6.34 26.24 7.15
5/30/2023 1:30:00 PM 18.26 64.868 0.093 6.42 18.3 6.97
5/30/2023 1:45:00 PM 18.53 65.354 0.093 6.45 15.8 7.25
5/30/2023 2:00:00 PM 18.65 65.57 0.092 6.55 15.39 8.08
5/30/2023 2:15:00 PM 18.73 65.714 0.092 6.55 13.93 7.94
5/30/2023 2:30:00 PM 18.97 66.146 0.092 6.53 14.26 7.9
5/30/2023 2:45:00 PM 19.23 66.614 0.092 6.55 12.18 8.09
5/30/2023 3:00:00 PM 19.11 66.398 0.092 6.58 12.98 8.1
5/30/2023 3:15:00 PM 19.3 66.74 0.092 6.6 12 8.45
5/30/2023 3:30:00 PM 19.55 67.19 0.092 6.66 15.48 8.57
5/30/2023 3:45:00 PM 19.96 67.92799 0.092 6.66 13.54 8.8
5/30/2023 4:00:00 PM 19.74 67.532 0.092 6.66 15.11 8.5
5/30/2023 4:15:00 PM 20.29 68.522 0.092 6.66 16.44 8.67
5/30/2023 4:30:00 PM 19.8 67.64 0.092 6.64 11.71 8.41
5/30/2023 4:45:00 PM 20.3 68.54 0.092 6.65 11.13 8.61
5/30/2023 5:00:00 PM 20.16 68.288 0.093 6.68 15.4 8.69
5/30/2023 5:15:00 PM 20.23 68.414 0.092 6.7 12.98 8.74
5/30/2023 5:30:00 PM 20.36 68.648 0.092 6.69 13.38 8.87
5/30/2023 5:45:00 PM 20.35 68.63 0.092 6.71 13.29 8.74
5/30/2023 6:00:00 PM 21.06 69.908 0.092 6.72 11.5 8.92
5/30/2023 6:15:00 PM 20.52 68.936 0.092 6.71 11.72 8.86
5/30/2023 6:30:00 PM 21.55 70.79 0.092 6.66 13.53 8.38
5/30/2023 6:45:00 PM 21.25 70.25 0.091 6.69 10.4 8.57
5/30/2023 7:00:00 PM 22.06 71.708 0.092 6.72 11.3 8.92
5/30/2023 7:15:00 PM 21.39 70.502 0.092 6.69 11.51 8.46
5/30/2023 7:30:00 PM 21.92 71.456 0.092 6.69 10.63 8.63
5/30/2023 7:45:00 PM 22.15 71.87 0.092 6.74 12.99 8.83
5/30/2023 8:00:00 PM 22.26 72.068 0.092 6.78 9.63 9.03
5/30/2023 8:15:00 PM 22.09 71.762 0.092 6.79 18.79 8.98
5/30/2023 8:30:00 PM 22.11 71.798 0.092 6.73 11.55 8.89
5/30/2023 8:45:00 PM 22.5 72.5 0.093 6.74 10.04 8.48
5/30/2023 9:00:00 PM 22.08 71.744 0.093 6.68 17.16 8.51
5/30/2023 9:15:00 PM 22.27 72.086 0.092 6.81 11.62 9.07
5/30/2023 9:30:00 PM 22.24 72.032 0.093 6.77 9.03 8.73
5/30/2023 9:45:00 PM 22.02 71.636 0.093 6.77 9.64 8.8
5/30/2023 10:00:00 PM 22.26 72.068 0.093 6.8 9.07 8.87
5/30/2023 10:15:00 PM 22.08 71.744 0.094 6.8 9.29 8.7
5/30/2023 10:30:00 PM 21.99 71.582 0.094 6.8 9.02 8.56
5/30/2023 10:45:00 PM 21.99 71.582 0.094 6.8 9.99 8.57
5/30/2023 11:00:00 PM 21.87 71.366 0.095 6.78 10.19 8.51
5/30/2023 11:15:00 PM 21.85 71.33 0.095 6.78 9.15 8.45
5/30/2023 11:30:00 PM 21.85 71.33 0.095 6.78 11.26 8.39
5/30/2023 11:45:00 PM 21.72 71.096 0.095 6.79 9.78 8.39
5/31/2023 12:00:00 AM 21.56 70.808 0.095 6.75 10.46 8.03
5/31/2023 12:15:00 AM 21.4 70.52 0.096 6.73 11 8.01
5/31/2023 12:30:00 AM 21.32 70.376 0.096 6.71 10.98 7.81
5/31/2023 12:45:00 AM 21.21 70.17799 0.096 6.71 11.43 7.88
5/31/2023 1:00:00 AM 21.09 69.962 0.096 6.7 11.39 7.89
5/31/2023 1:15:00 AM 20.86 69.548 0.096 6.67 10.75 7.64
5/31/2023 1:30:00 AM 20.76 69.368 0.096 6.66 10.42 7.58
5/31/2023 1:45:00 AM 20.62 69.116 0.096 6.65 9.65 7.55
5/31/2023 2:00:00 AM 20.47 68.846 0.097 6.64 10.22 7.48
5/31/2023 2:15:00 AM 20.31 68.558 0.097 6.62 10.08 7.38
5/31/2023 2:30:00 AM 20.19 68.342 0.097 6.59 35.51 7.2
5/31/2023 2:45:00 AM 20.05 68.09 0.097 6.57 12.99 7.09
5/31/2023 3:00:00 AM 19.93 67.874 0.097 6.55 11.6 6.93
5/31/2023 3:15:00 AM 19.81 67.658 0.097 6.53 10.73 6.77
5/31/2023 3:30:00 AM 19.67 67.406 0.097 6.5 10.1 6.62
5/31/2023 3:45:00 AM 19.53 67.154 0.097 6.49 10.58 6.5
5/31/2023 4:00:00 AM 19.4 66.92 0.097 6.46 16.42 6.37
5/31/2023 4:15:00 AM 19.28 66.704 0.098 6.44 11.26 6.23
5/31/2023 4:30:00 AM 19.16 66.488 0.098 6.43 10.38 6.09
5/31/2023 4:45:00 AM 19.02 66.236 0.098 6.41 10.54 5.98
5/31/2023 5:00:00 AM 18.9 66.02 0.098 6.39 11.12 5.86
5/31/2023 5:15:00 AM 18.78 65.804 0.098 6.38 12.3 5.78
5/31/2023 5:30:00 AM 18.64 65.552 0.098 6.37 10.6 5.67
5/31/2023 5:45:00 AM 18.55 65.39 0.098 6.36 10.25 5.58
5/31/2023 6:00:00 AM 18.43 65.174 0.098 6.35 9.45 5.51
5/31/2023 6:15:00 AM 18.32 64.976 0.098 6.33 9.96 5.42
5/31/2023 6:30:00 AM 18.22 64.796 0.098 6.33 11.35 5.36
5/31/2023 6:45:00 AM 18.13 64.634 0.098 6.32 9.38 5.29
5/31/2023 7:00:00 AM 18.04 64.472 0.098 6.31 10.62 5.23
5/31/2023 7:15:00 AM 17.95 64.31 0.098 6.3 9.71 5.19
5/31/2023 7:30:00 AM 17.85 64.13 0.098 6.29 11.69 5.1
5/31/2023 7:45:00 AM 17.8 64.04 0.098 6.29 9.82 4.99
5/31/2023 8:00:00 AM 17.71 63.878 0.098 6.28 10.5 4.98
5/31/2023 8:15:00 AM 17.64 63.752 0.098 6.27 9.89 4.9
5/31/2023 8:30:00 AM 17.6 63.68 0.098 6.27 11.71 4.9
5/31/2023 8:45:00 AM 17.57 63.626 0.098 6.27 10.98 4.9
5/31/2023 9:00:00 AM 17.6 63.68 0.098 6.26 12.29 4.84
5/31/2023 9:15:00 AM 17.58 63.644 0.098 6.26 10.87 4.87
5/31/2023 9:30:00 AM 17.52 63.536 0.098 6.25 15.18 4.85
5/31/2023 9:45:00 AM 17.48 63.464 0.097 6.25 13.01 4.85
5/31/2023 10:00:00 AM 17.45 63.41 0.097 6.25 11.43 4.88
5/31/2023 10:15:00 AM 17.44 63.392 0.097 6.25 10.29 4.88
5/31/2023 10:30:00 AM 17.47 63.446 0.097 6.25 12.1 4.91
5/31/2023 10:45:00 AM 17.52 63.536 0.098 6.26 10.15 4.94
5/31/2023 11:00:00 AM 17.6 63.68 0.098 6.26 10.46 4.94
5/31/2023 11:15:00 AM 17.63 63.734 0.098 6.26 10.15 4.99
5/31/2023 11:30:00 AM 17.69 63.842 0.098 6.26 13.44 5.03
5/31/2023 11:45:00 AM 17.75 63.95 0.098 6.26 10.52 5.02
5/31/2023 12:00:00 PM 17.92 64.256 0.098 6.24 10.08 4.67
5/31/2023 12:15:00 PM 17.97 64.346 0.098 6.27 9.74 5.16
5/31/2023 12:30:00 PM 17.99 64.382 0.097 6.27 12.76 5.26
5/31/2023 12:45:00 PM 18.24 64.832 0.097 6.27 9.16 5.16
5/31/2023 1:00:00 PM 18.24 64.832 0.097 6.3 10.02 5.6
5/31/2023 1:15:00 PM 18.3 64.94 0.097 6.3 9.71 5.59
5/31/2023 1:30:00 PM 18.43 65.174 0.097 6.28 9.14 5.32
5/31/2023 1:45:00 PM 18.48 65.264 0.097 6.31 9.81 5.65
5/31/2023 2:00:00 PM 18.71 65.67799 0.097 6.28 8.86 5.47
5/31/2023 2:15:00 PM 18.72 65.696 0.097 6.33 9.45 5.83
5/31/2023 2:30:00 PM 18.73 65.714 0.097 6.33 10.15 6.04
5/31/2023 2:45:00 PM 18.76 65.768 0.097 6.34 9.57 6.05
5/31/2023 3:00:00 PM 18.99 66.182 0.097 6.34 8.71 6.31
5/31/2023 3:15:00 PM 18.96 66.128 0.097 6.36 9.01 6.38
5/31/2023 3:30:00 PM 18.96 66.128 0.097 6.37 9.29 6.42
5/31/2023 3:45:00 PM 19.25 66.65 0.097 6.35 9.16 6.3
5/31/2023 4:00:00 PM 19.32 66.776 0.097 6.36 8.74 6.29
5/31/2023 4:15:00 PM 19.4 66.92 0.097 6.37 9.15 6.37
5/31/2023 4:30:00 PM 19.25 66.65 0.097 6.38 9.19 6.65
5/31/2023 4:45:00 PM 19.29 66.722 0.097 6.38 8.7 6.34
5/31/2023 5:00:00 PM 19.37 66.866 0.096 6.37 9.19 6.5
5/31/2023 5:15:00 PM 19.53 67.154 0.097 6.36 9.36 6.33
5/31/2023 5:30:00 PM 19.51 67.118 0.097 6.37 8.46 6.53
5/31/2023 5:45:00 PM 19.51 67.118 0.097 6.39 8.63 6.62
5/31/2023 6:00:00 PM 19.68 67.424 0.096 6.38 9.11 6.61
5/31/2023 6:15:00 PM 19.77 67.586 0.096 6.4 9.49 6.64
5/31/2023 6:30:00 PM 19.71 67.478 0.097 6.37 8.63 6.31
5/31/2023 6:45:00 PM 19.87 67.766 0.096 6.38 9.34 6.7
5/31/2023 7:00:00 PM 19.78 67.604 0.097 6.39 8.63 6.67
5/31/2023 7:15:00 PM 19.74 67.532 0.097 6.39 8.78 6.56
5/31/2023 7:30:00 PM 19.73 67.514 0.097 6.4 8.66 6.66
5/31/2023 7:45:00 PM 19.88 67.784 0.097 6.4 8.93 6.63
5/31/2023 8:00:00 PM 19.81 67.658 0.097 6.38 8.97 6.7
5/31/2023 8:15:00 PM 19.87 67.766 0.097 6.39 10.23 6.66
5/31/2023 8:30:00 PM 19.68 67.424 0.097 6.37 10.3 6.34
5/31/2023 8:45:00 PM 19.77 67.586 0.097 6.37 9.41 6.46
5/31/2023 9:00:00 PM 19.83 67.694 0.097 6.37 9.54 6.46
5/31/2023 9:15:00 PM 20.12 68.216 0.096 6.39 9.74 6.37
5/31/2023 9:30:00 PM 20.08 68.144 0.097 6.38 9.75 6.45
5/31/2023 9:45:00 PM 20.7 69.26 0.096 6.38 10.54 6.73
5/31/2023 10:00:00 PM 19.92 67.856 0.097 6.35 42.29 6.2
5/31/2023 10:15:00 PM 20.18 68.324 0.097 6.36 12.58 6.29
5/31/2023 10:30:00 PM 20.65 69.17 0.096 6.37 12.23 6.46
5/31/2023 10:45:00 PM 21.13 70.034 0.097 6.4 10.38 6.54
5/31/2023 11:00:00 PM 20.25 68.45 0.097 6.35 14.26 5.81
5/31/2023 11:15:00 PM 20.38 68.684 0.097 6.35 16.44 6.12
5/31/2023 11:30:00 PM 20.69 69.242 0.097 6.33 14.5 6.2
5/31/2023 11:45:00 PM 20.53 68.954 0.097 6.33 12 5.85
6/1/2023 12:00:00 AM 20.61 69.098 0.097 6.35 11.03 6.02
6/1/2023 12:15:00 AM 20.71 69.278 0.097 6.32 14.74 5.63
6/1/2023 12:30:00 AM 20.34 68.612 0.098 6.31 13.1 5.49
6/1/2023 12:45:00 AM 20.31 68.558 0.097 6.31 13.62 5.49
6/1/2023 1:00:00 AM 20.42 68.756 0.097 6.31 18.44 5.56
6/1/2023 1:15:00 AM 20.7 69.26 0.098 6.32 11.85 5.65
6/1/2023 1:30:00 AM 20.56 69.008 0.098 6.32 12.57 5.47
6/1/2023 1:45:00 AM 20.74 69.332 0.098 6.3 10.88 5.3
6/1/2023 2:00:00 AM 20.72 69.296 0.099 6.31 12.17 5.25
6/1/2023 2:15:00 AM 20.67 69.206 0.099 6.32 12.06 5.2
6/1/2023 2:30:00 AM 20.7 69.26 0.099 6.32 12.89 5.26
6/1/2023 2:45:00 AM 20.62 69.116 0.099 6.3 14.19 5
6/1/2023 3:00:00 AM 20.64 69.152 0.099 6.31 16.85 5.02
6/1/2023 3:15:00 AM 20.61 69.098 0.099 6.31 12.51 4.95
6/1/2023 3:30:00 AM 20.59 69.062 0.1 6.3 15.74 4.81
6/1/2023 3:45:00 AM 20.65 69.17 0.1 6.3 15.88 4.86
6/1/2023 4:00:00 AM 20.76 69.368 0.099 6.37 4056.03 5.32
6/1/2023 4:15:00 AM 20.63 69.134 0.099 6.37 20.45 5.45
6/1/2023 4:30:00 AM 20.52 68.936 0.099 6.37 16.81 5.54
6/1/2023 4:45:00 AM 20.42 68.756 0.099 6.36 27.82 5.44
6/1/2023 5:00:00 AM 20.31 68.558 0.099 6.36 18.73 5.39
6/1/2023 5:15:00 AM 20.17 68.306 0.099 6.34 18.74 5.29
6/1/2023 5:30:00 AM 20.04 68.07201 0.099 6.32 16.24 5.1
6/1/2023 5:45:00 AM 19.92 67.856 0.101 6.31 15.9 4.81
6/1/2023 6:00:00 AM 19.8 67.64 0.1 6.3 15.12 4.82
6/1/2023 6:15:00 AM 19.69 67.442 0.1 6.28 16.6 4.78
6/1/2023 6:30:00 AM 19.62 67.316 0.1 6.27 16.97 4.54
6/1/2023 6:45:00 AM 19.52 67.136 0.1 6.26 21.38 4.52
6/1/2023 7:00:00 AM 19.38 66.884 0.1 6.25 14.86 4.52
6/1/2023 7:15:00 AM 19.32 66.776 0.099 6.25 14.7 4.34
6/1/2023 7:30:00 AM 19.24 66.632 0.1 6.23 15.23 4.3
6/1/2023 7:45:00 AM 19.15 66.47 0.1 6.23 19.89 4.24
6/1/2023 8:00:00 AM 19.08 66.344 0.099 6.23 15.29 4.23
6/1/2023 8:15:00 AM 19.02 66.236 0.099 6.22 14.75 4.2
6/1/2023 8:30:00 AM 18.98 66.164 0.099 6.22 14.28 4.15
6/1/2023 8:45:00 AM 18.95 66.11 0.099 6.21 13.26 4.11
6/1/2023 9:00:00 AM 18.97 66.146 0.1 6.2 16.23 3.99
6/1/2023 9:15:00 AM 18.91 66.038 0.099 6.2 15.68 4.06
6/1/2023 9:30:00 AM 18.84 65.912 0.099 6.2 14.38 4.02
6/1/2023 9:45:00 AM 18.81 65.858 0.099 6.19 14.43 4.02
6/1/2023 10:00:00 AM 18.76 65.768 0.099 6.19 14.54 4.01
6/1/2023 10:15:00 AM 18.75 65.75 0.099 6.19 14.29 3.97
6/1/2023 10:30:00 AM 18.77 65.786 0.099 6.19 13.93 4
6/1/2023 10:45:00 AM 18.78 65.804 0.099 6.19 18.4 3.89
6/1/2023 11:00:00 AM 18.91 66.038 0.099 6.18 13.16 3.68
6/1/2023 11:15:00 AM 18.98 66.164 0.099 6.18 14.37 3.79
6/1/2023 11:30:00 AM 19.02 66.236 0.099 6.19 12.88 3.9
6/1/2023 11:45:00 AM 19.05 66.29 0.099 6.2 14.31 4.04
6/1/2023 12:00:00 PM 19.13 66.434 0.1 6.2 13.1 4.06
6/1/2023 12:15:00 PM 19.23 66.614 0.099 6.19 14.92 4.02
6/1/2023 12:30:00 PM 19.29 66.722 0.1 6.2 14.24 4.13
6/1/2023 12:45:00 PM 19.33 66.794 0.099 6.2 14.5 4.16
6/1/2023 1:00:00 PM 19.52 67.136 0.099 6.19 13.18 4.06
6/1/2023 1:15:00 PM 19.65 67.37 0.099 6.2 13.65 4.1
6/1/2023 1:30:00 PM 19.5 67.1 0.099 6.21 16.12 4.35
6/1/2023 1:45:00 PM 19.65 67.37 0.099 6.21 13.26 4.34
6/1/2023 2:00:00 PM 19.81 67.658 0.1 6.2 18.72 4.2
6/1/2023 2:15:00 PM 19.87 67.766 0.099 6.21 12.94 4.35
6/1/2023 2:30:00 PM 19.75 67.55 0.099 6.22 13.65 4.41
6/1/2023 2:45:00 PM 19.93 67.874 0.099 6.21 13.1 4.48
6/1/2023 3:00:00 PM 19.95 67.91 0.099 6.22 12.28 4.4
6/1/2023 3:15:00 PM 19.98 67.964 0.099 6.22 13.29 4.51
6/1/2023 3:30:00 PM 20.27 68.486 0.099 6.22 12.51 4.59
6/1/2023 3:45:00 PM 20.29 68.522 0.099 6.22 12.52 4.62
6/1/2023 4:00:00 PM 20.09 68.162 0.099 6.24 12.5 4.73
6/1/2023 4:15:00 PM 20.13 68.234 0.1 6.23 13.83 4.67
6/1/2023 4:30:00 PM 20.08 68.144 0.099 6.23 13.04 4.75
6/1/2023 4:45:00 PM 20.14 68.252 0.099 6.22 12.74 4.54
6/1/2023 5:00:00 PM 20.22 68.396 0.1 6.21 13.41 4.34
6/1/2023 5:15:00 PM 20.37 68.666 0.099 6.22 12.13 4.38
6/1/2023 5:30:00 PM 20.23 68.414 0.1 6.22 12.24 4.41
6/1/2023 5:45:00 PM 20.16 68.288 0.099 6.24 11.81 4.68
6/1/2023 6:00:00 PM 20.46 68.828 0.099 6.24 12 4.59
6/1/2023 6:15:00 PM 20.3 68.54 0.1 6.23 12.96 4.3
6/1/2023 6:30:00 PM 20.23 68.414 0.101 6.22 11.68 3.9
6/1/2023 6:45:00 PM 20.32 68.576 0.101 6.21 12.18 3.72
6/1/2023 7:00:00 PM 20.33 68.594 0.1 6.21 12.18 4.07
6/1/2023 7:15:00 PM 20.5 68.9 0.099 6.23 11.89 4.14
6/1/2023 7:30:00 PM 20.49 68.882 0.1 6.22 14.43 4.21
6/1/2023 7:45:00 PM 20.42 68.756 0.101 6.22 13.27 3.8
6/1/2023 8:00:00 PM 20.52 68.936 0.1 6.21 11.79 3.8
6/1/2023 8:15:00 PM 20.53 68.954 0.1 6.22 11.78 3.97
6/1/2023 8:30:00 PM 20.7 69.26 0.1 6.23 12.52 4.38
6/1/2023 8:45:00 PM 20.52 68.936 0.1 6.24 11.77 4.43
6/1/2023 9:00:00 PM 20.69 69.242 0.099 6.25 15.77 4.88
6/1/2023 9:15:00 PM 20.6 69.08 0.1 6.25 17.35 4.35
6/1/2023 9:30:00 PM 20.68 69.224 0.1 6.23 20.01 4.01
6/1/2023 9:45:00 PM 20.57 69.026 0.1 6.24 16.13 4.15
6/1/2023 10:00:00 PM 20.7 69.26 0.1 6.22 24.28 4.17
6/1/2023 10:15:00 PM 20.61 69.098 0.1 6.23 46.56 4.04
6/1/2023 10:30:00 PM 20.71 69.278 0.1 6.22 23.89 4.05
6/1/2023 10:45:00 PM 21.24 70.232 0.099 6.24 15.45 4.59
6/1/2023 11:00:00 PM 20.96 69.728 0.099 6.24 18.36 4.65
6/1/2023 11:15:00 PM 21.02 69.836 0.1 6.24 20.19 4.34
6/1/2023 11:30:00 PM 20.86 69.548 0.1 6.23 14.33 4.24
6/1/2023 11:45:00 PM 20.75 69.35 0.1 6.23 13 4.15
6/2/2023 12:00:00 AM 20.79 69.422 0.1 6.22 12.02 4.04
6/2/2023 12:15:00 AM 20.8 69.44 0.101 6.22 11.78 3.77
6/2/2023 12:30:00 AM 20.72 69.296 0.1 6.21 15.52 3.77
6/2/2023 12:45:00 AM 20.85 69.53 0.1 6.2 14.99 3.64
6/2/2023 1:00:00 AM 20.76 69.368 0.101 6.21 16.11 3.62
6/2/2023 1:15:00 AM 20.72 69.296 0.101 6.2 18.81 3.46
6/2/2023 1:30:00 AM 20.83 69.494 0.101 6.2 16.95 3.51
6/2/2023 1:45:00 AM 20.66 69.188 0.1 6.2 14.54 3.79
6/2/2023 2:00:00 AM 20.64 69.152 0.1 6.19 14.95 3.71
6/2/2023 2:15:00 AM 20.68 69.224 0.1 6.19 14.65 3.71
6/2/2023 2:30:00 AM 20.6 69.08 0.1 6.19 14.18 3.63
6/2/2023 2:45:00 AM 20.59 69.062 0.1 6.19 14.03 3.54
6/2/2023 3:00:00 AM 20.65 69.17 0.1 6.18 13.4 3.52
6/2/2023 3:15:00 AM 20.59 69.062 0.1 6.19 19.13 3.59
6/2/2023 3:30:00 AM 20.6 69.08 0.1 6.18 15.85 3.52
6/2/2023 3:45:00 AM 20.47 68.846 0.1 6.18 14.24 3.71
6/2/2023 4:00:00 AM 20.54 68.972 0.1 6.18 14.11 3.61
6/2/2023 4:15:00 AM 20.45 68.81 0.1 6.16 13.63 3.28
6/2/2023 4:30:00 AM 20.52 68.936 0.101 6.16 14.6 3.2
6/2/2023 4:45:00 AM 20.74 69.332 0.1 6.18 27.36 3.53
6/2/2023 5:00:00 AM 20.6 69.08 0.1 6.17 18.97 3.3
6/2/2023 5:15:00 AM 20.57 69.026 0.1 6.16 24.94 3.15
6/2/2023 5:30:00 AM 20.56 69.008 0.1 6.17 17.39 3.23
6/2/2023 5:45:00 AM 20.82 69.476 0.101 6.19 24.7 3.33
6/2/2023 6:00:00 AM 20.55 68.99 0.101 6.16 18.28 3.05
6/2/2023 6:15:00 AM 20.58 69.044 0.101 6.16 20.26 3.05
6/2/2023 6:30:00 AM 20.6 69.08 0.101 6.16 15.72 2.86
6/2/2023 6:45:00 AM 20.54 68.972 0.101 6.16 17.65 2.9
6/2/2023 7:00:00 AM 20.59 69.062 0.101 6.15 20.53 2.7
6/2/2023 7:15:00 AM 20.65 69.17 0.102 6.16 16.78 2.8
6/2/2023 7:30:00 AM 20.72 69.296 0.101 6.18 17.34 3.1
6/2/2023 7:45:00 AM 20.72 69.296 0.101 6.19 14.99 3.18
6/2/2023 8:00:00 AM 20.72 69.296 0.102 6.19 14.88 3.1
6/2/2023 8:15:00 AM 20.72 69.296 0.102 6.2 18.71 3.27
6/2/2023 8:30:00 AM 20.75 69.35 0.101 6.21 17.48 3.56
6/2/2023 8:45:00 AM 20.61 69.098 0.101 6.19 17.56 3.24
6/2/2023 9:00:00 AM 20.61 69.098 0.1 6.19 16.21 3.29
6/2/2023 9:15:00 AM 20.59 69.062 0.101 6.19 17.66 3.14
6/2/2023 9:30:00 AM 20.57 69.026 0.101 6.18 15.85 3.15
6/2/2023 9:45:00 AM 20.53 68.954 0.1 6.17 19.88 3.16
6/2/2023 10:00:00 AM 20.53 68.954 0.101 6.17 22.8 3.12
6/2/2023 10:15:00 AM 20.52 68.936 0.101 6.18 18.34 3.08
6/2/2023 10:30:00 AM 20.51 68.918 0.102 6.19 15.78 3.09
6/2/2023 10:45:00 AM 20.53 68.954 0.101 6.16 20.64 3.13
6/2/2023 11:00:00 AM 20.55 68.99 0.101 6.15 29.16 3.03
6/2/2023 11:15:00 AM 20.57 69.026 0.1 6.18 16.14 3.06
6/2/2023 11:30:00 AM 20.6 69.08 0.101 6.16 15.44 3.1
6/2/2023 11:45:00 AM 20.75 69.35 0.1 6.16 18.9 3.08
6/2/2023 12:00:00 PM 20.85 69.53 0.101 6.18 20.42 3.12
6/2/2023 12:15:00 PM 21.03 69.854 0.101 6.17 17.88 3.29
6/2/2023 12:30:00 PM 21.51 70.718 0.101 6.18 17.22 3.46
6/2/2023 12:45:00 PM 21.27 70.286 0.101 6.19 15.62 3.25
6/2/2023 1:00:00 PM 21.26 70.268 0.102 6.19 14.52 3.18
6/2/2023 1:15:00 PM 21.52 70.736 0.101 6.19 22.63 3.45
6/2/2023 1:30:00 PM 22.12 71.816 0.101 6.22 26.55 3.95

These are provisional data and have not been subject to a quality assurance process, but rather are the raw data reported by the instrument.
H: value is above sensor operating range
L: value is below sensor operating range
Offline: station is not reporting data
NC: parameter is not collected at site

Data Availability & Limitations

Uncertainty and potential for error can be associated with environmental monitoring data. Provisional data have not been subject to a quality assurance process, but rather are the raw data reported by the instrument. Data users are cautioned to consider carefully the provisional nature of the information before using it for decisions that concern personal or public safety or the conduct of business that involves substantial monetary or operational consequences.

Approved data are currently available by request by emailing: [email protected]. Approved data have been subject to a quality assurance process to correct for equipment or fouling drift. Data recorded during equipment malfunctions have been removed.

View Historical Stations that have been discontinued.